Provisional Data: Chemung River at West Elmira, NY


Please select a monitoring station.
Please select start date.
Please select start date.

Toggle Unit: C/F Toggle Unit: C/F
Sample Time Temperature (C) Temperature (F) Specific Conductivity (mS/cm) pH   Turbidity (NTU+) DO (mg/L)
5/17/2022 12:00:00 AM 18.28 64.904 0.318 8.04 25.72 8.68
5/17/2022 12:15:00 AM 18.23 64.814 0.315 8 12.02 8.61
5/17/2022 12:30:00 AM 18.15 64.67 0.313 7.97 14.32 8.55
5/17/2022 12:45:00 AM 18.07 64.526 0.31 7.94 32.54 8.48
5/17/2022 1:00:00 AM 17.98 64.364 0.307 7.91 27.74 8.42
5/17/2022 1:15:00 AM 17.89 64.202 0.305 7.89 59.46 8.38
5/17/2022 1:30:00 AM 17.8 64.04 0.304 7.86 16.37 8.34
5/17/2022 1:45:00 AM 17.71 63.878 0.302 7.85 34.55 8.31
5/17/2022 2:00:00 AM 17.62 63.716 0.3 7.83 29.74 8.29
5/17/2022 2:15:00 AM 17.52 63.536 0.297 7.82 31.73 8.28
5/17/2022 2:30:00 AM 17.43 63.374 0.294 7.81 29.81 8.28
5/17/2022 2:45:00 AM 17.35 63.23 0.291 7.8 27.82 8.28
5/17/2022 3:00:00 AM 17.27 63.086 0.289 7.79 33.8 8.27
5/17/2022 3:15:00 AM 17.21 62.978 0.289 7.78 32.7 8.25
5/17/2022 3:30:00 AM 17.15 62.87 0.288 7.78 33.98 8.22
5/17/2022 3:45:00 AM 17.09 62.762 0.287 7.76 35.3 8.18
5/17/2022 4:00:00 AM 17.03 62.654 0.286 7.76 47.34 8.15
5/17/2022 4:15:00 AM 16.96 62.528 0.284 7.74 63.58 8.12
5/17/2022 4:30:00 AM 16.87 62.366 0.28 7.73 85.21 8.09
5/17/2022 4:45:00 AM 16.77 62.186 0.275 7.71 109.78 8.07
5/17/2022 5:00:00 AM 16.66 61.988 0.27 7.7 147.24 8.06
5/17/2022 5:15:00 AM 16.51 61.718 0.263 7.68 177.66 8.06
5/17/2022 5:30:00 AM 16.38 61.484 0.257 7.67 210.39 8.08
5/17/2022 5:45:00 AM 16.24 61.232 0.252 7.66 238.44 8.1
5/17/2022 6:00:00 AM 16.09 60.962 0.246 7.65 243.92 8.14
5/17/2022 6:15:00 AM 15.96 60.728 0.242 7.64 276.65 8.18
5/17/2022 6:30:00 AM 15.83 60.494 0.238 7.64 279.99 8.22
5/17/2022 6:45:00 AM 15.71 60.278 0.234 7.63 277.95 8.27
5/17/2022 7:00:00 AM 15.61 60.098 0.231 7.62 292.7 8.33
5/17/2022 7:15:00 AM 15.53 59.954 0.228 7.56 282.21 8.37
5/17/2022 7:30:00 AM 15.44 59.792 0.226 7.58 281.46 8.42
5/17/2022 7:45:00 AM 15.4 59.72 0.224 7.6 260.31 8.45
5/17/2022 8:00:00 AM 15.37 59.666 0.223 7.62 240.52 8.49
5/17/2022 8:15:00 AM 15.34 59.612 0.222 7.62 243.75 8.52
5/17/2022 8:30:00 AM 15.33 59.594 0.221 7.63 230.85 8.54
5/17/2022 8:45:00 AM 15.33 59.594 0.221 7.63 221.1 8.56
5/17/2022 9:00:00 AM 15.33 59.594 0.22 7.64 199.49 8.58
5/17/2022 9:15:00 AM 15.32 59.576 0.22 7.64 200.1 8.6
5/17/2022 9:30:00 AM 15.33 59.594 0.219 7.64 179.11 8.62
5/17/2022 9:45:00 AM 15.37 59.666 0.218 7.64 173.56 8.63
5/17/2022 10:00:00 AM 15.42 59.756 0.218 7.64 162.65 8.64
5/17/2022 10:15:00 AM 15.48 59.864 0.217 7.65 150.01 8.66
5/17/2022 10:30:00 AM 15.57 60.026 0.216 7.65 141.71 8.67
5/17/2022 10:45:00 AM 15.64 60.152 0.215 7.64 140.82 8.69
5/17/2022 11:00:00 AM 15.7 60.26 0.214 7.64 127.87 8.7
5/17/2022 11:15:00 AM 15.79 60.422 0.213 7.65 131.56 8.7
5/17/2022 11:30:00 AM 15.8 60.44 0.213 7.65 114.09 8.72
5/17/2022 11:45:00 AM 15.86 60.548 0.212 7.65 108.35 8.74
5/17/2022 12:00:00 PM 15.88 60.584 0.211 7.66 108.56 8.74
5/17/2022 12:15:00 PM 15.97 60.746 0.211 7.65 105.28 8.77
5/17/2022 12:30:00 PM 16.05 60.89 0.211 7.66 103.73 8.78
5/17/2022 12:45:00 PM 16.18 61.124 0.211 7.67 90.87 8.81
5/17/2022 1:00:00 PM 16.29 61.322 0.212 7.67 92.24 8.82
5/17/2022 1:15:00 PM 16.41 61.538 0.212 7.68 75.16 8.84
5/17/2022 1:30:00 PM 16.52 61.736 0.213 7.69 76.89 8.86
5/17/2022 1:45:00 PM 16.63 61.934 0.213 7.7 72.23 8.88
5/17/2022 2:00:00 PM 16.72 62.096 0.214 7.71 68.28 8.91
5/17/2022 2:15:00 PM 16.75 62.15 0.215 7.72 66.58 8.94
5/17/2022 2:30:00 PM 16.82 62.276 0.216 7.73 59.82 8.98
5/17/2022 2:45:00 PM 16.88 62.384 0.216 7.74 60.14 9.01
5/17/2022 3:00:00 PM 16.9 62.42 0.217 7.75 56.1 9.04
5/17/2022 3:15:00 PM 16.9 62.42 0.218 7.76 48.95 9.07
5/17/2022 3:30:00 PM 16.88 62.384 0.219 7.77 49.79 9.1
5/17/2022 3:45:00 PM 16.88 62.384 0.219 7.78 45.13 9.13
5/17/2022 4:00:00 PM 16.89 62.402 0.22 7.79 47.5 9.15
5/17/2022 4:15:00 PM 16.91 62.438 0.22 7.8 42.52 9.2
5/17/2022 4:30:00 PM 16.92 62.456 0.221 7.81 38.88 9.23
5/17/2022 4:45:00 PM 16.93 62.474 0.221 7.82 37.73 9.25
5/17/2022 5:00:00 PM 16.9 62.42 0.221 7.82 34.02 9.28
5/17/2022 5:15:00 PM 16.89 62.402 0.222 7.83 38.13 9.31
5/17/2022 5:30:00 PM 16.85 62.33 0.222 7.83 35.71 9.32
5/17/2022 5:45:00 PM 16.82 62.276 0.222 7.84 36.71 9.34
5/17/2022 6:00:00 PM 16.77 62.186 0.222 7.84 33.07 9.35
5/17/2022 6:15:00 PM 16.71 62.078 0.223 7.85 32.19 9.36
5/17/2022 6:30:00 PM 16.66 61.988 0.223 7.85 30.55 9.37
5/17/2022 6:45:00 PM 16.61 61.898 0.223 7.85 26.89 9.38
5/17/2022 7:00:00 PM 16.57 61.826 0.223 7.86 28.58 9.4
5/17/2022 7:15:00 PM 16.51 61.718 0.223 7.86 28.11 9.39
5/17/2022 7:30:00 PM 16.47 61.646 0.223 7.86 26.76 9.4
5/17/2022 7:45:00 PM 16.4 61.52 0.223 7.86 24.49 9.42
5/17/2022 8:00:00 PM 16.34 61.412 0.224 7.86 26.43 9.42
5/17/2022 8:15:00 PM 16.27 61.286 0.224 7.86 21.81 9.4
5/17/2022 8:30:00 PM 16.22 61.196 0.224 7.86 23.38 9.41
5/17/2022 8:45:00 PM 16.16 61.088 0.224 7.86 24.11 9.4
5/17/2022 9:00:00 PM 16.1 60.98 0.225 7.86 24.15 9.4
5/17/2022 9:15:00 PM 16.05 60.89 0.225 7.86 23.97 9.41
5/17/2022 9:30:00 PM 16 60.8 0.225 7.86 22.3 9.4
5/17/2022 9:45:00 PM 15.95 60.71 0.226 7.86 22.69 9.4
5/17/2022 10:00:00 PM 15.9 60.62 0.226 7.86 22.15 9.4
5/17/2022 10:15:00 PM 15.85 60.53 0.226 7.85 21.71 9.39
5/17/2022 10:30:00 PM 15.8 60.44 0.227 7.85 18.12 9.38
5/17/2022 10:45:00 PM 15.75 60.35 0.227 7.85 20.21 9.38
5/17/2022 11:00:00 PM 15.7 60.26 0.227 7.85 19.35 9.38
5/17/2022 11:15:00 PM 15.64 60.152 0.228 7.85 20.53 9.37
5/17/2022 11:30:00 PM 15.59 60.062 0.228 7.85 19.4 9.36
5/17/2022 11:45:00 PM 15.54 59.972 0.229 7.85 18.72 9.37
5/18/2022 12:00:00 AM 15.48 59.864 0.229 7.85 17 9.36
5/18/2022 12:15:00 AM 15.44 59.792 0.23 7.85 17.29 9.35
5/18/2022 12:30:00 AM 15.4 59.72 0.23 7.85 17.08 9.34
5/18/2022 12:45:00 AM 15.36 59.648 0.231 7.85 16.45 9.33
5/18/2022 1:00:00 AM 15.32 59.576 0.231 7.85 15.56 9.33
5/18/2022 1:15:00 AM 15.29 59.522 0.232 7.85 15.79 9.32
5/18/2022 1:30:00 AM 15.26 59.468 0.232 7.84 15.41 9.32
5/18/2022 1:45:00 AM 15.23 59.414 0.233 7.84 15.02 9.31
5/18/2022 2:00:00 AM 15.19 59.342 0.233 7.84 15.28 9.3
5/18/2022 2:15:00 AM 15.17 59.306 0.234 7.84 14.2 9.28
5/18/2022 2:30:00 AM 15.14 59.252 0.235 7.84 14.66 9.27
5/18/2022 2:45:00 AM 15.12 59.216 0.235 7.84 13.86 9.26
5/18/2022 3:00:00 AM 15.1 59.18 0.236 7.84 14.06 9.25
5/18/2022 3:15:00 AM 15.08 59.144 0.236 7.84 13.13 9.24
5/18/2022 3:30:00 AM 15.05 59.09 0.237 7.84 13.27 9.21
5/18/2022 3:45:00 AM 15.03 59.054 0.237 7.84 12.48 9.22
5/18/2022 4:00:00 AM 15.02 59.036 0.238 7.83 12.16 9.21
5/18/2022 4:15:00 AM 15.01 59.018 0.238 7.83 13.02 9.19
5/18/2022 4:30:00 AM 14.99 58.982 0.239 7.83 12.61 9.18
5/18/2022 4:45:00 AM 14.98 58.964 0.24 7.83 12.08 9.17
5/18/2022 5:00:00 AM 14.96 58.928 0.24 7.83 12.2 9.15
5/18/2022 5:15:00 AM 14.94 58.892 0.241 7.84 12.66 9.14
5/18/2022 5:30:00 AM 14.92 58.856 0.242 7.83 11.92 9.13
5/18/2022 5:45:00 AM 14.89 58.802 0.242 7.83 11.98 9.12
5/18/2022 6:00:00 AM 14.87 58.766 0.243 7.82 10.97 9.12
5/18/2022 6:15:00 AM 14.85 58.73 0.244 7.83 11.26 9.11
5/18/2022 6:30:00 AM 14.84 58.712 0.244 7.83 10.82 9.1
5/18/2022 6:45:00 AM 14.83 58.694 0.245 7.83 10.58 9.11
5/18/2022 7:00:00 AM 14.83 58.694 0.246 7.83 10.39 9.12
5/18/2022 7:15:00 AM 14.84 58.712 0.246 7.84 9.86 9.14
5/18/2022 7:30:00 AM 14.85 58.73 0.246 7.84 8.93 9.15
5/18/2022 7:45:00 AM 14.87 58.766 0.247 7.85 9.08 9.19
5/18/2022 8:00:00 AM 14.91 58.838 0.247 7.86 8.92 9.22
5/18/2022 8:15:00 AM 14.96 58.928 0.248 7.87 8.46 9.28
5/18/2022 8:30:00 AM 15.02 59.036 0.248 7.88 8.03 9.31
5/18/2022 8:45:00 AM 15.1 59.18 0.248 7.9 8.63 9.37
5/18/2022 9:00:00 AM 15.19 59.342 0.248 7.91 8.04 9.43
5/18/2022 9:15:00 AM 15.28 59.504 0.249 7.92 8.65 9.48
5/18/2022 9:30:00 AM 15.3 59.54 0.249 7.93 7.5 9.5
5/18/2022 9:45:00 AM 15.41 59.738 0.249 7.95 7.8 9.55
5/18/2022 10:00:00 AM 15.53 59.954 0.249 7.97 7.59 9.6
5/18/2022 10:15:00 AM 15.75 60.35 0.249 7.99 7.21 9.67
5/18/2022 10:30:00 AM 15.85 60.53 0.249 8.01 7.33 9.72
5/18/2022 10:45:00 AM 16.01 60.818 0.25 8.03 6.75 9.78
5/18/2022 11:00:00 AM 16.17 61.106 0.25 8.04 7.06 9.82
5/18/2022 11:15:00 AM 16.31 61.358 0.25 8.06 7.03 9.87
5/18/2022 11:30:00 AM 16.43 61.574 0.25 8.08 6.35 9.91
5/18/2022 11:45:00 AM 16.53 61.754 0.25 8.09 6.5 9.94
5/18/2022 12:00:00 PM 16.63 61.934 0.25 8.11 6.4 9.99
5/18/2022 12:15:00 PM 16.75 62.15 0.25 8.13 6.36 10.01
5/18/2022 12:30:00 PM 16.87 62.366 0.25 8.14 6.45 10.06
5/18/2022 12:45:00 PM 17.02 62.636 0.25 8.16 6.06 10.11
5/18/2022 1:00:00 PM 17.16 62.888 0.25 8.18 6.19 10.15
5/18/2022 1:15:00 PM 17.31 63.158 0.25 8.2 6.24 10.18
5/18/2022 1:30:00 PM 17.47 63.446 0.251 8.22 6.43 10.22
5/18/2022 1:45:00 PM 17.61 63.698 0.251 8.24 5.94 10.24
5/18/2022 2:00:00 PM 17.75 63.95 0.251 8.26 5.7 10.3
5/18/2022 2:15:00 PM 17.88 64.184 0.251 8.28 5.96 10.34
5/18/2022 2:30:00 PM 17.98 64.364 0.251 8.29 5.41 10.37
5/18/2022 2:45:00 PM 18.09 64.562 0.251 8.31 5.82 10.41
5/18/2022 3:00:00 PM 18.16 64.688 0.251 8.33 5.42 10.44
5/18/2022 3:15:00 PM 18.2 64.76 0.251 8.34 5.55 10.45
5/18/2022 3:30:00 PM 18.21 64.778 0.251 8.36 5.5 10.48
5/18/2022 3:45:00 PM 18.2 64.76 0.252 8.37 5.25 10.5
5/18/2022 4:00:00 PM 18.16 64.688 0.252 8.38 5.5 10.48
5/18/2022 4:15:00 PM 18.11 64.598 0.252 8.38 5.22 10.48
5/18/2022 4:30:00 PM 18.06 64.508 0.252 8.39 5.14 10.47
5/18/2022 4:45:00 PM 18.02 64.436 0.252 8.39 5.41 10.44
5/18/2022 5:00:00 PM 17.98 64.364 0.253 8.39 5.74 10.41
5/18/2022 5:15:00 PM 17.94 64.292 0.253 8.39 5.57 10.38
5/18/2022 5:30:00 PM 17.9 64.22 0.253 8.39 4.98 10.36
5/18/2022 5:45:00 PM 17.85 64.13 0.253 8.38 5.16 10.33
5/18/2022 6:00:00 PM 17.81 64.058 0.254 8.38 4.81 10.31
5/18/2022 6:15:00 PM 17.76 63.968 0.254 8.38 5.02 10.27
5/18/2022 6:30:00 PM 17.71 63.878 0.254 8.38 5.03 10.26
5/18/2022 6:45:00 PM 17.66 63.788 0.254 8.37 5.12 10.22
5/18/2022 7:00:00 PM 17.61 63.698 0.255 8.37 5.23 10.2
5/18/2022 7:15:00 PM 17.55 63.59 0.255 8.37 5.27 10.16
5/18/2022 7:30:00 PM 17.5 63.5 0.255 8.36 4.94 10.13
5/18/2022 7:45:00 PM 17.44 63.392 0.255 8.35 5.09 10.09
5/18/2022 8:00:00 PM 17.39 63.302 0.256 8.34 5.1 10.04
5/18/2022 8:15:00 PM 17.34 63.212 0.256 8.33 5.21 10.01
5/18/2022 8:30:00 PM 17.3 63.14 0.256 8.33 5.23 9.97
5/18/2022 8:45:00 PM 17.26 63.068 0.257 8.31 5.26 9.92
5/18/2022 9:00:00 PM 17.22 62.996 0.257 8.3 5.2 9.88
5/18/2022 9:15:00 PM 17.18 62.924 0.257 8.29 5.4 9.82
5/18/2022 9:30:00 PM 17.14 62.852 0.257 8.28 5.62 9.78
5/18/2022 9:45:00 PM 17.1 62.78 0.258 8.27 5.64 9.74
5/18/2022 10:00:00 PM 17.06 62.708 0.258 8.25 5.24 9.7
5/18/2022 10:15:00 PM 17.02 62.636 0.258 8.24 5.66 9.67
5/18/2022 10:30:00 PM 16.98 62.564 0.258 8.23 5.73 9.62
5/18/2022 10:45:00 PM 16.94 62.492 0.258 8.21 5.82 9.58
5/18/2022 11:00:00 PM 16.9 62.42 0.258 8.19 6.02 9.54
5/18/2022 11:15:00 PM 16.86 62.348 0.258 8.18 5.72 9.5
5/18/2022 11:30:00 PM 16.82 62.276 0.259 8.16 5.41 9.46
5/18/2022 11:45:00 PM 16.78 62.204 0.259 8.15 5.85 9.42
5/19/2022 12:00:00 AM 16.74 62.132 0.259 8.13 5.69 9.38
5/19/2022 12:15:00 AM 16.71 62.078 0.26 8.11 5.65 9.34
5/19/2022 12:30:00 AM 16.67 62.006 0.26 8.1 5.72 9.3
5/19/2022 12:45:00 AM 16.64 61.952 0.261 8.08 5.59 9.27
5/19/2022 1:00:00 AM 16.6 61.88 0.261 8.06 5.35 9.23
5/19/2022 1:15:00 AM 16.57 61.826 0.261 8.05 5.3 9.2
5/19/2022 1:30:00 AM 16.54 61.772 0.261 8.03 5.89 9.17
5/19/2022 1:45:00 AM 16.51 61.718 0.262 8.02 5.57 9.14
5/19/2022 2:00:00 AM 16.48 61.664 0.262 8.01 5.57 9.1
5/19/2022 2:15:00 AM 16.45 61.61 0.262 7.99 6.05 9.08
5/19/2022 2:30:00 AM 16.42 61.556 0.263 7.98 5.67 9.04
5/19/2022 2:45:00 AM 16.4 61.52 0.263 7.97 5.23 9.01
5/19/2022 3:00:00 AM 16.37 61.466 0.263 7.95 5.48 8.99
5/19/2022 3:15:00 AM 16.35 61.43 0.264 7.94 5.67 8.96
5/19/2022 3:30:00 AM 16.33 61.394 0.264 7.93 5.65 8.94
5/19/2022 3:45:00 AM 16.31 61.358 0.264 7.92 6.14 8.9
5/19/2022 4:00:00 AM 16.29 61.322 0.265 7.91 5.52 8.88
5/19/2022 4:15:00 AM 16.28 61.304 0.265 7.9 5.57 8.86
5/19/2022 4:30:00 AM 16.26 61.268 0.266 7.89 5.15 8.84
5/19/2022 4:45:00 AM 16.24 61.232 0.266 7.88 5.23 8.81
5/19/2022 5:00:00 AM 16.23 61.214 0.267 7.87 4.95 8.78
5/19/2022 5:15:00 AM 16.21 61.178 0.267 7.86 5.37 8.76
5/19/2022 5:30:00 AM 16.2 61.16 0.268 7.86 5.09 8.74
5/19/2022 5:45:00 AM 16.19 61.142 0.268 7.85 5.26 8.71
5/19/2022 6:00:00 AM 16.18 61.124 0.269 7.85 5.36 8.7
5/19/2022 6:15:00 AM 16.16 61.088 0.269 7.83 4.84 8.68
5/19/2022 6:30:00 AM 16.15 61.07 0.27 7.83 5.02 8.66
5/19/2022 6:45:00 AM 16.14 61.052 0.27 7.82 4.75 8.65
5/19/2022 7:00:00 AM 16.13 61.034 0.271 7.82 4.89 8.64
5/19/2022 7:15:00 AM 16.12 61.016 0.272 7.82 4.57 8.64
5/19/2022 7:30:00 AM 16.12 61.016 0.272 7.82 4.36 8.63
5/19/2022 7:45:00 AM 16.12 61.016 0.273 7.82 4.34 8.66
5/19/2022 8:00:00 AM 16.12 61.016 0.273 7.82 4.41 8.68
5/19/2022 8:15:00 AM 16.13 61.034 0.274 7.83 4.31 8.71
5/19/2022 8:30:00 AM 16.13 61.034 0.275 7.83 4.38 8.73
5/19/2022 8:45:00 AM 16.16 61.088 0.275 7.84 4.25 8.78
5/19/2022 9:00:00 AM 16.19 61.142 0.276 7.85 4.16 8.86
5/19/2022 9:15:00 AM 16.23 61.214 0.276 7.87 4.04 8.91
5/19/2022 9:30:00 AM 16.25 61.25 0.277 7.88 3.85 8.95
5/19/2022 9:45:00 AM 16.27 61.286 0.277 7.89 3.87 9.01
5/19/2022 10:00:00 AM 16.3 61.34 0.278 7.9 3.87 9.05
5/19/2022 10:15:00 AM 16.3 61.34 0.278 7.91 3.95 9.09
5/19/2022 10:30:00 AM 16.35 61.43 0.279 7.92 3.94 9.16
5/19/2022 10:45:00 AM 16.41 61.538 0.28 7.93 3.62 9.21
5/19/2022 11:00:00 AM 16.43 61.574 0.28 7.95 3.79 9.24
5/19/2022 11:15:00 AM 16.48 61.664 0.281 7.96 3.74 9.31
5/19/2022 11:30:00 AM 16.53 61.754 0.281 7.98 3.75 9.38
5/19/2022 11:45:00 AM 16.55 61.79 0.282 7.99 3.69 9.42
5/19/2022 12:00:00 PM 16.58 61.844 0.282 8.01 3.5 9.48
5/19/2022 12:15:00 PM 16.62 61.916 0.282 8.02 3.49 9.52
5/19/2022 12:30:00 PM 16.69 62.042 0.283 8.04 3.7 9.59
5/19/2022 12:45:00 PM 16.79 62.222 0.283 8.06 3.44 9.66
5/19/2022 1:00:00 PM 16.9 62.42 0.284 8.08 3.7 9.72
5/19/2022 1:15:00 PM 16.98 62.564 0.284 8.09 3.58 9.78
5/19/2022 1:30:00 PM 17.06 62.708 0.284 8.11 3.57 9.83
5/19/2022 1:45:00 PM 17.16 62.888 0.284 8.13 3.39 9.9
5/19/2022 2:00:00 PM 17.21 62.978 0.285 8.15 3.43 9.93
5/19/2022 2:15:00 PM 17.2 62.96 0.285 8.15 3.85 9.95
5/19/2022 2:30:00 PM 17.23 63.014 0.285 8.16 3.5 9.96
5/19/2022 2:45:00 PM 17.38 63.284 0.286 8.18 4.01 10.02
5/19/2022 3:00:00 PM 17.44 63.392 0.286 8.19 3.45 10.03
5/19/2022 3:15:00 PM 17.47 63.446 0.287 8.2 3.19 10.05
5/19/2022 3:30:00 PM 17.59 63.662 0.287 8.22 3.65 10.11
5/19/2022 3:45:00 PM 17.68 63.824 0.287 8.23 3.7 10.13
5/19/2022 4:00:00 PM 17.8 64.04 0.288 8.25 3.48 10.17
5/19/2022 4:15:00 PM 17.91 64.238 0.288 8.26 3.23 10.23
5/19/2022 4:30:00 PM 18.01 64.418 0.288 8.28 3.78 10.25
5/19/2022 4:45:00 PM 18.08 64.544 0.289 8.29 3.39 10.26
5/19/2022 5:00:00 PM 18.13 64.634 0.289 8.3 3.37 10.29
5/19/2022 5:15:00 PM 18.16 64.688 0.29 8.32 3.73 10.3
5/19/2022 5:30:00 PM 18.17 64.706 0.29 8.32 3.36 10.31
5/19/2022 5:45:00 PM 18.17 64.706 0.291 8.33 3.14 10.31
5/19/2022 6:00:00 PM 18.15 64.67 0.291 8.34 3.56 10.3
5/19/2022 6:15:00 PM 18.12 64.616 0.292 8.34 3.37 10.29
5/19/2022 6:30:00 PM 18.09 64.562 0.292 8.34 3.34 10.27
5/19/2022 6:45:00 PM 18.06 64.508 0.293 8.34 3.32 10.25
5/19/2022 7:00:00 PM 18.03 64.454 0.294 8.34 3.17 10.24
5/19/2022 7:15:00 PM 17.99 64.382 0.294 8.34 3.27 10.21
5/19/2022 7:30:00 PM 17.95 64.31 0.295 8.34 3.18 10.18
5/19/2022 7:45:00 PM 17.91 64.238 0.295 8.34 3.2 10.14
5/19/2022 8:00:00 PM 17.87 64.166 0.296 8.33 3.47 10.11
5/19/2022 8:15:00 PM 17.83 64.094 0.297 8.32 3.22 10.06
5/19/2022 8:30:00 PM 17.78 64.004 0.297 8.32 3.38 10.01
5/19/2022 8:45:00 PM 17.74 63.932 0.298 8.31 3.52 9.95
5/19/2022 9:00:00 PM 17.69 63.842 0.299 8.3 3.27 9.9
5/19/2022 9:15:00 PM 17.66 63.788 0.299 8.3 3.63 9.86
5/19/2022 9:30:00 PM 17.62 63.716 0.3 8.28 3.55 9.81
5/19/2022 9:45:00 PM 17.58 63.644 0.301 8.28 3.79 9.76
5/19/2022 10:00:00 PM 17.53 63.554 0.301 8.27 3.61 9.7
5/19/2022 10:15:00 PM 17.49 63.482 0.302 8.26 3.71 9.67
5/19/2022 10:30:00 PM 17.44 63.392 0.302 8.25 3.47 9.62
5/19/2022 10:45:00 PM 17.39 63.302 0.303 8.24 3.71 9.58
5/19/2022 11:00:00 PM 17.34 63.212 0.304 8.23 3.58 9.54
5/19/2022 11:15:00 PM 17.29 63.122 0.304 8.22 4.05 9.5
5/19/2022 11:30:00 PM 17.25 63.05 0.305 8.22 3.68 9.46
5/19/2022 11:45:00 PM 17.2 62.96 0.305 8.21 3.95 9.43
5/20/2022 12:00:00 AM 17.17 62.906 0.306 8.2 3.9 9.39
5/20/2022 12:15:00 AM 17.13 62.834 0.306 8.19 4.56 9.36
5/20/2022 12:30:00 AM 17.09 62.762 0.307 8.19 4.12 9.34
5/20/2022 12:45:00 AM 17.06 62.708 0.307 8.18 3.76 9.31
5/20/2022 1:00:00 AM 17.04 62.672 0.307 8.18 4.17 9.29
5/20/2022 1:15:00 AM 17.01 62.618 0.308 8.17 4.03 9.27
5/20/2022 1:30:00 AM 16.99 62.582 0.308 8.17 4.09 9.24
5/20/2022 1:45:00 AM 16.97 62.546 0.308 8.16 4.26 9.22
5/20/2022 2:00:00 AM 16.95 62.51 0.308 8.16 3.86 9.19
5/20/2022 2:15:00 AM 16.94 62.492 0.309 8.15 4.12 9.18
5/20/2022 2:30:00 AM 16.92 62.456 0.309 8.14 4.22 9.14
5/20/2022 2:45:00 AM 16.9 62.42 0.309 8.13 4.09 9.12
5/20/2022 3:00:00 AM 16.88 62.384 0.309 8.13 4.27 9.1
5/20/2022 3:15:00 AM 16.85 62.33 0.309 8.12 4.2 9.06
5/20/2022 3:30:00 AM 16.83 62.294 0.31 8.11 4.61 9.04
5/20/2022 3:45:00 AM 16.8 62.24 0.31 8.1 4.25 9
5/20/2022 4:00:00 AM 16.78 62.204 0.31 8.09 4.16 8.98
5/20/2022 4:15:00 AM 16.75 62.15 0.31 8.08 4.21 8.94
5/20/2022 4:30:00 AM 16.73 62.114 0.31 8.07 4.33 8.92
5/20/2022 4:45:00 AM 16.71 62.078 0.31 8.06 4.34 8.89
5/20/2022 5:00:00 AM 16.69 62.042 0.311 8.05 4.41 8.86
5/20/2022 5:15:00 AM 16.66 61.988 0.311 8.04 4.28 8.83
5/20/2022 5:30:00 AM 16.64 61.952 0.311 8.03 4.52 8.81
5/20/2022 5:45:00 AM 16.62 61.916 0.311 8.02 4.34 8.78
5/20/2022 6:00:00 AM 16.6 61.88 0.311 8.01 4.19 8.76
5/20/2022 6:15:00 AM 16.59 61.862 0.311 8.01 4.1 8.74
5/20/2022 6:30:00 AM 16.58 61.844 0.311 8 4.4 8.73
5/20/2022 6:45:00 AM 16.59 61.862 0.311 8 4.24 8.73
5/20/2022 7:00:00 AM 16.59 61.862 0.311 8 4.21 8.76
5/20/2022 7:15:00 AM 16.61 61.898 0.311 8 4.19 8.78
5/20/2022 7:30:00 AM 16.62 61.916 0.311 8 4.15 8.81
5/20/2022 7:45:00 AM 16.64 61.952 0.31 8.01 3.91 8.86
5/20/2022 8:00:00 AM 16.69 62.042 0.31 8.02 3.91 8.91
5/20/2022 8:15:00 AM 16.73 62.114 0.31 8.02 3.89 8.96
5/20/2022 8:30:00 AM 16.79 62.222 0.309 8.03 3.78 9.03
5/20/2022 8:45:00 AM 16.83 62.294 0.309 8.04 3.95 9.08
5/20/2022 9:00:00 AM 16.9 62.42 0.308 8.06 3.86 9.15
5/20/2022 9:15:00 AM 16.94 62.492 0.307 8.07 3.78 9.22
5/20/2022 9:30:00 AM 16.98 62.564 0.307 8.08 4.11 9.28
5/20/2022 9:45:00 AM 17.03 62.654 0.306 8.09 3.56 9.33
5/20/2022 10:00:00 AM 17.08 62.744 0.305 8.1 3.96 9.4
5/20/2022 10:15:00 AM 17.13 62.834 0.305 8.12 3.65 9.45
5/20/2022 10:30:00 AM 17.17 62.906 0.304 8.13 3.83 9.51
5/20/2022 10:45:00 AM 17.21 62.978 0.303 8.14 3.52 9.56
5/20/2022 11:00:00 AM 17.28 63.104 0.302 8.15 3.74 9.62
5/20/2022 11:15:00 AM 17.33 63.194 0.301 8.17 3.75 9.67
5/20/2022 11:30:00 AM 17.37 63.266 0.3 8.18 3.6 9.72
5/20/2022 11:45:00 AM 17.4 63.32 0.3 8.19 3.52 9.76
5/20/2022 12:00:00 PM 17.46 63.428 0.299 8.2 3.75 9.82
5/20/2022 12:15:00 PM 17.47 63.446 0.298 8.21 3.46 9.84
5/20/2022 12:30:00 PM 17.5 63.5 0.297 8.22 3.28 9.86
5/20/2022 12:45:00 PM 17.6 63.68 0.296 8.23 3.53 9.94
5/20/2022 1:00:00 PM 17.68 63.824 0.295 8.24 3.75 10
5/20/2022 1:15:00 PM 17.82 64.076 0.294 8.26 3.57 10.06
5/20/2022 1:30:00 PM 17.97 64.346 0.293 8.28 3.56 10.12
5/20/2022 1:45:00 PM 18.03 64.454 0.292 8.29 3.49 10.15
5/20/2022 2:00:00 PM 18.06 64.508 0.292 8.29 3.57 10.17
5/20/2022 2:15:00 PM 18.13 64.634 0.291 8.3 3.47 10.21
5/20/2022 2:30:00 PM 18.25 64.85 0.29 8.31 3.5 10.23
5/20/2022 2:45:00 PM 18.38 65.084 0.289 8.33 3.63 10.26
5/20/2022 3:00:00 PM 18.52 65.336 0.288 8.34 3.69 10.31
5/20/2022 3:15:00 PM 18.68 65.624 0.288 8.36 3.68 10.35
5/20/2022 3:30:00 PM 18.8 65.84 0.287 8.37 3.72 10.39
5/20/2022 3:45:00 PM 18.87 65.966 0.286 8.38 3.59 10.41
5/20/2022 4:00:00 PM 18.91 66.038 0.286 8.39 3.7 10.43
5/20/2022 4:15:00 PM 18.97 66.146 0.285 8.41 3.42 10.45
5/20/2022 4:30:00 PM 19.02 66.236 0.284 8.42 3.39 10.48
5/20/2022 4:45:00 PM 19.03 66.254 0.284 8.43 3.56 10.48
5/20/2022 5:00:00 PM 19.07 66.326 0.284 8.44 3.55 10.52
5/20/2022 5:15:00 PM 19.08 66.344 0.283 8.46 3.53 10.53
5/20/2022 5:30:00 PM 19.07 66.326 0.283 8.46 3.54 10.52
5/20/2022 5:45:00 PM 19.08 66.344 0.282 8.47 3.39 10.51
5/20/2022 6:00:00 PM 19.06 66.308 0.282 8.46 3.53 10.46
5/20/2022 6:15:00 PM 19.04 66.272 0.282 8.47 3.33 10.43
5/20/2022 6:30:00 PM 19.04 66.272 0.282 8.47 3.33 10.41
5/20/2022 6:45:00 PM 19.02 66.236 0.282 8.46 3.42 10.36
5/20/2022 7:00:00 PM 19 66.2 0.281 8.46 3.48 10.32
5/20/2022 7:15:00 PM 18.98 66.164 0.281 8.46 3.35 10.28
5/20/2022 7:30:00 PM 18.97 66.146 0.281 8.46 3.48 10.24
5/20/2022 7:45:00 PM 18.95 66.11 0.281 8.45 3.78 10.19
5/20/2022 8:00:00 PM 18.93 66.074 0.281 8.45 3.82 10.14
5/20/2022 8:15:00 PM 18.91 66.038 0.281 8.44 3.5 10.08
5/20/2022 8:30:00 PM 18.89 66.002 0.281 8.43 3.75 10.01
5/20/2022 8:45:00 PM 18.87 65.966 0.281 8.42 3.78 9.95
5/20/2022 9:00:00 PM 18.86 65.948 0.281 8.41 3.78 9.87
5/20/2022 9:15:00 PM 18.83 65.894 0.281 8.39 3.69 9.81
5/20/2022 9:30:00 PM 18.81 65.858 0.281 8.38 3.74 9.73
5/20/2022 9:45:00 PM 18.8 65.84 0.282 8.37 4.04 9.67
5/20/2022 10:00:00 PM 18.78 65.804 0.282 8.35 3.59 9.61
5/20/2022 10:15:00 PM 18.77 65.786 0.282 8.34 4.25 9.56
5/20/2022 10:30:00 PM 18.75 65.75 0.282 8.33 3.85 9.5
5/20/2022 10:45:00 PM 18.74 65.732 0.282 8.32 3.57 9.45
5/20/2022 11:00:00 PM 18.73 65.714 0.283 8.3 3.65 9.39
5/20/2022 11:15:00 PM 18.72 65.696 0.283 8.3 3.7 9.35
5/20/2022 11:30:00 PM 18.71 65.67799 0.283 8.28 4.34 9.28
5/20/2022 11:45:00 PM 18.69 65.642 0.283 8.26 11.06 9.23
5/21/2022 12:00:00 AM 18.68 65.624 0.283 8.25 5.7 9.19
5/21/2022 12:15:00 AM 18.66 65.588 0.284 8.23 7.24 9.12
5/21/2022 12:30:00 AM 18.65 65.57 0.284 8.23 4.26 9.09
5/21/2022 12:45:00 AM 18.63 65.534 0.284 8.21 4.1 9.06
5/21/2022 1:00:00 AM 18.61 65.498 0.284 8.2 4.49 9
5/21/2022 1:15:00 AM 18.6 65.48 0.285 8.18 3.96 8.96
5/21/2022 1:30:00 AM 18.58 65.444 0.285 8.16 6 8.93
5/21/2022 1:45:00 AM 18.56 65.408 0.285 8.15 4.82 8.89
5/21/2022 2:00:00 AM 18.54 65.372 0.285 8.14 4.58 8.85
5/21/2022 2:15:00 AM 18.52 65.336 0.285 8.13 3.92 8.82
5/21/2022 2:30:00 AM 18.5 65.3 0.286 8.11 6.92 8.77
5/21/2022 2:45:00 AM 18.49 65.282 0.286 8.09 5.71 8.72
5/21/2022 3:00:00 AM 18.47 65.246 0.286 8.08 4.01 8.7
5/21/2022 3:15:00 AM 18.45 65.21 0.286 8.06 4.59 8.67
5/21/2022 3:30:00 AM 18.43 65.174 0.286 8.04 9.02 8.61
5/21/2022 3:45:00 AM 18.42 65.156 0.287 8.04 4.25 8.59
5/21/2022 4:00:00 AM 18.4 65.12 0.287 8.02 4.38 8.55
5/21/2022 4:15:00 AM 18.39 65.102 0.287 8.01 4.22 8.52
5/21/2022 4:30:00 AM 18.37 65.066 0.287 7.99 4.36 8.48
5/21/2022 4:45:00 AM 18.35 65.03 0.288 7.98 4.16 8.45
5/21/2022 5:00:00 AM 18.33 64.994 0.288 7.96 4.61 8.42
5/21/2022 5:15:00 AM 18.32 64.976 0.288 7.95 4.34 8.39
5/21/2022 5:30:00 AM 18.3 64.94 0.288 7.94 4.16 8.35
5/21/2022 5:45:00 AM 18.29 64.922 0.289 7.93 4.02 8.33
5/21/2022 6:00:00 AM 18.27 64.886 0.289 7.92 4 8.3
5/21/2022 6:15:00 AM 18.26 64.868 0.289 7.91 4.32 8.28
5/21/2022 6:30:00 AM 18.25 64.85 0.29 7.9 4.17 8.27
5/21/2022 6:45:00 AM 18.25 64.85 0.29 7.9 3.96 8.28
5/21/2022 7:00:00 AM 18.26 64.868 0.29 7.9 4.12 8.29
5/21/2022 7:15:00 AM 18.28 64.904 0.29 7.9 3.76 8.32
5/21/2022 7:30:00 AM 18.3 64.94 0.291 7.9 3.63 8.35
5/21/2022 7:45:00 AM 18.34 65.012 0.291 7.91 3.76 8.42
5/21/2022 8:00:00 AM 18.39 65.102 0.291 7.92 3.52 8.49
5/21/2022 8:15:00 AM 18.46 65.228 0.292 7.94 3.4 8.56
5/21/2022 8:30:00 AM 18.53 65.354 0.292 7.96 3.37 8.66
5/21/2022 8:45:00 AM 18.62 65.516 0.292 7.97 3.48 8.73
5/21/2022 9:00:00 AM 18.71 65.67799 0.293 7.99 3.36 8.82
5/21/2022 9:15:00 AM 18.82 65.876 0.293 8.01 3.37 8.92
5/21/2022 9:30:00 AM 18.92 66.056 0.293 8.03 3.35 9.01
5/21/2022 9:45:00 AM 19.05 66.29 0.293 8.05 3.3 9.1
5/21/2022 10:00:00 AM 19.2 66.56 0.294 8.08 3.34 9.19
5/21/2022 10:15:00 AM 19.35 66.83 0.294 8.1 3.34 9.27
5/21/2022 10:30:00 AM 19.51 67.118 0.294 8.12 3.55 9.38
5/21/2022 10:45:00 AM 19.66 67.388 0.294 8.15 3.27 9.47
5/21/2022 11:00:00 AM 19.83 67.694 0.294 8.18 3.4 9.56
5/21/2022 11:15:00 AM 19.99 67.982 0.294 8.2 3.28 9.65
5/21/2022 11:30:00 AM 20.14 68.252 0.294 8.22 3.14 9.73
5/21/2022 11:45:00 AM 20.3 68.54 0.295 8.24 3.08 9.79
5/21/2022 12:00:00 PM 20.46 68.828 0.295 8.26 3.29 9.86
5/21/2022 12:15:00 PM 20.62 69.116 0.295 8.28 3.15 9.93
5/21/2022 12:30:00 PM 20.74 69.332 0.295 8.3 3.2 9.99
5/21/2022 12:45:00 PM 20.88 69.584 0.295 8.31 3.15 10.04
5/21/2022 1:00:00 PM 21.01 69.818 0.295 8.33 3.17 10.08
5/21/2022 1:15:00 PM 21.11 69.998 0.295 8.34 3.11 10.1
5/21/2022 1:30:00 PM 21.25 70.25 0.295 8.36 3.25 10.18
5/21/2022 1:45:00 PM 21.42 70.556 0.295 8.38 3.22 10.22
5/21/2022 2:00:00 PM 21.5 70.7 0.295 8.39 2.96 10.26
5/21/2022 2:15:00 PM 21.57 70.826 0.295 8.4 3.09 10.29
5/21/2022 2:30:00 PM 21.63 70.934 0.295 8.42 3.18 10.33
5/21/2022 2:45:00 PM 21.68 71.024 0.295 8.43 3.16 10.37
5/21/2022 3:00:00 PM 21.73 71.114 0.295 8.44 3.25 10.4
5/21/2022 3:15:00 PM 21.76 71.168 0.295 8.45 3.27 10.42
5/21/2022 3:30:00 PM 21.81 71.258 0.295 8.46 3.1 10.44
5/21/2022 3:45:00 PM 21.9 71.42 0.295 8.48 3.08 10.46
5/21/2022 4:00:00 PM 21.99 71.582 0.294 8.49 2.85 10.5
5/21/2022 4:15:00 PM 22.06 71.708 0.294 8.5 2.93 10.52
5/21/2022 4:30:00 PM 22.12 71.816 0.294 8.5 3.18 10.51
5/21/2022 4:45:00 PM 22.15 71.87 0.294 8.52 2.85 10.51
5/21/2022 5:00:00 PM 22.18 71.924 0.294 8.52 2.89 10.52
5/21/2022 5:15:00 PM 22.19 71.942 0.294 8.53 2.93 10.49
5/21/2022 5:30:00 PM 22.23 72.014 0.294 8.54 2.86 10.49
5/21/2022 5:45:00 PM 22.26 72.068 0.294 8.54 2.89 10.49
5/21/2022 6:00:00 PM 22.26 72.068 0.294 8.54 2.91 10.46
5/21/2022 6:15:00 PM 22.26 72.068 0.294 8.55 2.82 10.44
5/21/2022 6:30:00 PM 22.25 72.05 0.294 8.55 2.99 10.37
5/21/2022 6:45:00 PM 22.23 72.014 0.294 8.55 3.11 10.35
5/21/2022 7:00:00 PM 22.2 71.96 0.294 8.55 3.03 10.29
5/21/2022 7:15:00 PM 22.16 71.888 0.294 8.55 2.91 10.24
5/21/2022 7:30:00 PM 22.11 71.798 0.294 8.54 3 10.16
5/21/2022 7:45:00 PM 22.06 71.708 0.294 8.54 3.03 10.04
5/21/2022 8:00:00 PM 22.01 71.618 0.294 8.52 3.09 9.99
5/21/2022 8:15:00 PM 21.96 71.528 0.294 8.52 3.33 9.91
5/21/2022 8:30:00 PM 21.91 71.438 0.294 8.5 3.26 9.81
5/21/2022 8:45:00 PM 21.86 71.348 0.295 8.49 3.05 9.72
5/21/2022 9:00:00 PM 21.82 71.276 0.295 8.47 3.18 9.64
5/21/2022 9:15:00 PM 21.77 71.186 0.295 8.46 3.22 9.55
5/21/2022 9:30:00 PM 21.72 71.096 0.295 8.45 3.22 9.48
5/21/2022 9:45:00 PM 21.67 71.006 0.295 8.43 3.28 9.37
5/21/2022 10:00:00 PM 21.63 70.934 0.296 8.42 3.16 9.32
5/21/2022 10:15:00 PM 21.58 70.844 0.296 8.4 3.23 9.23
5/21/2022 10:30:00 PM 21.53 70.754 0.296 8.38 3.33 9.14
5/21/2022 10:45:00 PM 21.48 70.664 0.296 8.36 3.13 9.07
5/21/2022 11:00:00 PM 21.43 70.574 0.297 8.34 3.43 8.99
5/21/2022 11:15:00 PM 21.39 70.502 0.297 8.33 3.06 8.92
5/21/2022 11:30:00 PM 21.34 70.412 0.297 8.3 3.57 8.85
5/21/2022 11:45:00 PM 21.3 70.34 0.297 8.28 3.19 8.79
5/22/2022 12:00:00 AM 21.26 70.268 0.297 8.27 3.46 8.72
5/22/2022 12:15:00 AM 21.22 70.196 0.297 8.25 3.41 8.65
5/22/2022 12:30:00 AM 21.18 70.124 0.298 8.23 3.53 8.61
5/22/2022 12:45:00 AM 21.16 70.088 0.298 8.22 3.23 8.55
5/22/2022 1:00:00 AM 21.13 70.034 0.298 8.2 3.14 8.49
5/22/2022 1:15:00 AM 21.1 69.98 0.298 8.19 3.11 8.45
5/22/2022 1:30:00 AM 21.08 69.944 0.298 8.17 3.37 8.4
5/22/2022 1:45:00 AM 21.07 69.926 0.298 8.16 3.34 8.37
5/22/2022 2:00:00 AM 21.05 69.89 0.298 8.14 3.28 8.32
5/22/2022 2:15:00 AM 21.04 69.872 0.298 8.13 3.22 8.28
5/22/2022 2:30:00 AM 21.03 69.854 0.299 8.12 3.16 8.22
5/22/2022 2:45:00 AM 21.02 69.836 0.299 8.1 3.59 8.18
5/22/2022 3:00:00 AM 21.02 69.836 0.299 8.09 3.27 8.14
5/22/2022 3:15:00 AM 21.01 69.818 0.299 8.08 3.76 8.08
5/22/2022 3:30:00 AM 21 69.8 0.299 8.06 3.11 8.04
5/22/2022 3:45:00 AM 21 69.8 0.299 8.04 3.48 8
5/22/2022 4:00:00 AM 21 69.8 0.299 8.03 3.19 7.97
5/22/2022 4:15:00 AM 20.99 69.782 0.299 8.01 3.63 7.91
5/22/2022 4:30:00 AM 20.98 69.764 0.3 8 3.57 7.88
5/22/2022 4:45:00 AM 20.96 69.728 0.3 7.99 3.61 7.84
5/22/2022 5:00:00 AM 20.95 69.71 0.3 7.97 3.36 7.8
5/22/2022 5:15:00 AM 20.94 69.692 0.3 7.96 3.58 7.75
5/22/2022 5:30:00 AM 20.92 69.656 0.301 7.94 3.28 7.69
5/22/2022 5:45:00 AM 20.9 69.62 0.301 7.94 3.59 7.68
5/22/2022 6:00:00 AM 20.89 69.602 0.301 7.92 3.45 7.65
5/22/2022 6:15:00 AM 20.88 69.584 0.301 7.91 4.22 7.62
5/22/2022 6:30:00 AM 20.88 69.584 0.302 7.9 3.28 7.61
5/22/2022 6:45:00 AM 20.88 69.584 0.302 7.9 3.27 7.62
5/22/2022 7:00:00 AM 20.88 69.584 0.302 7.89 3.09 7.61
5/22/2022 7:15:00 AM 20.87 69.566 0.302 7.89 3.07 7.62
5/22/2022 7:30:00 AM 20.93 69.674 0.303 7.9 3.2 7.68
5/22/2022 7:45:00 AM 20.95 69.71 0.303 7.9 3.05 7.67
5/22/2022 8:00:00 AM 20.96 69.728 0.303 7.91 3.24 7.74
5/22/2022 8:15:00 AM 20.98 69.764 0.304 7.91 3.07 7.79
5/22/2022 8:30:00 AM 21.03 69.854 0.304 7.93 2.99 7.9
5/22/2022 8:45:00 AM 21.11 69.998 0.304 7.94 2.92 7.98
5/22/2022 9:00:00 AM 21.19 70.142 0.305 7.95 2.91 8.06
5/22/2022 9:15:00 AM 21.21 70.17799 0.305 7.97 2.92 8.13
5/22/2022 9:30:00 AM 21.28 70.304 0.306 7.99 3.08 8.22
5/22/2022 9:45:00 AM 21.34 70.412 0.306 8 3.27 8.29
5/22/2022 10:00:00 AM 21.36 70.448 0.307 8.01 3.58 8.36
5/22/2022 10:15:00 AM 21.4 70.52 0.307 8.03 3.01 8.44
5/22/2022 10:30:00 AM 21.46 70.628 0.308 8.05 3.23 8.49
5/22/2022 10:45:00 AM 21.57 70.826 0.308 8.07 2.87 8.58
5/22/2022 11:00:00 AM 21.61 70.898 0.309 8.09 2.83 8.66
5/22/2022 11:15:00 AM 21.7 71.06 0.309 8.11 2.82 8.72
5/22/2022 11:30:00 AM 21.8 71.24 0.31 8.13 2.99 8.87
5/22/2022 11:45:00 AM 21.87 71.366 0.31 8.15 2.91 8.94
5/22/2022 12:00:00 PM 22.02 71.636 0.311 8.18 2.77 9.06
5/22/2022 12:15:00 PM 22.11 71.798 0.311 8.2 3.86 9.14
5/22/2022 12:30:00 PM 22.22 71.996 0.311 8.22 3.36 9.23
5/22/2022 12:45:00 PM 22.33 72.194 0.312 8.24 3.03 9.29
5/22/2022 1:00:00 PM 22.42 72.356 0.312 8.26 3.07 9.37
5/22/2022 1:15:00 PM 22.58 72.644 0.313 8.28 3.03 9.45
5/22/2022 1:30:00 PM 22.73 72.914 0.313 8.3 2.91 9.53
5/22/2022 1:45:00 PM 22.85 73.13 0.313 8.31 2.98 9.6
5/22/2022 2:00:00 PM 22.97 73.346 0.313 8.34 2.98 9.66
5/22/2022 2:15:00 PM 23.13 73.634 0.314 8.35 3.04 9.73
5/22/2022 2:30:00 PM 23.17 73.706 0.314 8.36 2.86 9.71
5/22/2022 2:45:00 PM 23.15 73.67 0.313 8.35 3.66 9.67
5/22/2022 3:00:00 PM 23.25 73.85 0.314 8.37 2.97 9.73
5/22/2022 3:15:00 PM 23.29 73.922 0.314 8.37 2.85 9.7
5/22/2022 3:30:00 PM 23.3 73.94 0.314 8.38 3.08 9.72
5/22/2022 3:45:00 PM 23.39 74.102 0.315 8.39 3.1 9.76
5/22/2022 4:00:00 PM 23.47 74.246 0.315 8.4 2.87 9.79
5/22/2022 4:15:00 PM 23.49 74.282 0.315 8.41 3.12 9.83
5/22/2022 4:30:00 PM 23.48 74.264 0.315 8.42 2.94 9.84
5/22/2022 4:45:00 PM 23.43 74.174 0.315 8.42 2.94 9.79
5/22/2022 5:00:00 PM 23.36 74.048 0.316 8.41 5.28 9.74
5/22/2022 5:15:00 PM 23.28 73.904 0.316 8.41 3.64 9.69
5/22/2022 5:30:00 PM 23.2 73.76 0.316 8.4 3.53 9.61
5/22/2022 5:45:00 PM 23.12 73.616 0.316 8.4 3.31 9.57
5/22/2022 6:00:00 PM 23.05 73.49 0.316 8.4 3.16 9.54
5/22/2022 6:15:00 PM 22.98 73.364 0.316 8.39 3.04 9.51
5/22/2022 6:30:00 PM 22.91 73.238 0.317 8.38 3.03 9.46
5/22/2022 6:45:00 PM 22.84 73.112 0.317 8.38 3.04 9.41
5/22/2022 7:00:00 PM 22.75 72.95 0.317 8.37 2.96 9.36
5/22/2022 7:15:00 PM 22.65 72.77 0.317 8.36 3.03 9.27
5/22/2022 7:30:00 PM 22.56 72.608 0.317 8.34 3.07 9.19
5/22/2022 7:45:00 PM 22.47 72.446 0.317 8.32 3.1 9.1
5/22/2022 8:00:00 PM 22.37 72.266 0.317 8.31 3.15 9.01
5/22/2022 8:15:00 PM 22.28 72.104 0.317 8.29 3.16 8.94
5/22/2022 8:30:00 PM 22.2 71.96 0.318 8.27 3.08 8.86
5/22/2022 8:45:00 PM 22.11 71.798 0.318 8.25 3.1 8.79
5/22/2022 9:00:00 PM 22.02 71.636 0.318 8.25 3.51 8.73
5/22/2022 9:15:00 PM 21.94 71.492 0.318 8.22 4.32 8.66
5/22/2022 9:30:00 PM 21.85 71.33 0.318 8.2 3.38 8.58
5/22/2022 9:45:00 PM 21.75 71.15 0.318 8.19 3.5 8.51
5/22/2022 10:00:00 PM 21.65 70.97 0.318 8.18 3.38 8.47
5/22/2022 10:15:00 PM 21.56 70.808 0.318 8.16 3.18 8.37
5/22/2022 10:30:00 PM 21.46 70.628 0.318 8.14 3.23 8.34
5/22/2022 10:45:00 PM 21.37 70.466 0.318 8.13 3.36 8.3
5/22/2022 11:00:00 PM 21.29 70.32201 0.318 8.12 3.12 8.26
5/22/2022 11:15:00 PM 21.2 70.16 0.318 8.11 3.35 8.22
5/22/2022 11:30:00 PM 21.12 70.016 0.318 8.1 3.35 8.17
5/22/2022 11:45:00 PM 21.04 69.872 0.319 8.09 3.2 8.16
5/23/2022 12:00:00 AM 20.96 69.728 0.319 8.07 3.17 8.1
5/23/2022 12:15:00 AM 20.88 69.584 0.319 8.07 3.2 8.08
5/23/2022 12:30:00 AM 20.81 69.458 0.319 8.05 3.33 8.03
5/23/2022 12:45:00 AM 20.74 69.332 0.319 8.04 3.28 8.01
5/23/2022 1:00:00 AM 20.67 69.206 0.319 8.03 3.18 7.98
5/23/2022 1:15:00 AM 20.6 69.08 0.319 8.02 3.35 7.95
5/23/2022 1:30:00 AM 20.53 68.954 0.32 8.01 3.38 7.92
5/23/2022 1:45:00 AM 20.47 68.846 0.32 8.01 4.04 7.9
5/23/2022 2:00:00 AM 20.4 68.72 0.32 8 3.53 7.87
5/23/2022 2:15:00 AM 20.33 68.594 0.32 7.98 3.44 7.83
5/23/2022 2:30:00 AM 20.27 68.486 0.32 7.97 3.41 7.82
5/23/2022 2:45:00 AM 20.2 68.36 0.321 7.96 3.45 7.79
5/23/2022 3:00:00 AM 20.14 68.252 0.321 7.95 3.58 7.75
5/23/2022 3:15:00 AM 20.09 68.162 0.321 7.94 3.5 7.74
5/23/2022 3:30:00 AM 20.02 68.036 0.322 7.93 3.42 7.7
5/23/2022 3:45:00 AM 19.97 67.946 0.322 7.92 3.45 7.69
5/23/2022 4:00:00 AM 19.92 67.856 0.322 7.91 4.43 7.67
5/23/2022 4:15:00 AM 19.88 67.784 0.322 7.9 3.55 7.65
5/23/2022 4:30:00 AM 19.83 67.694 0.323 7.89 3.8 7.63
5/23/2022 4:45:00 AM 19.79 67.622 0.323 7.89 3.63 7.62
5/23/2022 5:00:00 AM 19.74 67.532 0.323 7.87 3.68 7.59
5/23/2022 5:15:00 AM 19.71 67.478 0.324 7.86 3.78 7.56
5/23/2022 5:30:00 AM 19.67 67.406 0.324 7.85 3.75 7.52
5/23/2022 5:45:00 AM 19.62 67.316 0.324 7.84 3.76 7.51
5/23/2022 6:00:00 AM 19.58 67.244 0.325 7.84 3.31 7.5
5/23/2022 6:15:00 AM 19.54 67.172 0.325 7.83 3.42 7.49
5/23/2022 6:30:00 AM 19.49 67.082 0.325 7.83 3.52 7.5
5/23/2022 6:45:00 AM 19.45 67.01 0.325 7.83 3.07 7.5
5/23/2022 7:00:00 AM 19.4 66.92 0.326 7.83 3.34 7.54
5/23/2022 7:15:00 AM 19.37 66.866 0.326 7.83 3.35 7.56
5/23/2022 7:30:00 AM 19.35 66.83 0.326 7.83 3.21 7.63
5/23/2022 7:45:00 AM 19.35 66.83 0.326 7.84 3.28 7.7
5/23/2022 8:00:00 AM 19.35 66.83 0.326 7.85 3.45 7.78
5/23/2022 8:15:00 AM 19.36 66.848 0.326 7.86 3.4 7.87
5/23/2022 8:30:00 AM 19.42 66.956 0.327 7.88 3.26 8.01
5/23/2022 8:45:00 AM 19.45 67.01 0.327 7.9 3.27 8.11
5/23/2022 9:00:00 AM 19.48 67.064 0.327 7.92 3.33 8.2
5/23/2022 9:15:00 AM 19.54 67.172 0.327 7.93 3.16 8.31
5/23/2022 9:30:00 AM 19.63 67.334 0.327 7.96 3.53 8.44
5/23/2022 9:45:00 AM 19.69 67.442 0.327 7.97 3.07 8.53
5/23/2022 10:00:00 AM 19.75 67.55 0.327 7.99 3.54 8.62
5/23/2022 10:15:00 AM 19.82 67.676 0.327 8.02 3.48 8.76
5/23/2022 10:30:00 AM 19.92 67.856 0.327 8.04 3.25 8.84
5/23/2022 10:45:00 AM 20.03 68.054 0.327 8.06 3.24 8.96
5/23/2022 11:00:00 AM 20.16 68.288 0.327 8.08 3.3 9.08
5/23/2022 11:15:00 AM 20.27 68.486 0.327 8.1 3.29 9.15
5/23/2022 11:30:00 AM 20.4 68.72 0.327 8.12 3.3 9.25
5/23/2022 11:45:00 AM 20.48 68.864 0.327 8.14 3.3 9.33
5/23/2022 12:00:00 PM 20.56 69.008 0.327 8.16 3.22 9.38
5/23/2022 12:15:00 PM 20.66 69.188 0.327 8.18 3.25 9.49
5/23/2022 12:30:00 PM 20.73 69.314 0.327 8.2 3.24 9.57
5/23/2022 12:45:00 PM 20.76 69.368 0.327 8.21 3.47 9.58
5/23/2022 1:00:00 PM 20.83 69.494 0.328 8.23 3.18 9.69
5/23/2022 1:15:00 PM 20.93 69.674 0.327 8.24 3.43 9.74
5/23/2022 1:30:00 PM 21 69.8 0.328 8.26 3.43 9.76
5/23/2022 1:45:00 PM 21.08 69.944 0.328 8.28 3.41 9.88
5/23/2022 2:00:00 PM 21.18 70.124 0.328 8.3 3.26 9.94
5/23/2022 2:15:00 PM 21.24 70.232 0.328 8.31 3.36 10
5/23/2022 2:30:00 PM 21.3 70.34 0.327 8.33 3.45 10.03
5/23/2022 2:45:00 PM 21.33 70.394 0.328 8.34 3.37 10.09
5/23/2022 3:00:00 PM 21.33 70.394 0.327 8.35 3.46 10.11
5/23/2022 3:15:00 PM 21.33 70.394 0.327 8.35 3.23 10.14
5/23/2022 3:30:00 PM 21.35 70.43 0.327 8.37 9.79 10.18
5/23/2022 3:45:00 PM 21.36 70.448 0.327 8.38 3.38 10.21
5/23/2022 4:00:00 PM 21.35 70.43 0.327 8.39 3.13 10.22
5/23/2022 4:15:00 PM 21.32 70.376 0.327 8.4 3.41 10.23
5/23/2022 4:30:00 PM 21.3 70.34 0.327 8.41 3.43 10.26
5/23/2022 4:45:00 PM 21.25 70.25 0.327 8.41 3.84 10.25
5/23/2022 5:00:00 PM 21.21 70.17799 0.327 8.42 3.62 10.28
5/23/2022 5:15:00 PM 21.15 70.07 0.327 8.42 3.3 10.27
5/23/2022 5:30:00 PM 21.09 69.962 0.327 8.42 3.11 10.24
5/23/2022 5:45:00 PM 21.03 69.854 0.326 8.42 3.27 10.21
5/23/2022 6:00:00 PM 20.96 69.728 0.326 8.42 3.3 10.22
5/23/2022 6:15:00 PM 20.9 69.62 0.326 8.42 3.26 10.19
5/23/2022 6:30:00 PM 20.82 69.476 0.326 8.42 3.45 10.16
5/23/2022 6:45:00 PM 20.75 69.35 0.326 8.42 3.35 10.11
5/23/2022 7:00:00 PM 20.67 69.206 0.326 8.42 3.54 10.07
5/23/2022 7:15:00 PM 20.58 69.044 0.326 8.41 3.35 10.02
5/23/2022 7:30:00 PM 20.5 68.9 0.326 8.4 3.64 9.92
5/23/2022 7:45:00 PM 20.42 68.756 0.326 8.39 3.86 9.9
5/23/2022 8:00:00 PM 20.34 68.612 0.326 8.38 3.6 9.8
5/23/2022 8:15:00 PM 20.26 68.468 0.326 8.36 3.58 9.75
5/23/2022 8:30:00 PM 20.17 68.306 0.326 8.35 3.75 9.66
5/23/2022 8:45:00 PM 20.09 68.162 0.326 8.34 4 9.59
5/23/2022 9:00:00 PM 20.02 68.036 0.326 8.31 4.46 9.49
5/23/2022 9:15:00 PM 19.93 67.874 0.326 8.3 3.72 9.43
5/23/2022 9:30:00 PM 19.85 67.73 0.326 8.29 4 9.36
5/23/2022 9:45:00 PM 19.77 67.586 0.326 8.27 4.22 9.28
5/23/2022 10:00:00 PM 19.69 67.442 0.326 8.26 4.13 9.21
5/23/2022 10:15:00 PM 19.61 67.298 0.326 8.25 3.77 9.17
5/23/2022 10:30:00 PM 19.54 67.172 0.326 8.24 4.02 9.1
5/23/2022 10:45:00 PM 19.47 67.046 0.326 8.22 3.77 9.04
5/23/2022 11:00:00 PM 19.4 66.92 0.327 8.2 4.07 8.96
5/23/2022 11:15:00 PM 19.33 66.794 0.327 8.19 4.33 8.9
5/23/2022 11:30:00 PM 19.26 66.668 0.327 8.18 3.9 8.86
5/23/2022 11:45:00 PM 19.18 66.524 0.327 8.18 4.17 8.85
5/24/2022 12:00:00 AM 19.11 66.398 0.327 8.16 3.87 8.78
5/24/2022 12:15:00 AM 19.03 66.254 0.327 8.15 3.93 8.77
5/24/2022 12:30:00 AM 18.98 66.164 0.327 8.14 3.57 8.71
5/24/2022 12:45:00 AM 18.9 66.02 0.327 8.13 3.8 8.68
5/24/2022 1:00:00 AM 18.84 65.912 0.327 8.12 3.79 8.65
5/24/2022 1:15:00 AM 18.76 65.768 0.328 8.11 3.55 8.62
5/24/2022 1:30:00 AM 18.69 65.642 0.328 8.1 4.12 8.57
5/24/2022 1:45:00 AM 18.62 65.516 0.328 8.09 3.63 8.55
5/24/2022 2:00:00 AM 18.55 65.39 0.328 8.09 4.61 8.54
5/24/2022 2:15:00 AM 18.48 65.264 0.328 8.07 4.03 8.5
5/24/2022 2:30:00 AM 18.41 65.138 0.328 8.06 3.77 8.47
5/24/2022 2:45:00 AM 18.34 65.012 0.328 8.06 4.24 8.45
5/24/2022 3:00:00 AM 18.27 64.886 0.329 8.05 5.35 8.43
5/24/2022 3:15:00 AM 18.21 64.778 0.329 8.04 4.63 8.39
5/24/2022 3:30:00 AM 18.14 64.652 0.329 8.03 3.89 8.36
5/24/2022 3:45:00 AM 18.08 64.544 0.329 8.02 5.11 8.36
5/24/2022 4:00:00 AM 18.01 64.418 0.329 8.01 4.59 8.31
5/24/2022 4:15:00 AM 17.94 64.292 0.33 8 3.98 8.31
5/24/2022 4:30:00 AM 17.87 64.166 0.33 7.99 3.94 8.28
5/24/2022 4:45:00 AM 17.81 64.058 0.33 7.98 4.02 8.26
5/24/2022 5:00:00 AM 17.75 63.95 0.33 7.97 3.89 8.24
5/24/2022 5:15:00 AM 17.69 63.842 0.33 7.96 3.86 8.23
5/24/2022 5:30:00 AM 17.62 63.716 0.331 7.95 3.71 8.2
5/24/2022 5:45:00 AM 17.55 63.59 0.331 7.95 3.79 8.18
5/24/2022 6:00:00 AM 17.5 63.5 0.331 7.94 4 8.17
5/24/2022 6:15:00 AM 17.44 63.392 0.331 7.93 4.07 8.15
5/24/2022 6:30:00 AM 17.4 63.32 0.331 7.93 4.25 8.17
5/24/2022 6:45:00 AM 17.35 63.23 0.331 7.92 3.85 8.16
5/24/2022 7:00:00 AM 17.32 63.176 0.332 7.92 4.71 8.18
5/24/2022 7:15:00 AM 17.31 63.158 0.332 7.92 3.95 8.21
5/24/2022 7:30:00 AM 17.32 63.176 0.332 7.92 3.7 8.27
5/24/2022 7:45:00 AM 17.29 63.122 0.332 7.93 3.76 8.3
5/24/2022 8:00:00 AM 17.28 63.104 0.332 7.93 3.51 8.35
5/24/2022 8:15:00 AM 17.31 63.158 0.332 7.94 3.6 8.4
5/24/2022 8:30:00 AM 17.36 63.248 0.333 7.94 3.98 8.44
5/24/2022 8:45:00 AM 17.39 63.302 0.333 7.95 3.76 8.53
5/24/2022 9:00:00 AM 17.45 63.41 0.333 7.97 4.13 8.62
5/24/2022 9:15:00 AM 17.53 63.554 0.333 7.98 3.61 8.71
5/24/2022 9:30:00 AM 17.59 63.662 0.333 8 3.86 8.79
5/24/2022 9:45:00 AM 17.65 63.77 0.333 8.01 4.11 8.86
5/24/2022 10:00:00 AM 17.72 63.896 0.333 8.02 3.5 8.97
5/24/2022 10:15:00 AM 17.81 64.058 0.333 8.04 3.47 9.04
5/24/2022 10:30:00 AM 17.91 64.238 0.333 8.06 3.32 9.12
5/24/2022 10:45:00 AM 18.06 64.508 0.333 8.07 3.37 9.2
5/24/2022 11:00:00 AM 18.21 64.778 0.333 8.08 3.47 9.32
5/24/2022 11:15:00 AM 18.33 64.994 0.333 8.1 3.49 9.39
5/24/2022 11:30:00 AM 18.44 65.192 0.333 8.12 3.51 9.46
5/24/2022 11:45:00 AM 18.56 65.408 0.333 8.14 3.37 9.53
5/24/2022 12:00:00 PM 18.66 65.588 0.333 8.15 3.57 9.61
5/24/2022 12:15:00 PM 18.77 65.786 0.334 8.16 3.6 9.68
5/24/2022 12:30:00 PM 18.88 65.984 0.334 8.18 3.79 9.71
5/24/2022 12:45:00 PM 19.02 66.236 0.334 8.19 4.1 9.78
5/24/2022 1:00:00 PM 19.13 66.434 0.334 8.21 3.62 9.83
5/24/2022 1:15:00 PM 19.22 66.596 0.334 8.22 3.43 9.91
5/24/2022 1:30:00 PM 19.32 66.776 0.334 8.24 3.45 9.97
5/24/2022 1:45:00 PM 19.4 66.92 0.334 8.26 3.51 10.02
5/24/2022 2:00:00 PM 19.45 67.01 0.334 8.27 3.27 10.07
5/24/2022 2:15:00 PM 19.47 67.046 0.334 8.27 3.59 10.08
5/24/2022 2:30:00 PM 19.56 67.208 0.334 8.29 3.6 10.12
5/24/2022 2:45:00 PM 19.6 67.28 0.334 8.3 3.64 10.17
5/24/2022 3:00:00 PM 19.63 67.334 0.334 8.31 3.58 10.2
5/24/2022 3:15:00 PM 19.66 67.388 0.335 8.32 3.61 10.24
5/24/2022 3:30:00 PM 19.73 67.514 0.335 8.33 3.65 10.25
5/24/2022 3:45:00 PM 19.81 67.658 0.335 8.34 3.79 10.28
5/24/2022 4:00:00 PM 19.86 67.748 0.335 8.35 4.13 10.26
5/24/2022 4:15:00 PM 19.89 67.802 0.335 8.36 3.8 10.31
5/24/2022 4:30:00 PM 19.92 67.856 0.335 8.36 3.95 10.32
5/24/2022 4:45:00 PM 19.91 67.838 0.335 8.36 3.96 10.26
5/24/2022 5:00:00 PM 19.89 67.802 0.335 8.37 4.19 10.3
5/24/2022 5:15:00 PM 19.87 67.766 0.335 8.37 3.81 10.27
5/24/2022 5:30:00 PM 19.83 67.694 0.335 8.37 3.76 10.24
5/24/2022 5:45:00 PM 19.79 67.622 0.335 8.37 4.08 10.21
5/24/2022 6:00:00 PM 19.75 67.55 0.335 8.37 3.79 10.21
5/24/2022 6:15:00 PM 19.72 67.496 0.335 8.36 3.5 10.13
5/24/2022 6:30:00 PM 19.7 67.46 0.335 8.35 3.74 10.1
5/24/2022 6:45:00 PM 19.69 67.442 0.335 8.35 3.93 10.07
5/24/2022 7:00:00 PM 19.66 67.388 0.336 8.35 3.86 10.02
5/24/2022 7:15:00 PM 19.61 67.298 0.336 8.34 3.78 9.97
5/24/2022 7:30:00 PM 19.55 67.19 0.336 8.33 4.4 9.9
5/24/2022 7:45:00 PM 19.48 67.064 0.336 8.32 3.9 9.84
5/24/2022 8:00:00 PM 19.41 66.938 0.336 8.31 4.59 9.76
5/24/2022 8:15:00 PM 19.33 66.794 0.336 8.29 3.8 9.69
5/24/2022 8:30:00 PM 19.27 66.686 0.336 8.28 3.83 9.61
5/24/2022 8:45:00 PM 19.2 66.56 0.337 8.27 3.79 9.55
5/24/2022 9:00:00 PM 19.14 66.452 0.337 8.26 3.82 9.49
5/24/2022 9:15:00 PM 19.08 66.344 0.337 8.24 4.07 9.44
5/24/2022 9:30:00 PM 19.02 66.236 0.337 8.23 4.02 9.36
5/24/2022 9:45:00 PM 18.95 66.11 0.337 8.22 4.41 9.3
5/24/2022 10:00:00 PM 18.89 66.002 0.337 8.2 4.07 9.23
5/24/2022 10:15:00 PM 18.83 65.894 0.338 8.19 3.87 9.18
5/24/2022 10:30:00 PM 18.77 65.786 0.338 8.17 4.42 9.11
5/24/2022 10:45:00 PM 18.72 65.696 0.338 8.16 103.35 9.04
5/24/2022 11:00:00 PM 18.67 65.606 0.338 8.15 4.54 9
5/24/2022 11:15:00 PM 18.61 65.498 0.339 8.14 4.26 8.95
5/24/2022 11:30:00 PM 18.56 65.408 0.339 8.12 3.97 8.89
5/24/2022 11:45:00 PM 18.5 65.3 0.339 8.11 4.63 8.86
5/25/2022 12:00:00 AM 18.43 65.174 0.339 8.11 3.97 8.83
5/25/2022 12:15:00 AM 18.38 65.084 0.34 8.09 4.25 8.78
5/25/2022 12:30:00 AM 18.33 64.994 0.34 8.08 4.9 8.74
5/25/2022 12:45:00 AM 18.28 64.904 0.34 8.08 4.33 8.71
5/25/2022 1:00:00 AM 18.24 64.832 0.341 8.07 4 8.66
5/25/2022 1:15:00 AM 18.2 64.76 0.341 8.06 4.87 8.64
5/25/2022 1:30:00 AM 18.16 64.688 0.341 8.06 4.27 8.61
5/25/2022 1:45:00 AM 18.13 64.634 0.341 8.05 4.59 8.61
5/25/2022 2:00:00 AM 18.09 64.562 0.342 8.04 4.63 8.55
5/25/2022 2:15:00 AM 18.06 64.508 0.342 8.03 4.29 8.52
5/25/2022 2:30:00 AM 18.03 64.454 0.342 8.02 4.12 8.51
5/25/2022 2:45:00 AM 18 64.4 0.342 8.02 4.33 8.49
5/25/2022 3:00:00 AM 17.97 64.346 0.343 8.01 4.34 8.46
5/25/2022 3:15:00 AM 17.94 64.292 0.343 8 4.23 8.45
5/25/2022 3:30:00 AM 17.91 64.238 0.343 7.99 4.26 8.4
5/25/2022 3:45:00 AM 17.9 64.22 0.343 7.99 4.28 8.4
5/25/2022 4:00:00 AM 17.87 64.166 0.344 7.98 4.77 8.36
5/25/2022 4:15:00 AM 17.85 64.13 0.344 7.97 4.82 8.33
5/25/2022 4:30:00 AM 17.83 64.094 0.344 7.97 4.95 8.3
5/25/2022 4:45:00 AM 17.81 64.058 0.345 7.96 4.78 8.27
5/25/2022 5:00:00 AM 17.79 64.022 0.345 7.95 4.12 8.27
5/25/2022 5:15:00 AM 17.77 63.986 0.345 7.94 4.79 8.22
5/25/2022 5:30:00 AM 17.75 63.95 0.346 7.93 5.38 8.21
5/25/2022 5:45:00 AM 17.74 63.932 0.346 7.93 4.41 8.18
5/25/2022 6:00:00 AM 17.72 63.896 0.346 7.92 4.12 8.16
5/25/2022 6:15:00 AM 17.71 63.878 0.347 7.91 4.67 8.14
5/25/2022 6:30:00 AM 17.7 63.86 0.347 7.91 5.31 8.16
5/25/2022 6:45:00 AM 17.69 63.842 0.347 7.9 4.41 8.14
5/25/2022 7:00:00 AM 17.68 63.824 0.347 7.9 3.98 8.11
5/25/2022 7:15:00 AM 17.68 63.824 0.348 7.89 4.12 8.11
5/25/2022 7:30:00 AM 17.68 63.824 0.348 7.89 3.97 8.13
5/25/2022 7:45:00 AM 17.69 63.842 0.348 7.9 4.02 8.16
5/25/2022 8:00:00 AM 17.69 63.842 0.348 7.9 3.96 8.18
5/25/2022 8:15:00 AM 17.71 63.878 0.349 7.9 3.98 8.21
5/25/2022 8:30:00 AM 17.74 63.932 0.349 7.91 3.81 8.27
5/25/2022 8:45:00 AM 17.76 63.968 0.349 7.91 4.19 8.3
5/25/2022 9:00:00 AM 17.8 64.04 0.349 7.91 3.83 8.34
5/25/2022 9:15:00 AM 17.84 64.112 0.35 7.92 3.94 8.42
5/25/2022 9:30:00 AM 17.89 64.202 0.35 7.93 4.53 8.48
5/25/2022 9:45:00 AM 17.96 64.328 0.35 7.94 3.97 8.56
5/25/2022 10:00:00 AM 18.02 64.436 0.35 7.95 3.81 8.63
5/25/2022 10:15:00 AM 18.1 64.58 0.35 7.97 3.84 8.72
5/25/2022 10:30:00 AM 18.18 64.724 0.35 7.98 4.89 8.79
5/25/2022 10:45:00 AM 18.26 64.868 0.35 8 3.88 8.87
5/25/2022 11:00:00 AM 18.37 65.066 0.35 8.01 3.9 8.97
5/25/2022 11:15:00 AM 18.46 65.228 0.351 8.03 3.65 9.05
5/25/2022 11:30:00 AM 18.59 65.462 0.351 8.05 4 9.15
5/25/2022 11:45:00 AM 18.71 65.67799 0.352 8.07 4 9.22
5/25/2022 12:00:00 PM 18.84 65.912 0.352 8.08 4.14 9.24
5/25/2022 12:15:00 PM 18.98 66.164 0.353 8.1 3.86 9.38
5/25/2022 12:30:00 PM 19.12 66.416 0.353 8.12 3.8 9.46
5/25/2022 12:45:00 PM 19.24 66.632 0.353 8.13 3.82 9.51
5/25/2022 1:00:00 PM 19.37 66.866 0.353 8.14 4.04 9.59
5/25/2022 1:15:00 PM 19.52 67.136 0.353 8.16 4.5 9.61
5/25/2022 1:30:00 PM 19.68 67.424 0.353 8.17 4.07 9.71
5/25/2022 1:45:00 PM 19.88 67.784 0.354 8.19 4.05 9.77
5/25/2022 2:00:00 PM 20.08 68.144 0.354 8.2 3.9 9.82
5/25/2022 2:15:00 PM 20.24 68.432 0.354 8.21 3.7 9.87
5/25/2022 2:30:00 PM 20.41 68.738 0.354 8.22 3.91 9.91
5/25/2022 2:45:00 PM 20.54 68.972 0.354 8.23 4.17 9.93
5/25/2022 3:00:00 PM 20.67 69.206 0.355 8.24 3.81 9.95
5/25/2022 3:15:00 PM 20.76 69.368 0.355 8.26 3.73 9.96
5/25/2022 3:30:00 PM 20.84 69.512 0.355 8.26 4.05 10
5/25/2022 3:45:00 PM 20.93 69.674 0.355 8.27 3.78 9.99
5/25/2022 4:00:00 PM 21.01 69.818 0.355 8.28 3.9 10.02
5/25/2022 4:15:00 PM 21.1 69.98 0.355 8.29 3.67 10.03
5/25/2022 4:30:00 PM 21.17 70.106 0.355 8.3 3.96 10.03
5/25/2022 4:45:00 PM 21.22 70.196 0.355 8.31 3.75 10.04
5/25/2022 5:00:00 PM 21.26 70.268 0.356 8.31 3.85 10.05
5/25/2022 5:15:00 PM 21.29 70.32201 0.356 8.31 3.88 10.03
5/25/2022 5:30:00 PM 21.33 70.394 0.356 8.32 3.93 10
5/25/2022 5:45:00 PM 21.36 70.448 0.356 8.33 4.07 10.01
5/25/2022 6:00:00 PM 21.37 70.466 0.356 8.33 3.71 10
5/25/2022 6:15:00 PM 21.36 70.448 0.356 8.33 3.71 9.96
5/25/2022 6:30:00 PM 21.32 70.376 0.356 8.33 3.74 9.92
5/25/2022 6:45:00 PM 21.29 70.32201 0.356 8.33 3.83 9.88
5/25/2022 7:00:00 PM 21.25 70.25 0.356 8.33 4.12 9.83
5/25/2022 7:15:00 PM 21.21 70.17799 0.356 8.33 5.74 9.81
5/25/2022 7:30:00 PM 21.16 70.088 0.357 8.33 4.16 9.76
5/25/2022 7:45:00 PM 21.1 69.98 0.357 8.31 4.98 9.68
5/25/2022 8:00:00 PM 21.05 69.89 0.357 8.31 3.93 9.62
5/25/2022 8:15:00 PM 20.98 69.764 0.357 8.3 4.57 9.59
5/25/2022 8:30:00 PM 20.93 69.674 0.357 8.29 4.3 9.5
5/25/2022 8:45:00 PM 20.87 69.566 0.357 8.28 4.07 9.41
5/25/2022 9:00:00 PM 20.8 69.44 0.357 8.26 4.17 9.3
5/25/2022 9:15:00 PM 20.74 69.332 0.358 8.25 4.18 9.26
5/25/2022 9:30:00 PM 20.69 69.242 0.358 8.24 4.37 9.17
5/25/2022 9:45:00 PM 20.63 69.134 0.358 8.22 4.35 9.1
5/25/2022 10:00:00 PM 20.58 69.044 0.358 8.21 4.53 9.02
5/25/2022 10:15:00 PM 20.52 68.936 0.358 8.2 4.65 8.95
5/25/2022 10:30:00 PM 20.46 68.828 0.358 8.18 4.27 8.88
5/25/2022 10:45:00 PM 20.4 68.72 0.358 8.17 4.59 8.82
5/25/2022 11:00:00 PM 20.35 68.63 0.359 8.15 4.43 8.75
5/25/2022 11:15:00 PM 20.29 68.522 0.359 8.14 4.39 8.68
5/25/2022 11:30:00 PM 20.23 68.414 0.359 8.13 4.18 8.63
5/25/2022 11:45:00 PM 20.16 68.288 0.359 8.12 4.61 8.58
5/26/2022 12:00:00 AM 20.1 68.18 0.359 8.11 4.33 8.51
5/26/2022 12:15:00 AM 20.03 68.054 0.36 8.09 4.35 8.46
5/26/2022 12:30:00 AM 19.96 67.92799 0.36 8.08 4.35 8.42
5/26/2022 12:45:00 AM 19.91 67.838 0.36 8.07 4.36 8.36
5/26/2022 1:00:00 AM 19.85 67.73 0.36 8.06 4.56 8.29
5/26/2022 1:15:00 AM 19.79 67.622 0.36 8.05 4.36 8.29
5/26/2022 1:30:00 AM 19.73 67.514 0.36 8.05 4.73 8.25
5/26/2022 1:45:00 AM 19.67 67.406 0.361 8.04 4.64 8.18
5/26/2022 2:00:00 AM 19.62 67.316 0.361 8.03 4.54 8.16
5/26/2022 2:15:00 AM 19.56 67.208 0.361 8.02 5.03 8.12
5/26/2022 2:30:00 AM 19.51 67.118 0.361 8.02 4.96 8.09
5/26/2022 2:45:00 AM 19.46 67.028 0.361 8.01 4.89 8.1
5/26/2022 3:00:00 AM 19.41 66.938 0.361 8.01 4.87 8.07
5/26/2022 3:15:00 AM 19.36 66.848 0.361 8.01 4.82 8.02
5/26/2022 3:30:00 AM 19.31 66.758 0.361 8 4.72 7.97
5/26/2022 3:45:00 AM 19.26 66.668 0.362 7.99 5.05 8
5/26/2022 4:00:00 AM 19.21 66.578 0.362 7.99 4.61 7.97
5/26/2022 4:15:00 AM 19.16 66.488 0.362 7.98 4.57 7.97
5/26/2022 4:30:00 AM 19.12 66.416 0.362 7.98 4.88 7.95
5/26/2022 4:45:00 AM 19.07 66.326 0.362 7.97 4.69 7.91
5/26/2022 5:00:00 AM 19.02 66.236 0.362 7.97 4.73 7.9
5/26/2022 5:15:00 AM 18.97 66.146 0.362 7.96 4.51 7.88
5/26/2022 5:30:00 AM 18.93 66.074 0.362 7.95 4.6 7.87
5/26/2022 5:45:00 AM 18.88 65.984 0.362 7.95 4.54 7.84
5/26/2022 6:00:00 AM 18.83 65.894 0.362 7.95 4.58 7.83
5/26/2022 6:15:00 AM 18.78 65.804 0.362 7.94 4.89 7.83
5/26/2022 6:30:00 AM 18.74 65.732 0.362 7.94 5.08 7.82
5/26/2022 6:45:00 AM 18.71 65.67799 0.363 7.93 4.85 7.81
5/26/2022 7:00:00 AM 18.7 65.66 0.363 7.93 4.58 7.83
5/26/2022 7:15:00 AM 18.69 65.642 0.363 7.93 4.61 7.85
5/26/2022 7:30:00 AM 18.69 65.642 0.363 7.94 4.48 7.91
5/26/2022 7:45:00 AM 18.7 65.66 0.363 7.94 4.31 7.96
5/26/2022 8:00:00 AM 18.72 65.696 0.363 7.95 4.34 8
5/26/2022 8:15:00 AM 18.76 65.768 0.363 7.96 4.53 8.06
5/26/2022 8:30:00 AM 18.82 65.876 0.363 7.96 4.32 8.12
5/26/2022 8:45:00 AM 18.9 66.02 0.363 7.97 4.63 8.2
5/26/2022 9:00:00 AM 18.97 66.146 0.363 7.98 4.86 8.25
5/26/2022 9:15:00 AM 19.02 66.236 0.363 7.99 4.93 8.34
5/26/2022 9:30:00 AM 19.07 66.326 0.364 8 5.16 8.39
5/26/2022 9:45:00 AM 19.13 66.434 0.364 8.01 5.25 8.46
5/26/2022 10:00:00 AM 19.21 66.578 0.364 8.02 5.73 8.53
5/26/2022 10:15:00 AM 19.31 66.758 0.364 8.04 4.7 8.6
5/26/2022 10:30:00 AM 19.46 67.028 0.364 8.05 4.41 8.71
5/26/2022 10:45:00 AM 19.56 67.208 0.364 8.07 4.24 8.78
5/26/2022 11:00:00 AM 19.66 67.388 0.364 8.08 4.66 8.88
5/26/2022 11:15:00 AM 19.77 67.586 0.364 8.09 4.32 8.93
5/26/2022 11:30:00 AM 19.9 67.82 0.364 8.11 4.25 9
5/26/2022 11:45:00 AM 20.03 68.054 0.364 8.12 4.46 9.08
5/26/2022 12:00:00 PM 20.17 68.306 0.364 8.14 4.62 9.17
5/26/2022 12:15:00 PM 20.33 68.594 0.365 8.14 4.78 9.21
5/26/2022 12:30:00 PM 20.48 68.864 0.365 8.16 4.22 9.29
5/26/2022 12:45:00 PM 20.6 69.08 0.365 8.16 4.58 9.29
5/26/2022 1:00:00 PM 20.76 69.368 0.365 8.17 4.42 9.35
5/26/2022 1:15:00 PM 20.92 69.656 0.365 8.19 4.09 9.4
5/26/2022 1:30:00 PM 21.06 69.908 0.365 8.2 3.79 9.42
5/26/2022 1:45:00 PM 21.19 70.142 0.365 8.21 3.81 9.47
5/26/2022 2:00:00 PM 21.3 70.34 0.365 8.2 3.92 9.47
5/26/2022 2:15:00 PM 21.42 70.556 0.366 8.21 4.05 9.48
5/26/2022 2:30:00 PM 21.54 70.772 0.365 8.22 4.24 9.54
5/26/2022 2:45:00 PM 21.65 70.97 0.365 8.24 3.92 9.58
5/26/2022 3:00:00 PM 21.79 71.222 0.366 8.25 3.84 9.61
5/26/2022 3:15:00 PM 21.9 71.42 0.366 8.25 3.71 9.6
5/26/2022 3:30:00 PM 21.99 71.582 0.366 8.26 3.7 9.61
5/26/2022 3:45:00 PM 22.07 71.726 0.365 8.26 3.89 9.61
5/26/2022 4:00:00 PM 22.14 71.852 0.366 8.27 3.96 9.63
5/26/2022 4:15:00 PM 22.18 71.924 0.366 8.28 3.68 9.65
5/26/2022 4:30:00 PM 22.22 71.996 0.366 8.29 3.85 9.67
5/26/2022 4:45:00 PM 22.23 72.014 0.366 8.29 3.96 9.61
5/26/2022 5:00:00 PM 22.23 72.014 0.365 8.29 3.92 9.66
5/26/2022 5:15:00 PM 22.27 72.086 0.365 8.3 3.8 9.63
5/26/2022 5:30:00 PM 22.29 72.122 0.365 8.3 3.94 9.65
5/26/2022 5:45:00 PM 22.3 72.14 0.365 8.3 4.09 9.67
5/26/2022 6:00:00 PM 22.28 72.104 0.365 8.31 4.05 9.64
5/26/2022 6:15:00 PM 22.24 72.032 0.365 8.31 4.11 9.59
5/26/2022 6:30:00 PM 22.21 71.978 0.365 8.31 4.16 9.57
5/26/2022 6:45:00 PM 22.15 71.87 0.365 8.3 3.88 9.49
5/26/2022 7:00:00 PM 22.07 71.726 0.365 8.3 4.11 9.43
5/26/2022 7:15:00 PM 21.99 71.582 0.365 8.3 4.36 9.39
5/26/2022 7:30:00 PM 21.91 71.438 0.365 8.3 4.33 9.34
5/26/2022 7:45:00 PM 21.83 71.294 0.364 8.28 4.24 9.25
5/26/2022 8:00:00 PM 21.76 71.168 0.364 8.27 4.29 9.19
5/26/2022 8:15:00 PM 21.71 71.078 0.364 8.26 4.32 9.1
5/26/2022 8:30:00 PM 21.66 70.988 0.364 8.24 4.39 9
5/26/2022 8:45:00 PM 21.6 70.88 0.364 8.23 4.79 8.95
5/26/2022 9:00:00 PM 21.56 70.808 0.365 8.21 4.71 8.88
5/26/2022 9:15:00 PM 21.52 70.736 0.365 8.2 5.44 8.78
5/26/2022 9:30:00 PM 21.49 70.682 0.364 8.19 4.95 8.7
5/26/2022 9:45:00 PM 21.46 70.628 0.364 8.18 4.98 8.67
5/26/2022 10:00:00 PM 21.42 70.556 0.365 8.16 4.61 8.56
5/26/2022 10:15:00 PM 21.38 70.484 0.365 8.14 4.23 8.47
5/26/2022 10:30:00 PM 21.34 70.412 0.365 8.13 4.41 8.4
5/26/2022 10:45:00 PM 21.29 70.32201 0.365 8.12 4.3 8.35
5/26/2022 11:00:00 PM 21.26 70.268 0.365 8.11 4.4 8.28
5/26/2022 11:15:00 PM 21.21 70.17799 0.365 8.09 5.06 8.23
5/26/2022 11:30:00 PM 21.17 70.106 0.365 8.08 4.54 8.14
5/26/2022 11:45:00 PM 21.12 70.016 0.365 8.07 4.63 8.09
5/27/2022 12:00:00 AM 21.08 69.944 0.365 8.06 4.61 8.05
5/27/2022 12:15:00 AM 21.04 69.872 0.365 8.05 4.98 7.99
5/27/2022 12:30:00 AM 21 69.8 0.365 8.04 4.91 7.96
5/27/2022 12:45:00 AM 20.97 69.746 0.365 8.03 5.02 7.87
5/27/2022 1:00:00 AM 20.94 69.692 0.365 8.02 4.68 7.83
5/27/2022 1:15:00 AM 20.9 69.62 0.365 8.02 4.92 7.83
5/27/2022 1:30:00 AM 20.87 69.566 0.365 8 4.99 7.77
5/27/2022 1:45:00 AM 20.84 69.512 0.365 8 5.38 7.71
5/27/2022 2:00:00 AM 20.81 69.458 0.365 8 5.16 7.73
5/27/2022 2:15:00 AM 20.78 69.404 0.365 7.99 5.12 7.71
5/27/2022 2:30:00 AM 20.75 69.35 0.366 7.98 5.11 7.66
5/27/2022 2:45:00 AM 20.72 69.296 0.366 7.98 5.39 7.63
5/27/2022 3:00:00 AM 20.68 69.224 0.366 7.97 4.9 7.6
5/27/2022 3:15:00 AM 20.65 69.17 0.366 7.97 5.04 7.56
5/27/2022 3:30:00 AM 20.62 69.116 0.366 7.96 5.72 7.52
5/27/2022 3:45:00 AM 20.59 69.062 0.366 7.95 5.03 7.49
5/27/2022 4:00:00 AM 20.57 69.026 0.366 7.95 4.83 7.49
5/27/2022 4:15:00 AM 20.55 68.99 0.366 7.95 4.8 7.46
5/27/2022 4:30:00 AM 20.52 68.936 0.366 7.94 4.79 7.46
5/27/2022 4:45:00 AM 20.49 68.882 0.366 7.93 5.08 7.4
5/27/2022 5:00:00 AM 20.47 68.846 0.366 7.92 4.62 7.39
5/27/2022 5:15:00 AM 20.45 68.81 0.366 7.93 4.9 7.4
5/27/2022 5:30:00 AM 20.43 68.774 0.366 7.92 5.04 7.33
5/27/2022 5:45:00 AM 20.4 68.72 0.367 7.92 4.82 7.35
5/27/2022 6:00:00 AM 20.37 68.666 0.366 7.91 4.77 7.34
5/27/2022 6:15:00 AM 20.35 68.63 0.367 7.9 5.12 7.3
5/27/2022 6:30:00 AM 20.34 68.612 0.366 7.9 5.37 7.3
5/27/2022 6:45:00 AM 20.32 68.576 0.367 7.9 5.49 7.26
5/27/2022 7:00:00 AM 20.3 68.54 0.367 7.89 4.8 7.26
5/27/2022 7:15:00 AM 20.29 68.522 0.367 7.88 4.77 7.22
5/27/2022 7:30:00 AM 20.28 68.504 0.367 7.88 4.55 7.25
5/27/2022 7:45:00 AM 20.27 68.486 0.367 7.88 4.45 7.23
5/27/2022 8:00:00 AM 20.26 68.468 0.367 7.88 4.33 7.27
5/27/2022 8:15:00 AM 20.27 68.486 0.367 7.88 4.06 7.28
5/27/2022 8:30:00 AM 20.27 68.486 0.367 7.87 4.13 7.28
5/27/2022 8:45:00 AM 20.27 68.486 0.368 7.88 4.31 7.3
5/27/2022 9:00:00 AM 20.28 68.504 0.368 7.87 4.35 7.31
5/27/2022 9:15:00 AM 20.29 68.522 0.368 7.88 4.43 7.35
5/27/2022 9:30:00 AM 20.32 68.576 0.368 7.88 4.41 7.37
5/27/2022 9:45:00 AM 20.34 68.612 0.368 7.88 4.19 7.45
5/27/2022 10:00:00 AM 20.36 68.648 0.368 7.89 4.28 7.5
5/27/2022 10:15:00 AM 20.37 68.666 0.368 7.9 4.1 7.53
5/27/2022 10:30:00 AM 20.4 68.72 0.369 7.9 4.31 7.59
5/27/2022 10:45:00 AM 20.43 68.774 0.369 7.92 4.04 7.69
5/27/2022 11:00:00 AM 20.45 68.81 0.369 7.92 4.09 7.64
5/27/2022 11:15:00 AM 20.49 68.882 0.369 7.93 4.97 7.79
5/27/2022 11:30:00 AM 20.5 68.9 0.369 7.93 3.92 7.84
5/27/2022 11:45:00 AM 20.51 68.918 0.369 7.94 4.22 7.88
5/27/2022 12:00:00 PM 20.54 68.972 0.369 7.95 4.06 7.93
5/27/2022 12:15:00 PM 20.59 69.062 0.37 7.95 4.14 7.98
5/27/2022 12:30:00 PM 20.62 69.116 0.369 7.96 4.29 8.01
5/27/2022 12:45:00 PM 20.62 69.116 0.37 7.96 4.04 8.02
5/27/2022 1:00:00 PM 20.68 69.224 0.37 7.97 4.13 8.12
5/27/2022 1:15:00 PM 20.72 69.296 0.37 7.99 4.14 8.2
5/27/2022 1:30:00 PM 20.75 69.35 0.37 8 4.34 8.26
5/27/2022 1:45:00 PM 20.76 69.368 0.37 8 4.27 8.25
5/27/2022 2:00:00 PM 20.78 69.404 0.37 8 4.29 8.29
5/27/2022 2:15:00 PM 20.8 69.44 0.37 8.01 3.89 8.3
5/27/2022 2:30:00 PM 20.82 69.476 0.37 8.02 4.25 8.34
5/27/2022 2:45:00 PM 20.83 69.494 0.37 8.02 4.08 8.37
5/27/2022 3:00:00 PM 20.84 69.512 0.37 8.02 4.2 8.35
5/27/2022 3:15:00 PM 20.85 69.53 0.37 8.03 4.2 8.38
5/27/2022 3:30:00 PM 20.88 69.584 0.37 8.03 3.94 8.41
5/27/2022 3:45:00 PM 20.9 69.62 0.37 8.03 3.97 8.4
5/27/2022 4:00:00 PM 20.91 69.638 0.37 8.03 4.34 8.38
5/27/2022 4:15:00 PM 20.93 69.674 0.37 8.04 4.11 8.41
5/27/2022 4:30:00 PM 20.98 69.764 0.37 8.04 4.51 8.43
5/27/2022 4:45:00 PM 21.04 69.872 0.37 8.06 3.94 8.47
5/27/2022 5:00:00 PM 21.1 69.98 0.37 8.07 4.11 8.55
5/27/2022 5:15:00 PM 21.14 70.052 0.37 8.07 4.3 8.56
5/27/2022 5:30:00 PM 21.18 70.124 0.37 8.08 4.26 8.59
5/27/2022 5:45:00 PM 21.21 70.17799 0.37 8.09 4.24 8.64
5/27/2022 6:00:00 PM 21.22 70.196 0.37 8.08 4.5 8.58
5/27/2022 6:15:00 PM 21.21 70.17799 0.371 8.09 4.32 8.65
5/27/2022 6:30:00 PM 21.21 70.17799 0.37 8.09 4.4 8.59
5/27/2022 6:45:00 PM 21.13 70.034 0.359 8.07 23.15 8.55
5/27/2022 7:00:00 PM 21.14 70.052 0.366 8.08 10.44 8.52
5/27/2022 7:15:00 PM 21.09 69.962 0.361 8.07 22.98 8.5
5/27/2022 7:30:00 PM 21.03 69.854 0.355 8.05 33.89 8.42
5/27/2022 7:45:00 PM 21.03 69.854 0.36 8.04 28.07 8.38
5/27/2022 8:00:00 PM 20.76 69.368 0.355 8 129.93 8.37
5/27/2022 8:15:00 PM 20.72 69.296 0.355 8 126.73 8.39
5/27/2022 8:30:00 PM 20.73 69.314 0.356 8.01 69.81 8.37
5/27/2022 8:45:00 PM 20.72 69.296 0.356 8.01 39.05 8.32
5/27/2022 9:00:00 PM 20.59 69.062 0.356 7.98 30.65 8.26
5/27/2022 9:15:00 PM 20.5 68.9 0.356 7.95 26.74 8.17
5/27/2022 9:30:00 PM 20.47 68.846 0.356 7.93 30.75 8.08
5/27/2022 9:45:00 PM 20.25 68.45 0.334 7.9 62.37 8.13
5/27/2022 10:00:00 PM 20.3 68.54 0.35 7.9 35.71 7.98
5/27/2022 10:15:00 PM 20.23 68.414 0.349 7.88 50.67 7.96
5/27/2022 10:30:00 PM 20.22 68.396 0.351 7.88 36.26 7.89
5/27/2022 10:45:00 PM 19.92 67.856 0.342 7.86 79.7 8
5/27/2022 11:00:00 PM 19.78 67.604 0.334 7.85 155.07 8.09
5/27/2022 11:15:00 PM 19.8 67.64 0.333 7.85 140.64 8.04
5/27/2022 11:30:00 PM 19.78 67.604 0.332 7.84 94.27 7.96
5/27/2022 11:45:00 PM 19.74 67.532 0.333 7.84 77.63 7.95
5/28/2022 12:00:00 AM 19.72 67.496 0.335 7.82 58.65 7.84
5/28/2022 12:15:00 AM 19.75 67.55 0.339 7.81 37.75 7.72
5/28/2022 12:30:00 AM 19.78 67.604 0.344 7.81 36.02 7.72
5/28/2022 12:45:00 AM 19.8 67.64 0.346 7.8 27.39 7.62
5/28/2022 1:00:00 AM 19.81 67.658 0.348 7.79 23.76 7.55
5/28/2022 1:15:00 AM 19.81 67.658 0.349 7.79 21.16 7.54
5/28/2022 1:30:00 AM 19.81 67.658 0.351 7.79 17.73 7.46
5/28/2022 1:45:00 AM 19.79 67.622 0.352 7.78 16.4 7.44
5/28/2022 2:00:00 AM 19.8 67.64 0.352 7.78 13.57 7.44
5/28/2022 2:15:00 AM 19.79 67.622 0.353 7.77 13.37 7.36
5/28/2022 2:30:00 AM 19.77 67.586 0.354 7.77 12.78 7.33
5/28/2022 2:45:00 AM 19.77 67.586 0.355 7.77 11.53 7.34
5/28/2022 3:00:00 AM 19.73 67.514 0.356 7.76 12.6 7.3
5/28/2022 3:15:00 AM 19.74 67.532 0.357 7.77 11.7 7.29
5/28/2022 3:30:00 AM 19.72 67.496 0.358 7.76 10.47 7.26
5/28/2022 3:45:00 AM 19.7 67.46 0.358 7.76 9.62 7.25
5/28/2022 4:00:00 AM 19.69 67.442 0.359 7.76 10.43 7.22
5/28/2022 4:15:00 AM 19.67 67.406 0.36 7.76 9.26 7.22
5/28/2022 4:30:00 AM 19.65 67.37 0.361 7.76 9.38 7.2
5/28/2022 4:45:00 AM 19.61 67.298 0.361 7.75 10.13 7.17
5/28/2022 5:00:00 AM 19.59 67.262 0.361 7.76 10.59 7.18
5/28/2022 5:15:00 AM 19.55 67.19 0.361 7.75 10.17 7.15
5/28/2022 5:30:00 AM 19.51 67.118 0.361 7.75 9.89 7.13
5/28/2022 5:45:00 AM 19.47 67.046 0.362 7.74 10.81 7.11
5/28/2022 6:00:00 AM 19.44 66.992 0.362 7.74 10.28 7.14
5/28/2022 6:15:00 AM 19.41 66.938 0.363 7.74 9.77 7.14
5/28/2022 6:30:00 AM 19.39 66.902 0.363 7.74 9.44 7.15
5/28/2022 6:45:00 AM 19.36 66.848 0.364 7.74 9.15 7.17
5/28/2022 7:00:00 AM 19.35 66.83 0.364 7.74 8.5 7.18
5/28/2022 7:15:00 AM 19.34 66.812 0.364 7.75 8.38 7.18
5/28/2022 7:30:00 AM 19.32 66.776 0.365 7.75 7.54 7.23
5/28/2022 7:45:00 AM 19.33 66.794 0.366 7.76 7.94 7.26
5/28/2022 8:00:00 AM 19.34 66.812 0.366 7.77 7.92 7.32
5/28/2022 8:15:00 AM 19.39 66.902 0.366 7.77 7.38 7.39
5/28/2022 8:30:00 AM 19.41 66.938 0.367 7.78 7.28 7.4
5/28/2022 8:45:00 AM 19.42 66.956 0.367 7.78 6.97 7.45
5/28/2022 9:00:00 AM 19.45 67.01 0.368 7.79 7.04 7.54
5/28/2022 9:15:00 AM 19.47 67.046 0.368 7.81 7.03 7.6
5/28/2022 9:30:00 AM 19.48 67.064 0.368 7.81 7.3 7.64
5/28/2022 9:45:00 AM 19.49 67.082 0.369 7.82 6.74 7.7
5/28/2022 10:00:00 AM 19.49 67.082 0.369 7.82 6.72 7.73
5/28/2022 10:15:00 AM 19.49 67.082 0.369 7.83 6.52 7.77
5/28/2022 10:30:00 AM 19.5 67.1 0.369 7.84 6.88 7.8
5/28/2022 10:45:00 AM 19.55 67.19 0.37 7.85 6.34 7.86
5/28/2022 11:00:00 AM 19.59 67.262 0.37 7.86 6.16 7.93
5/28/2022 11:15:00 AM 19.65 67.37 0.37 7.87 6.27 7.96
5/28/2022 11:30:00 AM 19.68 67.424 0.371 7.89 5.74 8.04
5/28/2022 11:45:00 AM 19.74 67.532 0.371 7.9 5.83 8.11
5/28/2022 12:00:00 PM 19.82 67.676 0.371 7.91 7.1 8.15
5/28/2022 12:15:00 PM 19.84 67.712 0.371 7.92 6.83 8.16
5/28/2022 12:30:00 PM 19.87 67.766 0.371 7.93 6.09 8.25
5/28/2022 12:45:00 PM 19.9 67.82 0.371 7.93 7.66 8.26
5/28/2022 1:00:00 PM 19.91 67.838 0.37 7.94 6.24 8.32
5/28/2022 1:15:00 PM 19.96 67.92799 0.371 7.95 5.82 8.35
5/28/2022 1:30:00 PM 20.04 68.07201 0.371 7.96 5.89 8.41
5/28/2022 1:45:00 PM 20.12 68.216 0.37 7.97 8.88 8.45
5/28/2022 2:00:00 PM 20.18 68.324 0.37 7.98 6.36 8.51
5/28/2022 2:15:00 PM 20.29 68.522 0.37 7.99 5.68 8.58
5/28/2022 2:30:00 PM 20.33 68.594 0.37 8 6.07 8.57
5/28/2022 2:45:00 PM 20.33 68.594 0.37 8 7.07 8.59
5/28/2022 3:00:00 PM 20.36 68.648 0.37 8.01 6.62 8.63
5/28/2022 3:15:00 PM 20.37 68.666 0.369 8.01 6.23 8.63
5/28/2022 3:30:00 PM 20.35 68.63 0.369 8.01 5.59 8.62
5/28/2022 3:45:00 PM 20.36 68.648 0.369 8.02 5.45 8.63
5/28/2022 4:00:00 PM 20.38 68.684 0.368 8.02 5.51 8.68
5/28/2022 4:15:00 PM 20.4 68.72 0.368 8.02 5.56 8.7
5/28/2022 4:30:00 PM 20.42 68.756 0.368 8.02 5.5 8.69
5/28/2022 4:45:00 PM 20.4 68.72 0.368 8.03 5.3 8.7
5/28/2022 5:00:00 PM 20.38 68.684 0.368 8.03 5.8 8.71
5/28/2022 5:15:00 PM 20.38 68.684 0.369 8.03 5.56 8.71
5/28/2022 5:30:00 PM 20.36 68.648 0.369 8.04 6.13 8.7
5/28/2022 5:45:00 PM 20.35 68.63 0.369 8.03 5.88 8.69
5/28/2022 6:00:00 PM 20.34 68.612 0.369 8.03 5.72 8.7
5/28/2022 6:15:00 PM 20.31 68.558 0.369 8.03 16.15 8.7
5/28/2022 6:30:00 PM 20.3 68.54 0.369 8.04 5.78 8.72
5/28/2022 6:45:00 PM 20.3 68.54 0.369 8.04 6.15 8.71
5/28/2022 7:00:00 PM 20.26 68.468 0.369 8.04 6.77 8.69
5/28/2022 7:15:00 PM 20.21 68.378 0.37 8.04 7.61 8.69
5/28/2022 7:30:00 PM 20.17 68.306 0.37 8.04 5.82 8.69
5/28/2022 7:45:00 PM 20.11 68.198 0.37 8.04 5.44 8.65
5/28/2022 8:00:00 PM 20.04 68.07201 0.37 8.03 5.52 8.6
5/28/2022 8:15:00 PM 19.98 67.964 0.37 8.02 6.89 8.55
5/28/2022 8:30:00 PM 19.92 67.856 0.369 8.02 5.29 8.53
5/28/2022 8:45:00 PM 19.86 67.748 0.369 8.01 6.26 8.49
5/28/2022 9:00:00 PM 19.81 67.658 0.369 8 5.92 8.4
5/28/2022 9:15:00 PM 19.76 67.568 0.369 7.99 5.98 8.4
5/28/2022 9:30:00 PM 19.7 67.46 0.369 7.98 5.62 8.36
5/28/2022 9:45:00 PM 19.65 67.37 0.368 7.98 5.85 8.32
5/28/2022 10:00:00 PM 19.6 67.28 0.368 7.97 6.19 8.29
5/28/2022 10:15:00 PM 19.55 67.19 0.368 7.96 6.85 8.27
5/28/2022 10:30:00 PM 19.5 67.1 0.368 7.96 5.9 8.25
5/28/2022 10:45:00 PM 19.45 67.01 0.367 7.95 5.85 8.21
5/28/2022 11:00:00 PM 19.39 66.902 0.367 7.95 6.19 8.21
5/28/2022 11:15:00 PM 19.35 66.83 0.368 7.94 6.35 8.18
5/28/2022 11:30:00 PM 19.3 66.74 0.368 7.94 6.53 8.15
5/28/2022 11:45:00 PM 19.25 66.65 0.368 7.93 6.29 8.13
5/29/2022 12:00:00 AM 19.2 66.56 0.368 7.93 6.59 8.12
5/29/2022 12:15:00 AM 19.16 66.488 0.368 7.93 6.29 8.12
5/29/2022 12:30:00 AM 19.11 66.398 0.368 7.92 6.53 8.08
5/29/2022 12:45:00 AM 19.07 66.326 0.368 7.92 6.61 8.08
5/29/2022 1:00:00 AM 19.03 66.254 0.368 7.91 6.91 8.06
5/29/2022 1:15:00 AM 18.99 66.182 0.368 7.91 7.27 8.04
5/29/2022 1:30:00 AM 18.96 66.128 0.368 7.9 6.8 8.01
5/29/2022 1:45:00 AM 18.94 66.092 0.368 7.9 6.76 8.01
5/29/2022 2:00:00 AM 18.91 66.038 0.368 7.89 7.99 7.97
5/29/2022 2:15:00 AM 18.88 65.984 0.367 7.89 6.91 7.95
5/29/2022 2:30:00 AM 18.84 65.912 0.366 7.88 8.17 7.93
5/29/2022 2:45:00 AM 18.79 65.82201 0.366 7.87 6.74 7.92
5/29/2022 3:00:00 AM 18.77 65.786 0.365 7.87 7.71 7.88
5/29/2022 3:15:00 AM 18.74 65.732 0.363 7.86 9.64 7.88
5/29/2022 3:30:00 AM 18.71 65.67799 0.363 7.85 7.97 7.85
5/29/2022 3:45:00 AM 18.69 65.642 0.362 7.85 7.36 7.84
5/29/2022 4:00:00 AM 18.65 65.57 0.361 7.84 7.54 7.83
5/29/2022 4:15:00 AM 18.62 65.516 0.36 7.84 7.46 7.81
5/29/2022 4:30:00 AM 18.59 65.462 0.359 7.83 10.31 7.79
5/29/2022 4:45:00 AM 18.56 65.408 0.358 7.82 8.11 7.77
5/29/2022 5:00:00 AM 18.52 65.336 0.357 7.82 8.08 7.76
5/29/2022 5:15:00 AM 18.49 65.282 0.356 7.81 7.74 7.75
5/29/2022 5:30:00 AM 18.46 65.228 0.355 7.81 7.13 7.71
5/29/2022 5:45:00 AM 18.44 65.192 0.354 7.8 7.55 7.7
5/29/2022 6:00:00 AM 18.41 65.138 0.351 7.8 8.23 7.68
5/29/2022 6:15:00 AM 18.39 65.102 0.35 7.8 7.63 7.69
5/29/2022 6:30:00 AM 18.37 65.066 0.35 7.79 7.61 7.68
5/29/2022 6:45:00 AM 18.36 65.048 0.348 7.79 7.74 7.69
5/29/2022 7:00:00 AM 18.35 65.03 0.348 7.79 7.63 7.7
5/29/2022 7:15:00 AM 18.35 65.03 0.347 7.79 7.66 7.72
5/29/2022 7:30:00 AM 18.34 65.012 0.346 7.79 7.16 7.76
5/29/2022 7:45:00 AM 18.35 65.03 0.345 7.79 7.05 7.77
5/29/2022 8:00:00 AM 18.36 65.048 0.344 7.8 8.11 7.83
5/29/2022 8:15:00 AM 18.39 65.102 0.344 7.8 7.93 7.87
5/29/2022 8:30:00 AM 18.49 65.282 0.343 7.82 7.45 7.96
5/29/2022 8:45:00 AM 18.49 65.282 0.342 7.82 7.39 8
5/29/2022 9:00:00 AM 18.58 65.444 0.342 7.84 7.18 8.1
5/29/2022 9:15:00 AM 18.68 65.624 0.341 7.85 9.82 8.17
5/29/2022 9:30:00 AM 18.78 65.804 0.341 7.87 7.54 8.26
5/29/2022 9:45:00 AM 18.9 66.02 0.34 7.88 8.18 8.36
5/29/2022 10:00:00 AM 19.01 66.218 0.34 7.89 7.59 8.41
5/29/2022 10:15:00 AM 19.05 66.29 0.339 7.9 6.69 8.49
5/29/2022 10:30:00 AM 19.16 66.488 0.338 7.91 6.91 8.54
5/29/2022 10:45:00 AM 19.28 66.704 0.338 7.92 6.87 8.6
5/29/2022 11:00:00 AM 19.46 67.028 0.337 7.94 6.8 8.69
5/29/2022 11:15:00 AM 19.66 67.388 0.336 7.95 6.73 8.77
5/29/2022 11:30:00 AM 19.86 67.748 0.336 7.96 8.01 8.8
5/29/2022 11:45:00 AM 20.05 68.09 0.335 7.98 6.79 8.9
5/29/2022 12:00:00 PM 20.22 68.396 0.334 7.99 6.58 8.92
5/29/2022 12:15:00 PM 20.32 68.576 0.334 8 7.17 8.99
5/29/2022 12:30:00 PM 20.35 68.63 0.333 8 7.49 9.01
5/29/2022 12:45:00 PM 20.44 68.792 0.333 8.02 6.93 9.06
5/29/2022 1:00:00 PM 20.49 68.882 0.332 8.01 6.99 9.06
5/29/2022 1:15:00 PM 20.65 69.17 0.332 8.02 7.21 9.11
5/29/2022 1:30:00 PM 20.81 69.458 0.331 8.04 7.26 9.16
5/29/2022 1:45:00 PM 20.92 69.656 0.331 8.05 6.62 9.2
5/29/2022 2:00:00 PM 21.06 69.908 0.33 8.06 6.76 9.24
5/29/2022 2:15:00 PM 21.18 70.124 0.33 8.07 7.31 9.25
5/29/2022 2:30:00 PM 21.28 70.304 0.329 8.08 7.67 9.29
5/29/2022 2:45:00 PM 21.4 70.52 0.329 8.08 7.25 9.32
5/29/2022 3:00:00 PM 21.5 70.7 0.329 8.09 7.23 9.36
5/29/2022 3:15:00 PM 21.57 70.826 0.328 8.11 8.53 9.38
5/29/2022 3:30:00 PM 21.62 70.916 0.328 8.11 7.32 9.34
5/29/2022 3:45:00 PM 21.71 71.078 0.328 8.12 7.54 9.44
5/29/2022 4:00:00 PM 21.78 71.204 0.328 8.13 7.57 9.41
5/29/2022 4:15:00 PM 21.85 71.33 0.327 8.14 7.22 9.45
5/29/2022 4:30:00 PM 21.87 71.366 0.327 8.14 8.11 9.43
5/29/2022 4:45:00 PM 21.91 71.438 0.327 8.13 7.38 9.43
5/29/2022 5:00:00 PM 21.96 71.528 0.327 8.15 7.05 9.44
5/29/2022 5:15:00 PM 21.96 71.528 0.327 8.15 7.13 9.44
5/29/2022 5:30:00 PM 21.97 71.546 0.326 8.15 7.7 9.39
5/29/2022 5:45:00 PM 21.95 71.51 0.326 8.15 7.26 9.41
5/29/2022 6:00:00 PM 21.93 71.474 0.326 8.15 7.26 9.37
5/29/2022 6:15:00 PM 21.9 71.42 0.326 8.15 8.07 9.34
5/29/2022 6:30:00 PM 21.88 71.384 0.326 8.15 7.59 9.31
5/29/2022 6:45:00 PM 21.84 71.312 0.326 8.14 8.11 9.29
5/29/2022 7:00:00 PM 21.79 71.222 0.326 8.14 7.17 9.26
5/29/2022 7:15:00 PM 21.74 71.132 0.326 8.14 7.68 9.21
5/29/2022 7:30:00 PM 21.69 71.042 0.326 8.13 7.89 9.16
5/29/2022 7:45:00 PM 21.64 70.952 0.326 8.13 7.54 9.11
5/29/2022 8:00:00 PM 21.58 70.844 0.325 8.13 6.99 9.1
5/29/2022 8:15:00 PM 21.52 70.736 0.325 8.12 8 9.03
5/29/2022 8:30:00 PM 21.48 70.664 0.325 8.11 7.19 9
5/29/2022 8:45:00 PM 21.42 70.556 0.325 8.09 6.99 8.9
5/29/2022 9:00:00 PM 21.36 70.448 0.325 8.08 7.74 8.85
5/29/2022 9:15:00 PM 21.31 70.358 0.325 8.07 7.97 8.79
5/29/2022 9:30:00 PM 21.25 70.25 0.325 8.07 7.77 8.74
5/29/2022 9:45:00 PM 21.19 70.142 0.325 8.05 7.79 8.67
5/29/2022 10:00:00 PM 21.14 70.052 0.325 8.04 7.26 8.59
5/29/2022 10:15:00 PM 21.08 69.944 0.325 8.03 7.6 8.56
5/29/2022 10:30:00 PM 21.02 69.836 0.325 8.03 7.55 8.53
5/29/2022 10:45:00 PM 20.96 69.728 0.325 8.01 7.9 8.46
5/29/2022 11:00:00 PM 20.9 69.62 0.325 8.01 7.53 8.42
5/29/2022 11:15:00 PM 20.84 69.512 0.325 8 7.58 8.37
5/29/2022 11:30:00 PM 20.78 69.404 0.325 8 7.57 8.35
5/29/2022 11:45:00 PM 20.71 69.278 0.325 7.98 7.72 8.28
5/30/2022 12:00:00 AM 20.65 69.17 0.325 7.98 7.39 8.27
5/30/2022 12:15:00 AM 20.59 69.062 0.325 7.97 12.56 8.21
5/30/2022 12:30:00 AM 20.54 68.972 0.325 7.96 7.69 8.18
5/30/2022 12:45:00 AM 20.48 68.864 0.325 7.95 7.8 8.13
5/30/2022 1:00:00 AM 20.43 68.774 0.325 7.95 9.06 8.13
5/30/2022 1:15:00 AM 20.39 68.702 0.325 7.94 260.65 8.11
5/30/2022 1:30:00 AM 20.33 68.594 0.325 7.94 7.83 8.05
5/30/2022 1:45:00 AM 20.3 68.54 0.326 7.93 7.27 8.04
5/30/2022 2:00:00 AM 20.25 68.45 0.326 7.92 7.52 8.01
5/30/2022 2:15:00 AM 20.21 68.378 0.326 7.92 6.87 7.98
5/30/2022 2:30:00 AM 20.18 68.324 0.326 7.92 7.22 7.96
5/30/2022 2:45:00 AM 20.14 68.252 0.326 7.91 6.72 7.91
5/30/2022 3:00:00 AM 20.1 68.18 0.326 7.9 7.54 7.87
5/30/2022 3:15:00 AM 20.06 68.108 0.326 7.9 7.19 7.87
5/30/2022 3:30:00 AM 20.04 68.07201 0.326 7.89 7.19 7.84
5/30/2022 3:45:00 AM 20 68 0.327 7.88 7.45 7.78
5/30/2022 4:00:00 AM 19.96 67.92799 0.327 7.88 7.77 7.78
5/30/2022 4:15:00 AM 19.94 67.892 0.327 7.87 7.57 7.75
5/30/2022 4:30:00 AM 19.9 67.82 0.327 7.87 9.46 7.71
5/30/2022 4:45:00 AM 19.88 67.784 0.327 7.86 7.14 7.71
5/30/2022 5:00:00 AM 19.85 67.73 0.328 7.85 7.29 7.69
5/30/2022 5:15:00 AM 19.81 67.658 0.328 7.84 7.46 7.64
5/30/2022 5:30:00 AM 19.78 67.604 0.328 7.83 8.47 7.62
5/30/2022 5:45:00 AM 19.75 67.55 0.329 7.82 7.12 7.59
5/30/2022 6:00:00 AM 19.73 67.514 0.329 7.82 7.17 7.58
5/30/2022 6:15:00 AM 19.7 67.46 0.329 7.82 7.31 7.56
5/30/2022 6:30:00 AM 19.7 67.46 0.33 7.81 7.17 7.54
5/30/2022 6:45:00 AM 19.69 67.442 0.33 7.8 6.48 7.53
5/30/2022 7:00:00 AM 19.69 67.442 0.33 7.8 6.48 7.54
5/30/2022 7:15:00 AM 19.7 67.46 0.331 7.8 7.02 7.55
5/30/2022 7:30:00 AM 19.72 67.496 0.331 7.79 7.74 7.57
5/30/2022 7:45:00 AM 19.75 67.55 0.331 7.8 6.71 7.6
5/30/2022 8:00:00 AM 19.79 67.622 0.332 7.81 6.56 7.63
5/30/2022 8:15:00 AM 19.84 67.712 0.332 7.81 6.9 7.68
5/30/2022 8:30:00 AM 19.86 67.748 0.332 7.82 6.15 7.68
5/30/2022 8:45:00 AM 19.9 67.82 0.332 7.82 6.1 7.75
5/30/2022 9:00:00 AM 19.95 67.91 0.333 7.83 5.79 7.81
5/30/2022 9:15:00 AM 19.98 67.964 0.333 7.84 5.69 7.85
5/30/2022 9:30:00 AM 20.06 68.108 0.334 7.85 5.43 7.96
5/30/2022 9:45:00 AM 20.18 68.324 0.334 7.86 5.76 8.02
5/30/2022 10:00:00 AM 20.28 68.504 0.334 7.87 5.5 8.07
5/30/2022 10:15:00 AM 20.39 68.702 0.335 7.89 5.64 8.14
5/30/2022 10:30:00 AM 20.52 68.936 0.335 7.9 5.63 8.22
5/30/2022 10:45:00 AM 20.65 69.17 0.335 7.92 5.74 8.32
5/30/2022 11:00:00 AM 20.83 69.494 0.337 7.94 5.57 8.41
5/30/2022 11:15:00 AM 20.99 69.782 0.337 7.95 5.34 8.49
5/30/2022 11:30:00 AM 21.16 70.088 0.338 7.96 5.53 8.52
5/30/2022 11:45:00 AM 21.36 70.448 0.338 7.98 5.38 8.62
5/30/2022 12:00:00 PM 21.55 70.79 0.338 7.99 5.19 8.65
5/30/2022 12:15:00 PM 21.78 71.204 0.339 8.01 5.7 8.77
5/30/2022 12:30:00 PM 21.98 71.564 0.339 8.02 5.77 8.83
5/30/2022 12:45:00 PM 22.16 71.888 0.339 8.03 5.36 8.87
5/30/2022 1:00:00 PM 22.34 72.212 0.34 8.05 5.54 8.92
5/30/2022 1:15:00 PM 22.52 72.536 0.34 8.07 5.77 9
5/30/2022 1:30:00 PM 22.69 72.842 0.34 8.08 5.46 9.02
5/30/2022 1:45:00 PM 22.87 73.166 0.34 8.09 5.41 9.06
5/30/2022 2:00:00 PM 23.06 73.508 0.34 8.11 4.86 9.18
5/30/2022 2:15:00 PM 23.2 73.76 0.341 8.13 5.41 9.19
5/30/2022 2:30:00 PM 23.35 74.03 0.341 8.14 5.52 9.26
5/30/2022 2:45:00 PM 23.48 74.264 0.341 8.15 5.26 9.28
5/30/2022 3:00:00 PM 23.62 74.516 0.341 8.16 5.81 9.3
5/30/2022 3:15:00 PM 23.72 74.696 0.341 8.17 5.01 9.33
5/30/2022 3:30:00 PM 23.8 74.84 0.342 8.17 5.76 9.32
5/30/2022 3:45:00 PM 23.9 75.02 0.342 8.18 5.2 9.35
5/30/2022 4:00:00 PM 23.97 75.146 0.342 8.19 5.26 9.35
5/30/2022 4:15:00 PM 24.03 75.254 0.342 8.2 5.22 9.41
5/30/2022 4:30:00 PM 24.09 75.362 0.342 8.21 5.53 9.42
5/30/2022 4:45:00 PM 24.13 75.434 0.342 8.21 4.81 9.38
5/30/2022 5:00:00 PM 24.16 75.488 0.342 8.22 5.28 9.4
5/30/2022 5:15:00 PM 24.18 75.524 0.342 8.23 5.31 9.42
5/30/2022 5:30:00 PM 24.19 75.542 0.342 8.22 6.81 9.35
5/30/2022 5:45:00 PM 24.19 75.542 0.342 8.23 5.74 9.37
5/30/2022 6:00:00 PM 24.17 75.506 0.342 8.23 6.12 9.36
5/30/2022 6:15:00 PM 24.14 75.452 0.342 8.23 5.29 9.37
5/30/2022 6:30:00 PM 24.1 75.38 0.342 8.23 4.97 9.33
5/30/2022 6:45:00 PM 24.05 75.29 0.342 8.23 5.34 9.29
5/30/2022 7:00:00 PM 24.02 75.236 0.342 8.24 5.15 9.29
5/30/2022 7:15:00 PM 23.97 75.146 0.342 8.23 5.82 9.23
5/30/2022 7:30:00 PM 23.91 75.038 0.343 8.22 5.88 9.17
5/30/2022 7:45:00 PM 23.85 74.93 0.343 8.22 5.7 9.14
5/30/2022 8:00:00 PM 23.79 74.82201 0.343 8.21 5.36 9.09
5/30/2022 8:15:00 PM 23.73 74.714 0.343 8.2 5.8 9.01
5/30/2022 8:30:00 PM 23.67 74.606 0.343 8.19 6.77 8.92
5/30/2022 8:45:00 PM 23.6 74.48 0.343 8.18 5.68 8.84
5/30/2022 9:00:00 PM 23.53 74.354 0.343 8.17 6.85 8.76
5/30/2022 9:15:00 PM 23.46 74.228 0.343 8.16 6.19 8.72
5/30/2022 9:30:00 PM 23.39 74.102 0.343 8.13 6.41 8.58
5/30/2022 9:45:00 PM 23.33 73.994 0.343 8.12 6.48 8.54
5/30/2022 10:00:00 PM 23.26 73.868 0.343 8.11 6.23 8.46
5/30/2022 10:15:00 PM 23.19 73.742 0.343 8.1 5.94 8.39
5/30/2022 10:30:00 PM 23.12 73.616 0.344 8.08 5.79 8.29
5/30/2022 10:45:00 PM 23.06 73.508 0.344 8.07 8.54 8.22
5/30/2022 11:00:00 PM 22.99 73.382 0.344 8.05 6.97 8.15
5/30/2022 11:15:00 PM 22.92 73.256 0.344 8.03 9.76 8.06
5/30/2022 11:30:00 PM 22.86 73.148 0.344 8.03 7.22 8.02
5/30/2022 11:45:00 PM 22.79 73.022 0.344 8.02 6.96 8.02
5/31/2022 12:00:00 AM 22.73 72.914 0.344 8 5.8 7.93
5/31/2022 12:15:00 AM 22.67 72.806 0.345 8 8.94 7.85
5/31/2022 12:30:00 AM 22.61 72.698 0.345 8 6.09 7.84
5/31/2022 12:45:00 AM 22.55 72.59 0.345 7.99 6.62 7.79
5/31/2022 1:00:00 AM 22.49 72.482 0.345 7.98 5.73 7.76
5/31/2022 1:15:00 AM 22.45 72.41 0.345 7.98 6.35 7.72
5/31/2022 1:30:00 AM 22.39 72.302 0.345 7.97 5.8 7.71
5/31/2022 1:45:00 AM 22.34 72.212 0.345 7.96 5.86 7.66
5/31/2022 2:00:00 AM 22.3 72.14 0.345 7.96 8.58 7.64
5/31/2022 2:15:00 AM 22.25 72.05 0.346 7.95 5.87 7.61
5/31/2022 2:30:00 AM 22.21 71.978 0.346 7.95 6.24 7.58
5/31/2022 2:45:00 AM 22.16 71.888 0.346 7.95 5.73 7.56
5/31/2022 3:00:00 AM 22.12 71.816 0.346 7.94 5.54 7.52
5/31/2022 3:15:00 AM 22.08 71.744 0.346 7.93 6.09 7.46
5/31/2022 3:30:00 AM 22.03 71.654 0.346 7.93 6.26 7.44
5/31/2022 3:45:00 AM 21.99 71.582 0.346 7.92 7.53 7.41
5/31/2022 4:00:00 AM 21.95 71.51 0.347 7.91 6.22 7.38
5/31/2022 4:15:00 AM 21.91 71.438 0.347 7.91 5.8 7.34
5/31/2022 4:30:00 AM 21.87 71.366 0.347 7.9 5.74 7.36
5/31/2022 4:45:00 AM 21.82 71.276 0.347 7.89 5.96 7.32
5/31/2022 5:00:00 AM 21.79 71.222 0.347 7.89 5.95 7.31
5/31/2022 5:15:00 AM 21.74 71.132 0.347 7.87 10.65 7.24
5/31/2022 5:30:00 AM 21.71 71.078 0.347 7.87 5.7 7.22
5/31/2022 5:45:00 AM 21.67 71.006 0.348 7.87 5.78 7.22
5/31/2022 6:00:00 AM 21.63 70.934 0.348 7.86 5.86 7.19
5/31/2022 6:15:00 AM 21.61 70.898 0.348 7.85 5.77 7.16
5/31/2022 6:30:00 AM 21.59 70.862 0.348 7.84 5.89 7.12
5/31/2022 6:45:00 AM 21.58 70.844 0.348 7.84 6.14 7.14
5/31/2022 7:00:00 AM 21.57 70.826 0.348 7.84 5.92 7.16
5/31/2022 7:15:00 AM 21.57 70.826 0.348 7.84 5.51 7.17
5/31/2022 7:30:00 AM 21.59 70.862 0.349 7.83 9.99 7.18
5/31/2022 7:45:00 AM 21.61 70.898 0.349 7.83 8.13 7.17
5/31/2022 8:00:00 AM 21.66 70.988 0.349 7.84 7.1 7.27
5/31/2022 8:15:00 AM 21.71 71.078 0.349 7.85 5.35 7.32
5/31/2022 8:30:00 AM 21.79 71.222 0.349 7.85 5.34 7.37
5/31/2022 8:45:00 AM 21.89 71.402 0.349 7.86 5.86 7.45
5/31/2022 9:00:00 AM 21.98 71.564 0.35 7.87 5.1 7.53
5/31/2022 9:15:00 AM 22.1 71.78 0.35 7.88 5.04 7.61
5/31/2022 9:30:00 AM 22.2 71.96 0.35 7.9 5.15 7.74
5/31/2022 9:45:00 AM 22.31 72.158 0.35 7.9 5.13 7.79
5/31/2022 10:00:00 AM 22.46 72.42799 0.35 7.92 5.31 7.92
5/31/2022 10:15:00 AM 22.61 72.698 0.35 7.93 5.09 7.98
5/31/2022 10:30:00 AM 22.77 72.986 0.351 7.95 4.7 8.08
5/31/2022 10:45:00 AM 22.94 73.292 0.351 7.96 5.2 8.14
5/31/2022 11:00:00 AM 23.1 73.58 0.351 7.98 5.05 8.26
5/31/2022 11:15:00 AM 23.29 73.922 0.352 8 4.77 8.37
5/31/2022 11:30:00 AM 23.47 74.246 0.352 8.02 5.43 8.41
5/31/2022 11:45:00 AM 23.65 74.57 0.352 8.04 4.6 8.56
5/31/2022 12:00:00 PM 23.85 74.93 0.352 8.05 6.12 8.66
5/31/2022 12:15:00 PM 24.05 75.29 0.352 8.07 5.07 8.67
5/31/2022 12:30:00 PM 24.25 75.65 0.353 8.08 4.69 8.78
5/31/2022 12:45:00 PM 24.41 75.938 0.353 8.1 8.94 8.85
5/31/2022 1:00:00 PM 24.61 76.298 0.353 8.12 4.63 8.88
5/31/2022 1:15:00 PM 24.74 76.532 0.354 8.12 4.49 8.87
5/31/2022 1:30:00 PM 24.91 76.838 0.354 8.14 4.59 8.98
5/31/2022 1:45:00 PM 25.02 77.036 0.354 8.15 4.57 9.02
5/31/2022 2:00:00 PM 25.16 77.288 0.355 8.17 4.73 9.11
5/31/2022 2:15:00 PM 25.24 77.432 0.355 8.17 4.28 9.08
5/31/2022 2:30:00 PM 25.41 77.738 0.356 8.19 4.29 9.14
5/31/2022 2:45:00 PM 25.53 77.954 0.356 8.19 4.61 9.16
5/31/2022 3:00:00 PM 25.64 78.152 0.356 8.21 4.43 9.2
5/31/2022 3:15:00 PM 25.75 78.35 0.356 8.21 5.19 9.23
5/31/2022 3:30:00 PM 25.8 78.44 0.357 8.22 4.8 9.25
5/31/2022 3:45:00 PM 25.89 78.602 0.357 8.23 4.69 9.29
5/31/2022 4:00:00 PM 26.01 78.818 0.357 8.24 4.63 9.25
5/31/2022 4:15:00 PM 26.14 79.052 0.358 8.25 4.79 9.33
5/31/2022 4:30:00 PM 26.21 79.17799 0.358 8.25 7.07 9.3
5/31/2022 4:45:00 PM 26.25 79.25 0.358 8.26 4.98 9.32
5/31/2022 5:00:00 PM 26.26 79.268 0.358 8.26 5.46 9.29
5/31/2022 5:15:00 PM 26.27 79.286 0.359 8.27 5.5 9.29
5/31/2022 5:30:00 PM 26.28 79.304 0.359 8.27 5.13 9.27
5/31/2022 5:45:00 PM 26.28 79.304 0.359 8.27 4.68 9.24
5/31/2022 6:00:00 PM 26.28 79.304 0.36 8.27 5.1 9.22
5/31/2022 6:15:00 PM 26.27 79.286 0.36 8.28 4.76 9.19
5/31/2022 6:30:00 PM 26.23 79.214 0.36 8.27 4.56 9.15
5/31/2022 6:45:00 PM 26.19 79.142 0.36 8.27 4.84 9.12
5/31/2022 7:00:00 PM 26.16 79.088 0.36 8.27 5.11 9.07
5/31/2022 7:15:00 PM 26.14 79.052 0.361 8.28 5.61 9.09
5/31/2022 7:30:00 PM 26.09 78.962 0.361 8.26 5.08 8.99
5/31/2022 7:45:00 PM 26.03 78.854 0.361 8.25 5.37 8.93
5/31/2022 8:00:00 PM 25.96 78.728 0.361 8.25 5.12 8.86
5/31/2022 8:15:00 PM 25.88 78.584 0.361 8.23 5.07 8.76
5/31/2022 8:30:00 PM 25.81 78.458 0.362 8.22 5.03 8.69
5/31/2022 8:45:00 PM 25.74 78.332 0.362 8.22 5.2 8.63
5/31/2022 9:00:00 PM 25.68 78.224 0.362 8.2 4.95 8.51
5/31/2022 9:15:00 PM 25.62 78.116 0.362 8.18 5.66 8.41
5/31/2022 9:30:00 PM 25.56 78.008 0.362 8.17 5.59 8.39
5/31/2022 9:45:00 PM 25.48 77.864 0.362 8.15 6.19 8.24
5/31/2022 10:00:00 PM 25.41 77.738 0.362 8.14 5.14 8.15
5/31/2022 10:15:00 PM 25.34 77.612 0.363 8.13 4.95 8.08
5/31/2022 10:30:00 PM 25.26 77.468 0.363 8.11 5.09 8.01
5/31/2022 10:45:00 PM 25.2 77.36 0.363 8.09 5.81 7.88
5/31/2022 11:00:00 PM 25.12 77.216 0.363 8.08 5.25 7.87
5/31/2022 11:15:00 PM 25.05 77.09 0.363 8.07 5.43 7.79
5/31/2022 11:30:00 PM 24.96 76.92799 0.363 8.06 5.15 7.67
5/31/2022 11:45:00 PM 24.89 76.802 0.363 8.05 5 7.65
6/1/2022 12:00:00 AM 24.81 76.658 0.363 8.04 5.12 7.58
6/1/2022 12:15:00 AM 24.74 76.532 0.364 8.02 5.32 7.52
6/1/2022 12:30:00 AM 24.65 76.37 0.364 8.02 5.02 7.5
6/1/2022 12:45:00 AM 24.58 76.244 0.364 8.01 4.89 7.41
6/1/2022 1:00:00 AM 24.5 76.1 0.364 8 5.17 7.37
6/1/2022 1:15:00 AM 24.42 75.956 0.364 7.99 5.55 7.3
6/1/2022 1:30:00 AM 24.35 75.83 0.364 7.98 5 7.28
6/1/2022 1:45:00 AM 24.27 75.686 0.364 7.97 5.59 7.25
6/1/2022 2:00:00 AM 24.2 75.56 0.364 7.96 5.77 7.21
6/1/2022 2:15:00 AM 24.13 75.434 0.364 7.96 5.4 7.16
6/1/2022 2:30:00 AM 24.06 75.308 0.364 7.96 5.62 7.16
6/1/2022 2:45:00 AM 23.99 75.182 0.365 7.94 5.29 7.07
6/1/2022 3:00:00 AM 23.93 75.074 0.365 7.94 5.06 7.1
6/1/2022 3:15:00 AM 23.86 74.948 0.365 7.94 5.28 7.06
6/1/2022 3:30:00 AM 23.8 74.84 0.365 7.93 5 7.04
6/1/2022 3:45:00 AM 23.74 74.732 0.365 7.93 6.27 7.01
6/1/2022 4:00:00 AM 23.68 74.624 0.365 7.92 5.69 6.98
6/1/2022 4:15:00 AM 23.61 74.498 0.365 7.91 5.56 6.93
6/1/2022 4:30:00 AM 23.57 74.426 0.365 7.91 5.72 6.94
6/1/2022 4:45:00 AM 23.5 74.3 0.365 7.9 5.89 6.89
6/1/2022 5:00:00 AM 23.44 74.192 0.365 7.89 5.75 6.87
6/1/2022 5:15:00 AM 23.38 74.084 0.366 7.89 7.34 6.81
6/1/2022 5:30:00 AM 23.33 73.994 0.366 7.88 5.58 6.83
6/1/2022 5:45:00 AM 23.27 73.886 0.366 7.86 5.43 6.78
6/1/2022 6:00:00 AM 23.21 73.778 0.366 7.86 5.3 6.79
6/1/2022 6:15:00 AM 23.17 73.706 0.366 7.85 5.62 6.75
6/1/2022 6:30:00 AM 23.12 73.616 0.366 7.85 5.9 6.7
6/1/2022 6:45:00 AM 23.08 73.544 0.366 7.85 5.63 6.76
6/1/2022 7:00:00 AM 23.06 73.508 0.366 7.85 5.18 6.77
6/1/2022 7:15:00 AM 23.03 73.454 0.367 7.84 5.84 6.76
6/1/2022 7:30:00 AM 23 73.4 0.367 7.84 5.62 6.77
6/1/2022 7:45:00 AM 22.99 73.382 0.367 7.85 6.02 6.83
6/1/2022 8:00:00 AM 23 73.4 0.367 7.85 5.25 6.87
6/1/2022 8:15:00 AM 23.03 73.454 0.367 7.86 5.33 6.94
6/1/2022 8:30:00 AM 23.1 73.58 0.367 7.87 5.24 7.04
6/1/2022 8:45:00 AM 23.13 73.634 0.368 7.87 5.88 7.08
6/1/2022 9:00:00 AM 23.18 73.724 0.368 7.88 5.72 7.2
6/1/2022 9:15:00 AM 23.25 73.85 0.368 7.89 4.93 7.27
6/1/2022 9:30:00 AM 23.35 74.03 0.368 7.91 5.12 7.4
6/1/2022 9:45:00 AM 23.44 74.192 0.368 7.92 4.92 7.44
6/1/2022 10:00:00 AM 23.55 74.39 0.369 7.93 5.71 7.6
6/1/2022 10:15:00 AM 23.67 74.606 0.369 7.94 5.54 7.63
6/1/2022 10:30:00 AM 23.82 74.876 0.369 7.96 4.89 7.76
6/1/2022 10:45:00 AM 24 75.2 0.369 7.98 4.84 7.9
6/1/2022 11:00:00 AM 24.15 75.47 0.37 8 5.04 8.01
6/1/2022 11:15:00 AM 24.26 75.668 0.37 8.02 5.77 8.12
6/1/2022 11:30:00 AM 24.34 75.812 0.37 8.03 5.8 8.18
6/1/2022 11:45:00 AM 24.43 75.974 0.37 8.05 4.97 8.29
6/1/2022 12:00:00 PM 24.57 76.226 0.371 8.08 4.66 8.41
6/1/2022 12:15:00 PM 24.71 76.478 0.371 8.09 7.07 8.49
6/1/2022 12:30:00 PM 24.84 76.712 0.371 8.1 4.82 8.57
6/1/2022 12:45:00 PM 24.94 76.892 0.371 8.11 4.88 8.63
6/1/2022 1:00:00 PM 25.06 77.108 0.372 8.13 4.97 8.65
6/1/2022 1:15:00 PM 25.17 77.306 0.372 8.15 4.92 8.79
6/1/2022 1:30:00 PM 25.33 77.594 0.372 8.16 4.83 8.88
6/1/2022 1:45:00 PM 25.46 77.828 0.372 8.18 4.69 8.98
6/1/2022 2:00:00 PM 25.58 78.044 0.373 8.19 4.95 9.05
6/1/2022 2:15:00 PM 25.67 78.206 0.373 8.2 4.46 9.06
6/1/2022 2:30:00 PM 25.75 78.35 0.373 8.21 5.05 9.09
6/1/2022 2:45:00 PM 25.74 78.332 0.373 8.22 4.83 9.07
6/1/2022 3:00:00 PM 25.73 78.314 0.373 8.22 5.42 9.1
6/1/2022 3:15:00 PM 25.75 78.35 0.373 8.23 5.56 9.05
6/1/2022 3:30:00 PM 25.81 78.458 0.373 8.25 4.97 9.16
6/1/2022 3:45:00 PM 25.88 78.584 0.374 8.26 4.77 9.19
6/1/2022 4:00:00 PM 25.91 78.638 0.374 8.26 4.73 9.2
6/1/2022 4:15:00 PM 25.89 78.602 0.374 8.25 5.81 9.14
6/1/2022 4:30:00 PM 25.89 78.602 0.374 8.26 4.8 9.17
6/1/2022 4:45:00 PM 25.88 78.584 0.374 8.26 5.47 9.17
6/1/2022 5:00:00 PM 25.87 78.566 0.374 8.27 5.02 9.17
6/1/2022 5:15:00 PM 25.88 78.584 0.374 8.28 6.31 9.24
6/1/2022 5:30:00 PM 25.88 78.584 0.375 8.29 8.95 9.23
6/1/2022 5:45:00 PM 25.88 78.584 0.375 8.3 5.16 9.22
6/1/2022 6:00:00 PM 25.84 78.512 0.375 8.29 5.2 9.17
6/1/2022 6:15:00 PM 25.8 78.44 0.375 8.29 5.22 9.12
6/1/2022 6:30:00 PM 25.64 78.152 0.369 8.27 12.44 8.92
6/1/2022 6:45:00 PM 25.52 77.936 0.368 8.25 12.16 8.79
6/1/2022 7:00:00 PM 25.53 77.954 0.37 8.25 13.12 8.7
6/1/2022 7:15:00 PM 25.46 77.828 0.371 8.23 12.75 8.63
6/1/2022 7:30:00 PM 25.35 77.63 0.371 8.21 13.39 8.52
6/1/2022 7:45:00 PM 25.26 77.468 0.37 8.2 13.73 8.44
6/1/2022 8:00:00 PM 25.23 77.414 0.37 8.19 10.88 8.36
6/1/2022 8:15:00 PM 25.19 77.342 0.371 8.17 9.58 8.31
6/1/2022 8:30:00 PM 25.17 77.306 0.372 8.17 8.36 8.26
6/1/2022 8:45:00 PM 25.08 77.144 0.372 8.16 7.27 8.2
6/1/2022 9:00:00 PM 25.01 77.018 0.372 8.14 7.03 8.1
6/1/2022 9:15:00 PM 24.99 76.982 0.373 8.12 7.41 8.03
6/1/2022 9:30:00 PM 24.97 76.946 0.373 8.12 6.46 7.99
6/1/2022 9:45:00 PM 24.92 76.856 0.374 8.1 6.82 7.86
6/1/2022 10:00:00 PM 24.89 76.802 0.374 8.07 6.68 7.76
6/1/2022 10:15:00 PM 24.83 76.694 0.374 8.05 6.49 7.64
6/1/2022 10:30:00 PM 24.79 76.622 0.374 8.04 6.71 7.57
6/1/2022 10:45:00 PM 24.74 76.532 0.374 8.02 6.18 7.49
6/1/2022 11:00:00 PM 24.7 76.46 0.374 8.01 6.31 7.43
6/1/2022 11:15:00 PM 24.66 76.388 0.375 7.99 5.91 7.36
6/1/2022 11:30:00 PM 24.62 76.316 0.375 7.99 6.14 7.36
6/1/2022 11:45:00 PM 24.58 76.244 0.375 7.99 5.91 7.33
6/2/2022 12:00:00 AM 24.54 76.172 0.375 7.98 6.11 7.27
6/2/2022 12:15:00 AM 24.49 76.082 0.376 7.97 6.39 7.24
6/2/2022 12:30:00 AM 24.45 76.01 0.376 7.97 6.29 7.17
6/2/2022 12:45:00 AM 24.39 75.902 0.376 7.95 6.01 7.14
6/2/2022 1:00:00 AM 24.36 75.848 0.377 7.95 6.4 7.08
6/2/2022 1:15:00 AM 24.31 75.758 0.377 7.94 6.12 7.07
6/2/2022 1:30:00 AM 24.26 75.668 0.377 7.94 5.74 7.03
6/2/2022 1:45:00 AM 24.21 75.578 0.378 7.93 6.26 6.99
6/2/2022 2:00:00 AM 24.16 75.488 0.378 7.92 5.91 6.91
6/2/2022 2:15:00 AM 24.11 75.398 0.378 7.92 5.85 6.91
6/2/2022 2:30:00 AM 24.05 75.29 0.379 7.91 5.67 6.87
6/2/2022 2:45:00 AM 23.99 75.182 0.379 7.9 5.89 6.85
6/2/2022 3:00:00 AM 23.93 75.074 0.379 7.89 6.04 6.82
6/2/2022 3:15:00 AM 23.88 74.984 0.38 7.89 6.52 6.79
6/2/2022 3:30:00 AM 23.83 74.894 0.38 7.88 6.18 6.76
6/2/2022 3:45:00 AM 23.78 74.804 0.381 7.88 6.25 6.73
6/2/2022 4:00:00 AM 23.72 74.696 0.381 7.87 5.85 6.71
6/2/2022 4:15:00 AM 23.67 74.606 0.382 7.87 5.92 6.7
6/2/2022 4:30:00 AM 23.62 74.516 0.382 7.88 6.36 6.71
6/2/2022 4:45:00 AM 23.57 74.426 0.383 7.86 6.04 6.68
6/2/2022 5:00:00 AM 23.52 74.336 0.383 7.86 5.95 6.67
6/2/2022 5:15:00 AM 23.49 74.282 0.384 7.86 6.41 6.63
6/2/2022 5:30:00 AM 23.44 74.192 0.384 7.85 6.12 6.57
6/2/2022 5:45:00 AM 23.4 74.12 0.384 7.84 5.91 6.57
6/2/2022 6:00:00 AM 23.36 74.048 0.385 7.84 6.07 6.57
6/2/2022 6:15:00 AM 23.33 73.994 0.385 7.84 6.64 6.55
6/2/2022 6:30:00 AM 23.28 73.904 0.386 7.83 6.42 6.54
6/2/2022 6:45:00 AM 23.25 73.85 0.386 7.84 7.3 6.54
6/2/2022 7:00:00 AM 23.21 73.778 0.387 7.83 6.32 6.53
6/2/2022 7:15:00 AM 23.17 73.706 0.387 7.83 6.13 6.54
6/2/2022 7:30:00 AM 23.13 73.634 0.387 7.83 6.21 6.54
6/2/2022 7:45:00 AM 23.09 73.562 0.388 7.83 6.22 6.56
6/2/2022 8:00:00 AM 23.07 73.526 0.388 7.83 5.75 6.59
6/2/2022 8:15:00 AM 23.05 73.49 0.389 7.84 5.99 6.62
6/2/2022 8:30:00 AM 23.06 73.508 0.389 7.84 5.87 6.69
6/2/2022 8:45:00 AM 23.07 73.526 0.389 7.85 5.43 6.75
6/2/2022 9:00:00 AM 23.09 73.562 0.389 7.86 5.69 6.87
6/2/2022 9:15:00 AM 23.11 73.598 0.39 7.87 5.92 6.98
6/2/2022 9:30:00 AM 23.15 73.67 0.39 7.89 5.57 7.1
6/2/2022 9:45:00 AM 23.19 73.742 0.391 7.9 5.71 7.2
6/2/2022 10:00:00 AM 23.2 73.76 0.391 7.92 5.55 7.28
6/2/2022 10:15:00 AM 23.25 73.85 0.391 7.93 5.56 7.41
6/2/2022 10:30:00 AM 23.31 73.958 0.392 7.94 5.62 7.54
6/2/2022 10:45:00 AM 23.33 73.994 0.392 7.96 8.08 7.56
6/2/2022 11:00:00 AM 23.36 74.048 0.393 7.97 5.85 7.73
6/2/2022 11:15:00 AM 23.39 74.102 0.393 7.98 5.87 7.74
6/2/2022 11:30:00 AM 23.45 74.21 0.393 8 7.02 7.93
6/2/2022 11:45:00 AM 23.5 74.3 0.394 8.02 5.81 8.02
6/2/2022 12:00:00 PM 23.58 74.444 0.394 8.04 5.62 8.15
6/2/2022 12:15:00 PM 23.67 74.606 0.395 8.06 6.02 8.23
6/2/2022 12:30:00 PM 23.75 74.75 0.395 8.08 4.83 8.33
6/2/2022 12:45:00 PM 23.84 74.912 0.395 8.1 5.85 8.49
6/2/2022 1:00:00 PM 23.94 75.092 0.396 8.11 5.22 8.58
6/2/2022 1:15:00 PM 24.05 75.29 0.396 8.14 6.34 8.7
6/2/2022 1:30:00 PM 24.16 75.488 0.396 8.15 6.01 8.73
6/2/2022 1:45:00 PM 24.3 75.74 0.396 8.17 5.27 8.88
6/2/2022 2:00:00 PM 24.4 75.92 0.396 8.18 6.44 8.92
6/2/2022 2:15:00 PM 24.43 75.974 0.396 8.2 7.16 9
6/2/2022 2:30:00 PM 24.49 76.082 0.396 8.21 5.1 9.07
6/2/2022 2:45:00 PM 24.55 76.19 0.396 8.22 5.48 9.08
6/2/2022 3:00:00 PM 24.68 76.424 0.396 8.24 5.42 9.2
6/2/2022 3:15:00 PM 24.76 76.568 0.396 8.25 5.85 9.25
6/2/2022 3:30:00 PM 24.83 76.694 0.396 8.27 5.33 9.28
6/2/2022 3:45:00 PM 24.86 76.748 0.396 8.27 5.56 9.3
6/2/2022 4:00:00 PM 24.91 76.838 0.395 8.29 5.13 9.38
6/2/2022 4:15:00 PM 25 77 0.395 8.3 5.41 9.44
6/2/2022 4:30:00 PM 25.07 77.126 0.395 8.31 5.6 9.49
6/2/2022 4:45:00 PM 25.13 77.234 0.394 8.33 5.19 9.52
6/2/2022 5:00:00 PM 25.18 77.324 0.394 8.34 5.77 9.54
6/2/2022 5:15:00 PM 25.21 77.378 0.393 8.34 5.19 9.56
6/2/2022 5:30:00 PM 25.25 77.45 0.393 8.36 5.38 9.58
6/2/2022 5:45:00 PM 25.24 77.432 0.392 8.36 6.05 9.6
6/2/2022 6:00:00 PM 25.22 77.396 0.392 8.36 5.83 9.57
6/2/2022 6:15:00 PM 25.22 77.396 0.391 8.38 5.55 9.61
6/2/2022 6:30:00 PM 25.18 77.324 0.391 8.38 5.73 9.58
6/2/2022 6:45:00 PM 25.13 77.234 0.39 8.37 5.57 9.48
6/2/2022 7:00:00 PM 25.07 77.126 0.39 8.38 5.57 9.5
6/2/2022 7:15:00 PM 25 77 0.389 8.38 6.43 9.44
6/2/2022 7:30:00 PM 24.94 76.892 0.389 8.38 5.93 9.39
6/2/2022 7:45:00 PM 24.86 76.748 0.388 8.36 5.74 9.31
6/2/2022 8:00:00 PM 24.79 76.622 0.387 8.36 5.8 9.23
6/2/2022 8:15:00 PM 24.71 76.478 0.387 8.36 5.76 9.17
6/2/2022 8:30:00 PM 24.63 76.334 0.386 8.35 5.94 9.1
6/2/2022 8:45:00 PM 24.55 76.19 0.386 8.33 6.21 8.97
6/2/2022 9:00:00 PM 24.46 76.028 0.385 8.32 6.51 8.91
6/2/2022 9:15:00 PM 24.38 75.884 0.385 8.3 6.22 8.81
6/2/2022 9:30:00 PM 24.29 75.722 0.384 8.29 6.31 8.69
6/2/2022 9:45:00 PM 24.2 75.56 0.384 8.27 6.41 8.59
6/2/2022 10:00:00 PM 24.12 75.416 0.383 8.26 6.6 8.51
6/2/2022 10:15:00 PM 24.04 75.272 0.383 8.24 5.46 8.42
6/2/2022 10:30:00 PM 23.98 75.164 0.382 8.22 5.89 8.33
6/2/2022 10:45:00 PM 23.92 75.056 0.382 8.21 6.31 8.25
6/2/2022 11:00:00 PM 23.85 74.93 0.381 8.19 6.12 8.18
6/2/2022 11:15:00 PM 23.79 74.82201 0.381 8.18 6.32 8.09
6/2/2022 11:30:00 PM 23.73 74.714 0.38 8.17 6.36 8.03
6/2/2022 11:45:00 PM 23.65 74.57 0.38 8.15 6.78 7.94
6/3/2022 12:00:00 AM 23.57 74.426 0.379 8.14 6.23 7.87
6/3/2022 12:15:00 AM 23.5 74.3 0.379 8.12 7.36 7.8
6/3/2022 12:30:00 AM 23.42 74.156 0.379 8.12 6.47 7.77
6/3/2022 12:45:00 AM 23.36 74.048 0.378 8.11 5.32 7.73
6/3/2022 1:00:00 AM 23.29 73.922 0.377 8.1 5.75 7.69
6/3/2022 1:15:00 AM 23.21 73.778 0.377 8.09 6.25 7.65
6/3/2022 1:30:00 AM 23.16 73.688 0.377 8.08 6.68 7.62
6/3/2022 1:45:00 AM 23.07 73.526 0.376 8.07 5.61 7.61
6/3/2022 2:00:00 AM 23.01 73.418 0.375 8.07 5.97 7.59
6/3/2022 2:15:00 AM 22.95 73.31 0.375 8.06 6.27 7.56
6/3/2022 2:30:00 AM 22.89 73.202 0.374 8.06 6.77 7.53
6/3/2022 2:45:00 AM 22.82 73.076 0.374 8.05 6.33 7.5
6/3/2022 3:00:00 AM 22.76 72.968 0.373 8.04 6.56 7.47
6/3/2022 3:15:00 AM 22.71 72.878 0.373 8.03 6.33 7.44
6/3/2022 3:30:00 AM 22.64 72.752 0.372 8.03 7.14 7.42
6/3/2022 3:45:00 AM 22.59 72.662 0.371 8.02 6.62 7.41
6/3/2022 4:00:00 AM 22.52 72.536 0.371 8.01 6.3 7.36
6/3/2022 4:15:00 AM 22.46 72.42799 0.37 8 6.4 7.35
6/3/2022 4:30:00 AM 22.37 72.266 0.37 8 6.9 7.33
6/3/2022 4:45:00 AM 22.29 72.122 0.369 7.99 6.87 7.31
6/3/2022 5:00:00 AM 22.22 71.996 0.369 7.98 7.48 7.28
6/3/2022 5:15:00 AM 22.14 71.852 0.368 7.97 7.05 7.27
6/3/2022 5:30:00 AM 22.05 71.69 0.368 7.97 6.9 7.26
6/3/2022 5:45:00 AM 21.98 71.564 0.367 7.96 6.95 7.24
6/3/2022 6:00:00 AM 21.9 71.42 0.367 7.95 7.12 7.23
6/3/2022 6:15:00 AM 21.82 71.276 0.367 7.95 8.44 7.2
6/3/2022 6:30:00 AM 21.76 71.168 0.366 7.93 7.72 7.2
6/3/2022 6:45:00 AM 21.72 71.096 0.366 7.93 8.84 7.22
6/3/2022 7:00:00 AM 21.67 71.006 0.366 7.94 7.85 7.27
6/3/2022 7:15:00 AM 21.64 70.952 0.366 7.94 7.91 7.28
6/3/2022 7:30:00 AM 21.6 70.88 0.366 7.94 10.24 7.31
6/3/2022 7:45:00 AM 21.59 70.862 0.366 7.94 8.26 7.34
6/3/2022 8:00:00 AM 21.58 70.844 0.366 7.94 7.66 7.41
6/3/2022 8:15:00 AM 21.56 70.808 0.366 7.95 9.74 7.47
6/3/2022 8:30:00 AM 21.58 70.844 0.366 7.96 7.83 7.58
6/3/2022 8:45:00 AM 21.61 70.898 0.366 7.98 7.3 7.67
6/3/2022 9:00:00 AM 21.65 70.97 0.366 7.98 7.78 7.73
6/3/2022 9:15:00 AM 21.67 71.006 0.366 8 7.47 7.86
6/3/2022 9:30:00 AM 21.71 71.078 0.366 8.02 6.91 7.95
6/3/2022 9:45:00 AM 21.78 71.204 0.366 8.02 7.06 8.01
6/3/2022 10:00:00 AM 21.88 71.384 0.366 8.05 6.74 8.14
6/3/2022 10:15:00 AM 22.01 71.618 0.366 8.07 7.19 8.26
6/3/2022 10:30:00 AM 22.13 71.834 0.366 8.09 6.66 8.37
6/3/2022 10:45:00 AM 22.24 72.032 0.365 8.1 7.01 8.47
6/3/2022 11:00:00 AM 22.29 72.122 0.365 8.12 7 8.52
6/3/2022 11:15:00 AM 22.39 72.302 0.365 8.14 6.9 8.59
6/3/2022 11:30:00 AM 22.49 72.482 0.364 8.15 7.33 8.67
6/3/2022 11:45:00 AM 22.59 72.662 0.364 8.16 6.43 8.76
6/3/2022 12:00:00 PM 22.71 72.878 0.363 8.18 6.51 8.82
6/3/2022 12:15:00 PM 22.86 73.148 0.363 8.2 6.33 8.9
6/3/2022 12:30:00 PM 22.99 73.382 0.362 8.21 6.25 8.96
6/3/2022 12:45:00 PM 23.16 73.688 0.361 8.23 6.28 9.04
6/3/2022 1:00:00 PM 23.26 73.868 0.361 8.24 5.71 9.06
6/3/2022 1:15:00 PM 23.34 74.012 0.36 8.25 6.06 9.13
6/3/2022 1:30:00 PM 23.48 74.264 0.359 8.26 6.52 9.18
6/3/2022 1:45:00 PM 23.65 74.57 0.359 8.27 6.79 9.25
6/3/2022 2:00:00 PM 23.82 74.876 0.358 8.28 6.83 9.27
6/3/2022 2:15:00 PM 23.99 75.182 0.357 8.3 7.97 9.37
6/3/2022 2:30:00 PM 24.1 75.38 0.356 8.32 7.34 9.39
6/3/2022 2:45:00 PM 24.2 75.56 0.355 8.33 6.25 9.47
6/3/2022 3:00:00 PM 24.25 75.65 0.354 8.34 6.17 9.44
6/3/2022 3:15:00 PM 24.32 75.776 0.353 8.34 6.52 9.5
6/3/2022 3:30:00 PM 24.4 75.92 0.352 8.35 6.31 9.49
6/3/2022 3:45:00 PM 24.46 76.028 0.351 8.36 6.6 9.5
6/3/2022 4:00:00 PM 24.5 76.1 0.35 8.36 6.26 9.52
6/3/2022 4:15:00 PM 24.54 76.172 0.35 8.37 6.41 9.55
6/3/2022 4:30:00 PM 24.58 76.244 0.349 8.38 6.03 9.56
6/3/2022 4:45:00 PM 24.6 76.28 0.348 8.38 6.86 9.59
6/3/2022 5:00:00 PM 24.61 76.298 0.347 8.39 6.13 9.6
6/3/2022 5:15:00 PM 24.55 76.19 0.346 8.39 6.36 9.57
6/3/2022 5:30:00 PM 24.52 76.136 0.345 8.39 6.93 9.55
6/3/2022 5:45:00 PM 24.49 76.082 0.345 8.39 7.87 9.5
6/3/2022 6:00:00 PM 24.46 76.028 0.344 8.4 6.88 9.51
6/3/2022 6:15:00 PM 24.41 75.938 0.343 8.4 8.23 9.49
6/3/2022 6:30:00 PM 24.35 75.83 0.343 8.4 7.01 9.46
6/3/2022 6:45:00 PM 24.29 75.722 0.342 8.4 6.26 9.46
6/3/2022 7:00:00 PM 24.23 75.614 0.342 8.4 6.64 9.41
6/3/2022 7:15:00 PM 24.16 75.488 0.341 8.4 6.06 9.41
6/3/2022 7:30:00 PM 24.09 75.362 0.341 8.4 5.92 9.36
6/3/2022 7:45:00 PM 23.99 75.182 0.341 8.39 6.7 9.28
6/3/2022 8:00:00 PM 23.86 74.948 0.34 8.38 6.81 9.19
6/3/2022 8:15:00 PM 23.75 74.75 0.34 8.36 6.76 9.11
6/3/2022 8:30:00 PM 23.62 74.516 0.34 8.34 6.17 9.02
6/3/2022 8:45:00 PM 23.5 74.3 0.34 8.33 6.29 8.94
6/3/2022 9:00:00 PM 23.4 74.12 0.34 8.31 6.27 8.83
6/3/2022 9:15:00 PM 23.3 73.94 0.341 8.3 6.01 8.78
6/3/2022 9:30:00 PM 23.2 73.76 0.341 8.28 6.53 8.7
6/3/2022 9:45:00 PM 23.09 73.562 0.341 8.27 6.39 8.63
6/3/2022 10:00:00 PM 22.99 73.382 0.341 8.24 6.31 8.53
6/3/2022 10:15:00 PM 22.89 73.202 0.342 8.23 6.46 8.46
6/3/2022 10:30:00 PM 22.79 73.022 0.342 8.22 6.09 8.39
6/3/2022 10:45:00 PM 22.69 72.842 0.342 8.2 8.21 8.29
6/3/2022 11:00:00 PM 22.59 72.662 0.343 8.19 6.12 8.26
6/3/2022 11:15:00 PM 22.49 72.482 0.343 8.18 6.05 8.22
6/3/2022 11:30:00 PM 22.4 72.32 0.344 8.17 5.94 8.18
6/3/2022 11:45:00 PM 22.3 72.14 0.344 8.16 6.03 8.12
6/4/2022 12:00:00 AM 22.21 71.978 0.344 8.15 6.09 8.09
6/4/2022 12:15:00 AM 22.13 71.834 0.345 8.14 5.94 8.05
6/4/2022 12:30:00 AM 22.04 71.672 0.345 8.13 5.91 7.98
6/4/2022 12:45:00 AM 21.96 71.528 0.346 8.12 5.9 7.94
6/4/2022 1:00:00 AM 21.86 71.348 0.346 8.11 6.3 7.91
6/4/2022 1:15:00 AM 21.78 71.204 0.347 8.11 6.13 7.89
6/4/2022 1:30:00 AM 21.69 71.042 0.347 8.1 6.49 7.86
6/4/2022 1:45:00 AM 21.62 70.916 0.348 8.09 6.04 7.8
6/4/2022 2:00:00 AM 21.54 70.772 0.348 8.08 6.54 7.79
6/4/2022 2:15:00 AM 21.46 70.628 0.349 8.08 6.01 7.76
6/4/2022 2:30:00 AM 21.39 70.502 0.349 8.08 5.72 7.76
6/4/2022 2:45:00 AM 21.32 70.376 0.35 8.07 5.67 7.73
6/4/2022 3:00:00 AM 21.25 70.25 0.35 8.06 5.84 7.7
6/4/2022 3:15:00 AM 21.18 70.124 0.351 8.06 5.7 7.68
6/4/2022 3:30:00 AM 21.1 69.98 0.351 8.06 6.04 7.69
6/4/2022 3:45:00 AM 21.04 69.872 0.352 8.05 5.96 7.65
6/4/2022 4:00:00 AM 20.96 69.728 0.352 8.05 5.62 7.63
6/4/2022 4:15:00 AM 20.89 69.602 0.352 8.04 5.9 7.61
6/4/2022 4:30:00 AM 20.82 69.476 0.353 8.03 5.98 7.59
6/4/2022 4:45:00 AM 20.75 69.35 0.353 8.03 5.78 7.58
6/4/2022 5:00:00 AM 20.68 69.224 0.354 8.03 5.86 7.58
6/4/2022 5:15:00 AM 20.61 69.098 0.354 8.02 6.35 7.56
6/4/2022 5:30:00 AM 20.53 68.954 0.354 8.01 6.03 7.52
6/4/2022 5:45:00 AM 20.47 68.846 0.355 8 14.49 7.48
6/4/2022 6:00:00 AM 20.4 68.72 0.355 8 7.21 7.44
6/4/2022 6:15:00 AM 20.34 68.612 0.356 7.99 7.76 7.46
6/4/2022 6:30:00 AM 20.28 68.504 0.356 7.99 5.67 7.48
6/4/2022 6:45:00 AM 20.25 68.45 0.356 7.99 6.17 7.51
6/4/2022 7:00:00 AM 20.22 68.396 0.356 7.98 7.19 7.48
6/4/2022 7:15:00 AM 20.18 68.324 0.357 7.99 6.18 7.56
6/4/2022 7:30:00 AM 20.18 68.324 0.357 7.99 5.81 7.62
6/4/2022 7:45:00 AM 20.15 68.27 0.357 7.99 6.03 7.65
6/4/2022 8:00:00 AM 20.15 68.27 0.358 8 6.22 7.69
6/4/2022 8:15:00 AM 20.16 68.288 0.358 8.01 5.8 7.77
6/4/2022 8:30:00 AM 20.23 68.414 0.358 8.02 8.36 7.83
6/4/2022 8:45:00 AM 20.28 68.504 0.358 8.03 9.47 7.91
6/4/2022 9:00:00 AM 20.36 68.648 0.359 8.05 6.12 8.06
6/4/2022 9:15:00 AM 20.42 68.756 0.359 8.06 6.31 8.16
6/4/2022 9:30:00 AM 20.49 68.882 0.359 8.07 5.4 8.22
6/4/2022 9:45:00 AM 20.57 69.026 0.359 8.09 5.23 8.33
6/4/2022 10:00:00 AM 20.68 69.224 0.36 8.1 5.27 8.4
6/4/2022 10:15:00 AM 20.78 69.404 0.36 8.11 5.44 8.49
6/4/2022 10:30:00 AM 20.93 69.674 0.36 8.13 5.75 8.59
6/4/2022 10:45:00 AM 21.06 69.908 0.36 8.15 5.28 8.7
6/4/2022 11:00:00 AM 21.19 70.142 0.36 8.16 5.51 8.79
6/4/2022 11:15:00 AM 21.34 70.412 0.36 8.18 5.82 8.87
6/4/2022 11:30:00 AM 21.49 70.682 0.361 8.2 4.91 9.01
6/4/2022 11:45:00 AM 21.62 70.916 0.361 8.22 5.47 9.1
6/4/2022 12:00:00 PM 21.77 71.186 0.361 8.24 5.5 9.21
6/4/2022 12:15:00 PM 21.92 71.456 0.361 8.25 5.65 9.28
6/4/2022 12:30:00 PM 22.05 71.69 0.361 8.27 5.67 9.34
6/4/2022 12:45:00 PM 22.2 71.96 0.362 8.29 5.27 9.43
6/4/2022 1:00:00 PM 22.32 72.176 0.362 8.3 5.31 9.48
6/4/2022 1:15:00 PM 22.48 72.464 0.362 8.32 5.24 9.55
6/4/2022 1:30:00 PM 22.6 72.68 0.362 8.33 5.52 9.58
6/4/2022 1:45:00 PM 22.74 72.932 0.362 8.34 5.63 9.66
6/4/2022 2:00:00 PM 22.85 73.13 0.363 8.36 5.39 9.72
6/4/2022 2:15:00 PM 22.97 73.346 0.363 8.37 6.52 9.74
6/4/2022 2:30:00 PM 23.09 73.562 0.363 8.39 5.45 9.82
6/4/2022 2:45:00 PM 23.17 73.706 0.363 8.4 5.57 9.85
6/4/2022 3:00:00 PM 23.22 73.796 0.363 8.41 4.99 9.87
6/4/2022 3:15:00 PM 23.29 73.922 0.364 8.42 5.77 9.9
6/4/2022 3:30:00 PM 23.35 74.03 0.364 8.42 5.06 9.91
6/4/2022 3:45:00 PM 23.41 74.138 0.364 8.42 5.02 9.91
6/4/2022 4:00:00 PM 23.49 74.282 0.364 8.45 4.77 9.99
6/4/2022 4:15:00 PM 23.5 74.3 0.364 8.44 5.48 9.95
6/4/2022 4:30:00 PM 23.55 74.39 0.364 8.46 4.81 9.98
6/4/2022 4:45:00 PM 23.59 74.462 0.365 8.47 4.75 10.03
6/4/2022 5:00:00 PM 23.62 74.516 0.365 8.47 5.01 10.06
6/4/2022 5:15:00 PM 23.61 74.498 0.365 8.48 5.24 10.05
6/4/2022 5:30:00 PM 23.62 74.516 0.365 8.49 5.23 10.07
6/4/2022 5:45:00 PM 23.61 74.498 0.365 8.5 4.84 10.05
6/4/2022 6:00:00 PM 23.58 74.444 0.365 8.5 4.92 10.04
6/4/2022 6:15:00 PM 23.54 74.372 0.366 8.51 4.67 10.04
6/4/2022 6:30:00 PM 23.49 74.282 0.366 8.51 5.15 9.98
6/4/2022 6:45:00 PM 23.43 74.174 0.366 8.52 4.88 9.97
6/4/2022 7:00:00 PM 23.38 74.084 0.366 8.52 4.83 9.96
6/4/2022 7:15:00 PM 23.34 74.012 0.366 8.52 4.82 9.93
6/4/2022 7:30:00 PM 23.28 73.904 0.366 8.51 5.11 9.83
6/4/2022 7:45:00 PM 23.21 73.778 0.367 8.51 4.87 9.79
6/4/2022 8:00:00 PM 23.13 73.634 0.367 8.5 6.83 9.7
6/4/2022 8:15:00 PM 23.05 73.49 0.367 8.49 5.41 9.59
6/4/2022 8:30:00 PM 22.96 73.328 0.367 8.49 7.6 9.55
6/4/2022 8:45:00 PM 22.87 73.166 0.367 8.49 5.15 9.45
6/4/2022 9:00:00 PM 22.79 73.022 0.368 8.47 4.95 9.38
6/4/2022 9:15:00 PM 22.72 72.896 0.368 8.46 4.62 9.28
6/4/2022 9:30:00 PM 22.64 72.752 0.368 8.45 5.31 9.19
6/4/2022 9:45:00 PM 22.56 72.608 0.368 8.44 5.12 9.11
6/4/2022 10:00:00 PM 22.49 72.482 0.369 8.43 5.59 9.03
6/4/2022 10:15:00 PM 22.4 72.32 0.369 8.41 5.31 8.96
6/4/2022 10:30:00 PM 22.31 72.158 0.369 8.39 5.05 8.86
6/4/2022 10:45:00 PM 22.23 72.014 0.37 8.38 4.93 8.79
6/4/2022 11:00:00 PM 22.13 71.834 0.37 8.37 4.39 8.72
6/4/2022 11:15:00 PM 22.04 71.672 0.37 8.36 4.78 8.66
6/4/2022 11:30:00 PM 21.94 71.492 0.37 8.35 5 8.59
6/4/2022 11:45:00 PM 21.84 71.312 0.371 8.33 5.57 8.51
6/5/2022 12:00:00 AM 21.75 71.15 0.371 8.31 4.92 8.46
6/5/2022 12:15:00 AM 21.66 70.988 0.372 8.3 5.17 8.4
6/5/2022 12:30:00 AM 21.55 70.79 0.372 8.28 5.22 8.34
6/5/2022 12:45:00 AM 21.45 70.61 0.372 8.28 4.84 8.3
6/5/2022 1:00:00 AM 21.35 70.43 0.373 8.27 5.1 8.24
6/5/2022 1:15:00 AM 21.26 70.268 0.373 8.26 4.96 8.21
6/5/2022 1:30:00 AM 21.15 70.07 0.373 8.24 5.15 8.15
6/5/2022 1:45:00 AM 21.06 69.908 0.374 8.23 5.24 8.12
6/5/2022 2:00:00 AM 20.95 69.71 0.374 8.22 4.89 8.08
6/5/2022 2:15:00 AM 20.85 69.53 0.374 8.2 5.05 8.02
6/5/2022 2:30:00 AM 20.75 69.35 0.375 8.19 5.02 7.97
6/5/2022 2:45:00 AM 20.67 69.206 0.375 8.18 4.96 7.97
6/5/2022 3:00:00 AM 20.58 69.044 0.375 8.18 5.09 7.94
6/5/2022 3:15:00 AM 20.48 68.864 0.375 8.18 5.06 7.92
6/5/2022 3:30:00 AM 20.4 68.72 0.376 8.16 5.28 7.88
6/5/2022 3:45:00 AM 20.31 68.558 0.376 8.16 5.73 7.89
6/5/2022 4:00:00 AM 20.24 68.432 0.376 8.15 5.85 7.87
6/5/2022 4:15:00 AM 20.15 68.27 0.377 8.16 4.94 7.85
6/5/2022 4:30:00 AM 20.07 68.126 0.377 8.14 5.18 7.83
6/5/2022 4:45:00 AM 19.99 67.982 0.377 8.14 5.2 7.84
6/5/2022 5:00:00 AM 19.91 67.838 0.377 8.14 5.66 7.81
6/5/2022 5:15:00 AM 19.83 67.694 0.378 8.13 5.62 7.81
6/5/2022 5:30:00 AM 19.75 67.55 0.378 8.13 5.66 7.77
6/5/2022 5:45:00 AM 19.68 67.424 0.378 8.12 5.49 7.78
6/5/2022 6:00:00 AM 19.61 67.298 0.379 8.12 5.35 7.78
6/5/2022 6:15:00 AM 19.55 67.19 0.379 8.1 5.38 7.79
6/5/2022 6:30:00 AM 19.5 67.1 0.379 8.07 5.46 7.77
6/5/2022 6:45:00 AM 19.46 67.028 0.379 8.09 5.54 7.78
6/5/2022 7:00:00 AM 19.43 66.974 0.38 8.1 5.66 7.81
6/5/2022 7:15:00 AM 19.39 66.902 0.38 8.11 5.17 7.87
6/5/2022 7:30:00 AM 19.38 66.884 0.38 8.11 5.2 7.91
6/5/2022 7:45:00 AM 19.39 66.902 0.38 8.12 5.5 7.95
6/5/2022 8:00:00 AM 19.38 66.884 0.38 8.13 5.05 8.02
6/5/2022 8:15:00 AM 19.33 66.794 0.381 8.13 4.58 8.05
6/5/2022 8:30:00 AM 19.33 66.794 0.381 8.14 5.04 8.15
6/5/2022 8:45:00 AM 19.37 66.866 0.381 8.16 5.39 8.27
6/5/2022 9:00:00 AM 19.4 66.92 0.382 8.17 4.88 8.38
6/5/2022 9:15:00 AM 19.41 66.938 0.382 8.18 4.72 8.43
6/5/2022 9:30:00 AM 19.46 67.028 0.382 8.2 4.88 8.54
6/5/2022 9:45:00 AM 19.56 67.208 0.382 8.22 4.98 8.64
6/5/2022 10:00:00 AM 19.64 67.352 0.383 8.23 5.25 8.75
6/5/2022 10:15:00 AM 19.7 67.46 0.383 8.24 4.76 8.84
6/5/2022 10:30:00 AM 19.8 67.64 0.383 8.26 4.51 8.94
6/5/2022 10:45:00 AM 19.91 67.838 0.383 8.28 6.57 9.02
6/5/2022 11:00:00 AM 19.99 67.982 0.383 8.28 5.12 9.11
6/5/2022 11:15:00 AM 20.11 68.198 0.384 8.3 4.73 9.24
6/5/2022 11:30:00 AM 20.22 68.396 0.384 8.32 5.32 9.31
6/5/2022 11:45:00 AM 20.38 68.684 0.384 8.33 4.95 9.43
6/5/2022 12:00:00 PM 20.54 68.972 0.385 8.35 4.38 9.54
6/5/2022 12:15:00 PM 20.72 69.296 0.385 8.36 4.16 9.65
6/5/2022 12:30:00 PM 20.86 69.548 0.385 8.37 4.45 9.73
6/5/2022 12:45:00 PM 21 69.8 0.385 8.38 5.25 9.76
6/5/2022 1:00:00 PM 21.16 70.088 0.386 8.39 5.1 9.83
6/5/2022 1:15:00 PM 21.33 70.394 0.386 8.41 4.63 9.91
6/5/2022 1:30:00 PM 21.49 70.682 0.386 8.41 4.43 9.95
6/5/2022 1:45:00 PM 21.63 70.934 0.386 8.43 4.78 10.03
6/5/2022 2:00:00 PM 21.82 71.276 0.387 8.44 5.16 10.09
6/5/2022 2:15:00 PM 21.96 71.528 0.387 8.45 4.86 10.16
6/5/2022 2:30:00 PM 22.13 71.834 0.387 8.46 4.53 10.22
6/5/2022 2:45:00 PM 22.19 71.942 0.388 8.46 4.71 10.21
6/5/2022 3:00:00 PM 22.26 72.068 0.388 8.47 4.41 10.23
6/5/2022 3:15:00 PM 22.32 72.176 0.388 8.48 4.95 10.24
6/5/2022 3:30:00 PM 22.37 72.266 0.388 8.48 4.37 10.29
6/5/2022 3:45:00 PM 22.52 72.536 0.389 8.48 4.35 10.32
6/5/2022 4:00:00 PM 22.62 72.716 0.389 8.5 4.69 10.37
6/5/2022 4:15:00 PM 22.7 72.86 0.389 8.5 4.26 10.4
6/5/2022 4:30:00 PM 22.78 73.004 0.389 8.51 4.42 10.44
6/5/2022 4:45:00 PM 22.85 73.13 0.39 8.51 4.53 10.45
6/5/2022 5:00:00 PM 22.92 73.256 0.39 8.52 4.27 10.47
6/5/2022 5:15:00 PM 22.99 73.382 0.39 8.52 4.13 10.46
6/5/2022 5:30:00 PM 23.06 73.508 0.39 8.54 4.35 10.52
6/5/2022 5:45:00 PM 23.09 73.562 0.39 8.54 4.62 10.48
6/5/2022 6:00:00 PM 23.1 73.58 0.39 8.54 4.82 10.52
6/5/2022 6:15:00 PM 23.1 73.58 0.39 8.55 4.43 10.48
6/5/2022 6:30:00 PM 23.07 73.526 0.39 8.55 4.69 10.48
6/5/2022 6:45:00 PM 23.05 73.49 0.39 8.55 4.91 10.42
6/5/2022 7:00:00 PM 23.02 73.436 0.39 8.56 4.66 10.4
6/5/2022 7:15:00 PM 22.98 73.364 0.39 8.56 4.61 10.37
6/5/2022 7:30:00 PM 22.9 73.22 0.39 8.56 4.52 10.29
6/5/2022 7:45:00 PM 22.83 73.094 0.39 8.54 5.06 10.16
6/5/2022 8:00:00 PM 22.78 73.004 0.39 8.54 4.79 10.07
6/5/2022 8:15:00 PM 22.76 72.968 0.39 8.54 4.96 9.99
6/5/2022 8:30:00 PM 22.72 72.896 0.39 8.53 4.68 9.92
6/5/2022 8:45:00 PM 22.71 72.878 0.39 8.52 4.37 9.81
6/5/2022 9:00:00 PM 22.67 72.806 0.39 8.51 4.82 9.72
6/5/2022 9:15:00 PM 22.64 72.752 0.39 8.5 5.04 9.64
6/5/2022 9:30:00 PM 22.6 72.68 0.39 8.49 5.61 9.54
6/5/2022 9:45:00 PM 22.56 72.608 0.39 8.48 5.16 9.45
6/5/2022 10:00:00 PM 22.53 72.554 0.39 8.47 5.21 9.37
6/5/2022 10:15:00 PM 22.49 72.482 0.39 8.46 4.64 9.26
6/5/2022 10:30:00 PM 22.44 72.392 0.39 8.45 5.01 9.17
6/5/2022 10:45:00 PM 22.4 72.32 0.39 8.43 5.02 9.09
6/5/2022 11:00:00 PM 22.34 72.212 0.39 8.42 5.32 8.97
6/5/2022 11:15:00 PM 22.28 72.104 0.39 8.41 5.42 8.91
6/5/2022 11:30:00 PM 22.22 71.996 0.39 8.39 4.95 8.82
6/5/2022 11:45:00 PM 22.16 71.888 0.39 8.37 5.18 8.73
6/6/2022 12:00:00 AM 22.11 71.798 0.39 8.36 5.23 8.64
6/6/2022 12:15:00 AM 22.04 71.672 0.39 8.34 4.56 8.51
6/6/2022 12:30:00 AM 21.98 71.564 0.39 8.33 4.95 8.5
6/6/2022 12:45:00 AM 21.93 71.474 0.39 8.32 5.2 8.43
6/6/2022 1:00:00 AM 21.87 71.366 0.39 8.3 5.2 8.36
6/6/2022 1:15:00 AM 21.81 71.258 0.39 8.29 5.37 8.31
6/6/2022 1:30:00 AM 21.75 71.15 0.39 8.28 5.25 8.24
6/6/2022 1:45:00 AM 21.7 71.06 0.39 8.27 4.72 8.2
6/6/2022 2:00:00 AM 21.64 70.952 0.39 8.25 5.19 8.12
6/6/2022 2:15:00 AM 21.57 70.826 0.39 8.24 5.12 8.08
6/6/2022 2:30:00 AM 21.51 70.718 0.39 8.23 5.16 8.02
6/6/2022 2:45:00 AM 21.45 70.61 0.39 8.22 5.42 8
6/6/2022 3:00:00 AM 21.38 70.484 0.39 8.2 5.15 7.95
6/6/2022 3:15:00 AM 21.32 70.376 0.39 8.2 5.01 7.92
6/6/2022 3:30:00 AM 21.26 70.268 0.39 8.18 5.2 7.87
6/6/2022 3:45:00 AM 21.2 70.16 0.39 8.18 6.35 7.86
6/6/2022 4:00:00 AM 21.14 70.052 0.39 8.17 5.07 7.79
6/6/2022 4:15:00 AM 21.08 69.944 0.39 8.16 4.71 7.79
6/6/2022 4:30:00 AM 21.03 69.854 0.39 8.16 5.38 7.75
6/6/2022 4:45:00 AM 20.96 69.728 0.39 8.15 5.45 7.74
6/6/2022 5:00:00 AM 20.91 69.638 0.39 8.14 5.51 7.71
6/6/2022 5:15:00 AM 20.86 69.548 0.39 8.13 6.05 7.69
6/6/2022 5:30:00 AM 20.79 69.422 0.39 8.12 5.59 7.66
6/6/2022 5:45:00 AM 20.74 69.332 0.39 8.12 5.7 7.65
6/6/2022 6:00:00 AM 20.69 69.242 0.39 8.11 5.88 7.63
6/6/2022 6:15:00 AM 20.63 69.134 0.39 8.1 5.87 7.63
6/6/2022 6:30:00 AM 20.59 69.062 0.39 8.1 5.81 7.62
6/6/2022 6:45:00 AM 20.57 69.026 0.39 8.11 5.34 7.65
6/6/2022 7:00:00 AM 20.56 69.008 0.39 8.11 5.28 7.69
6/6/2022 7:15:00 AM 20.55 68.99 0.391 8.1 5.34 7.69
6/6/2022 7:30:00 AM 20.55 68.99 0.39 8.11 5.02 7.77
6/6/2022 7:45:00 AM 20.57 69.026 0.39 8.12 5.14 7.81
6/6/2022 8:00:00 AM 20.56 69.008 0.391 8.13 5.37 7.9
6/6/2022 8:15:00 AM 20.57 69.026 0.391 8.13 5.26 7.98
6/6/2022 8:30:00 AM 20.61 69.098 0.39 8.15 5.14 8.09
6/6/2022 8:45:00 AM 20.67 69.206 0.39 8.16 4.99 8.19
6/6/2022 9:00:00 AM 20.74 69.332 0.39 8.18 4.93 8.31
6/6/2022 9:15:00 AM 20.8 69.44 0.39 8.2 5.03 8.43
6/6/2022 9:30:00 AM 20.86 69.548 0.391 8.22 5.36 8.49
6/6/2022 9:45:00 AM 20.94 69.692 0.391 8.23 5.17 8.64
6/6/2022 10:00:00 AM 21.03 69.854 0.391 8.24 4.78 8.73
6/6/2022 10:15:00 AM 21.13 70.034 0.391 8.25 5.13 8.82
6/6/2022 10:30:00 AM 21.26 70.268 0.391 8.27 5.41 8.93
6/6/2022 10:45:00 AM 21.43 70.574 0.391 8.29 5.24 9.06
6/6/2022 11:00:00 AM 21.58 70.844 0.391 8.31 4.74 9.18
6/6/2022 11:15:00 AM 21.72 71.096 0.391 8.33 4.75 9.32
6/6/2022 11:30:00 AM 21.88 71.384 0.391 8.35 5.51 9.41
6/6/2022 11:45:00 AM 22.04 71.672 0.391 8.37 5.4 9.54
6/6/2022 12:00:00 PM 22.16 71.888 0.391 8.38 5.66 9.61
6/6/2022 12:15:00 PM 22.31 72.158 0.391 8.4 5.78 9.7
6/6/2022 12:30:00 PM 22.46 72.42799 0.391 8.41 4.73 9.8
6/6/2022 12:45:00 PM 22.6 72.68 0.391 8.42 5.8 9.86
6/6/2022 1:00:00 PM 22.74 72.932 0.391 8.43 4.7 9.94
6/6/2022 1:15:00 PM 22.92 73.256 0.391 8.45 5.18 10.04
6/6/2022 1:30:00 PM 23.05 73.49 0.392 8.46 7.11 10.08
6/6/2022 1:45:00 PM 23.11 73.598 0.392 8.47 5.24 10.16
6/6/2022 2:00:00 PM 23.23 73.814 0.392 8.48 4.78 10.18
6/6/2022 2:15:00 PM 23.35 74.03 0.392 8.49 4.83 10.2
6/6/2022 2:30:00 PM 23.44 74.192 0.392 8.5 5.38 10.3
6/6/2022 2:45:00 PM 23.55 74.39 0.392 8.51 4.53 10.34
6/6/2022 3:00:00 PM 23.64 74.552 0.392 8.52 5.88 10.4
6/6/2022 3:15:00 PM 23.69 74.642 0.392 8.52 4.81 10.38
6/6/2022 3:30:00 PM 23.78 74.804 0.393 8.54 5.31 10.49
6/6/2022 3:45:00 PM 23.83 74.894 0.393 8.54 5.02 10.5
6/6/2022 4:00:00 PM 23.87 74.966 0.393 8.54 4.97 10.53
6/6/2022 4:15:00 PM 23.88 74.984 0.393 8.55 4.78 10.48
6/6/2022 4:30:00 PM 23.9 75.02 0.393 8.55 6.03 10.52
6/6/2022 4:45:00 PM 23.92 75.056 0.393 8.56 5.06 10.56
6/6/2022 5:00:00 PM 23.91 75.038 0.393 8.56 4.6 10.57
6/6/2022 5:15:00 PM 23.9 75.02 0.393 8.57 4.2 10.56
6/6/2022 5:30:00 PM 23.9 75.02 0.393 8.57 4.53 10.55
6/6/2022 5:45:00 PM 23.91 75.038 0.393 8.57 5.22 10.54
6/6/2022 6:00:00 PM 23.91 75.038 0.393 8.57 4.21 10.56
6/6/2022 6:15:00 PM 23.89 75.002 0.393 8.57 4.42 10.49
6/6/2022 6:30:00 PM 23.84 74.912 0.393 8.57 4.45 10.51
6/6/2022 6:45:00 PM 23.8 74.84 0.393 8.56 5.01 10.46
6/6/2022 7:00:00 PM 23.73 74.714 0.393 8.57 4.35 10.41
6/6/2022 7:15:00 PM 23.7 74.66 0.393 8.56 4.16 10.34
6/6/2022 7:30:00 PM 23.66 74.588 0.393 8.56 4.83 10.27
6/6/2022 7:45:00 PM 23.61 74.498 0.393 8.56 4.65 10.23
6/6/2022 8:00:00 PM 23.56 74.408 0.394 8.55 4.55 10.13
6/6/2022 8:15:00 PM 23.5 74.3 0.394 8.53 4.63 10
6/6/2022 8:30:00 PM 23.46 74.228 0.394 8.52 4.87 9.93
6/6/2022 8:45:00 PM 23.4 74.12 0.394 8.51 4.67 9.81
6/6/2022 9:00:00 PM 23.36 74.048 0.394 8.5 4.61 9.71
6/6/2022 9:15:00 PM 23.31 73.958 0.394 8.49 4.81 9.58
6/6/2022 9:30:00 PM 23.26 73.868 0.394 8.47 4.77 9.47
6/6/2022 9:45:00 PM 23.22 73.796 0.394 8.46 4.54 9.35
6/6/2022 10:00:00 PM 23.18 73.724 0.395 8.45 4.83 9.24
6/6/2022 10:15:00 PM 23.13 73.634 0.395 8.43 4.51 9.13
6/6/2022 10:30:00 PM 23.08 73.544 0.395 8.41 4.74 9
6/6/2022 10:45:00 PM 23.04 73.472 0.395 8.4 4.66 8.91
6/6/2022 11:00:00 PM 22.99 73.382 0.395 8.38 6.28 8.8
6/6/2022 11:15:00 PM 22.94 73.292 0.395 8.36 4.53 8.7
6/6/2022 11:30:00 PM 22.89 73.202 0.395 8.35 4.84 8.62
6/6/2022 11:45:00 PM 22.85 73.13 0.395 8.34 5.17 8.54
6/7/2022 12:00:00 AM 22.79 73.022 0.395 8.32 4.77 8.47
6/7/2022 12:15:00 AM 22.74 72.932 0.395 8.31 4.76 8.39
6/7/2022 12:30:00 AM 22.69 72.842 0.395 8.29 4.8 8.32
6/7/2022 12:45:00 AM 22.64 72.752 0.395 8.28 4.98 8.23
6/7/2022 1:00:00 AM 22.58 72.644 0.395 8.26 4.43 8.12
6/7/2022 1:15:00 AM 22.54 72.57201 0.395 8.25 4.94 8.1
6/7/2022 1:30:00 AM 22.49 72.482 0.395 8.23 4.71 8.02
6/7/2022 1:45:00 AM 22.44 72.392 0.395 8.23 5.12 7.97
6/7/2022 2:00:00 AM 22.39 72.302 0.395 8.21 5.2 7.92
6/7/2022 2:15:00 AM 22.34 72.212 0.395 8.2 4.84 7.86
6/7/2022 2:30:00 AM 22.29 72.122 0.395 8.19 5.32 7.79
6/7/2022 2:45:00 AM 22.23 72.014 0.395 8.17 5.35 7.74
6/7/2022 3:00:00 AM 22.18 71.924 0.395 8.16 4.85 7.72
6/7/2022 3:15:00 AM 22.14 71.852 0.395 8.15 4.73 7.67
6/7/2022 3:30:00 AM 22.1 71.78 0.395 8.14 5.43 7.63
6/7/2022 3:45:00 AM 22.05 71.69 0.395 8.13 4.96 7.59
6/7/2022 4:00:00 AM 22 71.6 0.395 8.13 4.28 7.56
6/7/2022 4:15:00 AM 21.95 71.51 0.395 8.12 4.63 7.55
6/7/2022 4:30:00 AM 21.91 71.438 0.395 8.11 4.98 7.47
6/7/2022 4:45:00 AM 21.87 71.366 0.395 8.1 4.85 7.46
6/7/2022 5:00:00 AM 21.82 71.276 0.395 8.09 5.23 7.43
6/7/2022 5:15:00 AM 21.78 71.204 0.395 8.08 4.56 7.41
6/7/2022 5:30:00 AM 21.73 71.114 0.395 8.07 4.77 7.37
6/7/2022 5:45:00 AM 21.69 71.042 0.395 8.07 4.86 7.37
6/7/2022 6:00:00 AM 21.65 70.97 0.395 8.07 4.98 7.35
6/7/2022 6:15:00 AM 21.61 70.898 0.395 8.06 4.45 7.28
6/7/2022 6:30:00 AM 21.58 70.844 0.394 8.05 4.47 7.3
6/7/2022 6:45:00 AM 21.55 70.79 0.395 8.05 5.17 7.3
6/7/2022 7:00:00 AM 21.53 70.754 0.395 8.05 4.84 7.32
6/7/2022 7:15:00 AM 21.51 70.718 0.395 8.06 5.13 7.35
6/7/2022 7:30:00 AM 21.47 70.646 0.395 8.06 5.26 7.39
6/7/2022 7:45:00 AM 21.44 70.592 0.395 8.06 5.04 7.42
6/7/2022 8:00:00 AM 21.41 70.538 0.395 8.07 4.75 7.48
6/7/2022 8:15:00 AM 21.39 70.502 0.395 8.07 4.7 7.51
6/7/2022 8:30:00 AM 21.39 70.502 0.395 8.09 4.56 7.62
6/7/2022 8:45:00 AM 21.4 70.52 0.395 8.11 4.88 7.75
6/7/2022 9:00:00 AM 21.43 70.574 0.395 8.13 4.46 7.87
6/7/2022 9:15:00 AM 21.45 70.61 0.395 8.14 4.24 7.98
6/7/2022 9:30:00 AM 21.48 70.664 0.395 8.16 4.38 8.1
6/7/2022 9:45:00 AM 21.54 70.772 0.395 8.18 4.37 8.22
6/7/2022 10:00:00 AM 21.56 70.808 0.395 8.19 4.35 8.28
6/7/2022 10:15:00 AM 21.56 70.808 0.395 8.2 4.16 8.37
6/7/2022 10:30:00 AM 21.56 70.808 0.395 8.22 4.33 8.46
6/7/2022 10:45:00 AM 21.56 70.808 0.395 8.23 4.24 8.5
6/7/2022 11:00:00 AM 21.55 70.79 0.395 8.24 4.24 8.6
6/7/2022 11:15:00 AM 21.54 70.772 0.395 8.26 4.58 8.67
6/7/2022 11:30:00 AM 21.52 70.736 0.395 8.26 4.29 8.7
6/7/2022 11:45:00 AM 21.5 70.7 0.395 8.27 3.92 8.74
6/7/2022 12:00:00 PM 21.5 70.7 0.395 8.28 4.14 8.77
6/7/2022 12:15:00 PM 21.5 70.7 0.396 8.28 3.99 8.8
6/7/2022 12:30:00 PM 21.48 70.664 0.396 8.29 3.9 8.83
6/7/2022 12:45:00 PM 21.48 70.664 0.396 8.29 4.93 8.85
6/7/2022 1:00:00 PM 21.47 70.646 0.396 8.3 4.05 8.92
6/7/2022 1:15:00 PM 21.44 70.592 0.396 8.3 4.34 8.88
6/7/2022 1:30:00 PM 21.43 70.574 0.396 8.31 4.05 8.94
6/7/2022 1:45:00 PM 21.43 70.574 0.396 8.3 4.54 8.97
6/7/2022 2:00:00 PM 21.44 70.592 0.396 8.32 4.47 8.99
6/7/2022 2:15:00 PM 21.43 70.574 0.396 8.32 4.34 9.05
6/7/2022 2:30:00 PM 21.43 70.574 0.396 8.32 3.97 9.05
6/7/2022 2:45:00 PM 21.44 70.592 0.397 8.33 4.33 9.07
6/7/2022 3:00:00 PM 21.45 70.61 0.397 8.33 4.07 9.14
6/7/2022 3:15:00 PM 21.46 70.628 0.397 8.34 4.22 9.17
6/7/2022 3:30:00 PM 21.44 70.592 0.397 8.34 4.14 9.19
6/7/2022 3:45:00 PM 21.42 70.556 0.397 8.34 4.28 9.16
6/7/2022 4:00:00 PM 21.41 70.538 0.397 8.34 4.1 9.19
6/7/2022 4:15:00 PM 21.41 70.538 0.397 8.34 3.66 9.21
6/7/2022 4:30:00 PM 21.4 70.52 0.397 8.34 3.81 9.18
6/7/2022 4:45:00 PM 21.38 70.484 0.398 8.34 3.7 9.16
6/7/2022 5:00:00 PM 21.38 70.484 0.398 8.34 3.99 9.17
6/7/2022 5:15:00 PM 21.36 70.448 0.398 8.33 4.21 9.12
6/7/2022 5:30:00 PM 21.35 70.43 0.399 8.32 3.98 9.08
6/7/2022 5:45:00 PM 21.35 70.43 0.399 8.32 3.6 9.07
6/7/2022 6:00:00 PM 21.36 70.448 0.399 8.32 4.29 9.1
6/7/2022 6:15:00 PM 21.35 70.43 0.4 8.32 3.94 9.09
6/7/2022 6:30:00 PM 21.34 70.412 0.4 8.31 4 9.05
6/7/2022 6:45:00 PM 21.32 70.376 0.4 8.31 4.19 9.03
6/7/2022 7:00:00 PM 21.31 70.358 0.4 8.31 3.67 9.04
6/7/2022 7:15:00 PM 21.3 70.34 0.401 8.3 4.04 9.02
6/7/2022 7:30:00 PM 21.29 70.32201 0.401 8.31 3.78 9.03
6/7/2022 7:45:00 PM 21.27 70.286 0.402 8.3 3.96 8.96
6/7/2022 8:00:00 PM 21.25 70.25 0.402 8.3 4.2 8.94
6/7/2022 8:15:00 PM 21.23 70.214 0.402 8.28 3.96 8.89
6/7/2022 8:30:00 PM 21.2 70.16 0.403 8.27 4.22 8.82
6/7/2022 8:45:00 PM 21.18 70.124 0.403 8.26 4.3 8.76
6/7/2022 9:00:00 PM 21.15 70.07 0.403 8.25 4.41 8.69
6/7/2022 9:15:00 PM 21.12 70.016 0.404 8.24 4.07 8.62
6/7/2022 9:30:00 PM 21.09 69.962 0.404 8.22 4.47 8.54
6/7/2022 9:45:00 PM 21.05 69.89 0.404 8.21 4.62 8.47
6/7/2022 10:00:00 PM 21.03 69.854 0.405 8.2 4.76 8.42
6/7/2022 10:15:00 PM 21 69.8 0.405 8.18 4.3 8.33
6/7/2022 10:30:00 PM 20.97 69.746 0.405 8.16 4.25 8.26
6/7/2022 10:45:00 PM 20.94 69.692 0.405 8.15 4.41 8.19
6/7/2022 11:00:00 PM 20.91 69.638 0.406 8.14 4.41 8.15
6/7/2022 11:15:00 PM 20.89 69.602 0.406 8.13 4.41 8.09
6/7/2022 11:30:00 PM 20.86 69.548 0.406 8.12 4.58 8.05
6/7/2022 11:45:00 PM 20.83 69.494 0.406 8.11 4.51 8
6/8/2022 12:00:00 AM 20.81 69.458 0.407 8.1 4.45 7.97
6/8/2022 12:15:00 AM 20.79 69.422 0.407 8.09 4.46 7.92
6/8/2022 12:30:00 AM 20.76 69.368 0.407 8.08 5.29 7.87
6/8/2022 12:45:00 AM 20.74 69.332 0.407 8.07 4.37 7.82
6/8/2022 1:00:00 AM 20.72 69.296 0.407 8.06 4.82 7.8
6/8/2022 1:15:00 AM 20.69 69.242 0.408 8.05 4.44 7.75
6/8/2022 1:30:00 AM 20.66 69.188 0.408 8.05 4.82 7.74
6/8/2022 1:45:00 AM 20.63 69.134 0.408 8.04 4.38 7.69
6/8/2022 2:00:00 AM 20.59 69.062 0.408 8.04 4.42 7.66
6/8/2022 2:15:00 AM 20.56 69.008 0.408 8.03 4.69 7.63
6/8/2022 2:30:00 AM 20.5 68.9 0.408 8.02 4.21 7.6
6/8/2022 2:45:00 AM 20.46 68.828 0.408 8.02 4.6 7.59
6/8/2022 3:00:00 AM 20.42 68.756 0.409 8.01 4.74 7.56
6/8/2022 3:15:00 AM 20.37 68.666 0.409 8.01 4.57 7.54
6/8/2022 3:30:00 AM 20.3 68.54 0.409 8 4.28 7.52
6/8/2022 3:45:00 AM 20.25 68.45 0.409 8 4.64 7.52
6/8/2022 4:00:00 AM 20.17 68.306 0.409 8 4.45 7.52
6/8/2022 4:15:00 AM 20.12 68.216 0.409 8 5.02 7.51
6/8/2022 4:30:00 AM 20.05 68.09 0.409 7.99 4.94 7.49
6/8/2022 4:45:00 AM 19.99 67.982 0.41 7.98 5 7.47
6/8/2022 5:00:00 AM 19.93 67.874 0.41 7.98 4.75 7.45
6/8/2022 5:15:00 AM 19.87 67.766 0.41 7.98 4.76 7.45
6/8/2022 5:30:00 AM 19.81 67.658 0.41 7.98 4.87 7.44
6/8/2022 5:45:00 AM 19.75 67.55 0.41 7.97 4.81 7.43
6/8/2022 6:00:00 AM 19.7 67.46 0.41 7.97 4.64 7.34
6/8/2022 6:15:00 AM 19.65 67.37 0.41 7.97 5.22 7.44
6/8/2022 6:30:00 AM 19.62 67.316 0.41 7.97 5.02 7.46
6/8/2022 6:45:00 AM 19.61 67.298 0.41 7.97 4.55 7.47
6/8/2022 7:00:00 AM 19.6 67.28 0.411 7.97 4.65 7.5
6/8/2022 7:15:00 AM 19.6 67.28 0.411 7.97 4.46 7.52
6/8/2022 7:30:00 AM 19.6 67.28 0.411 7.98 4.64 7.57
6/8/2022 7:45:00 AM 19.62 67.316 0.411 7.98 4.79 7.64
6/8/2022 8:00:00 AM 19.62 67.316 0.411 7.99 4.63 7.71
6/8/2022 8:15:00 AM 19.62 67.316 0.411 8 4.25 7.77
6/8/2022 8:30:00 AM 19.65 67.37 0.411 8 4.47 7.82
6/8/2022 8:45:00 AM 19.69 67.442 0.412 8.02 4.61 7.94
6/8/2022 9:00:00 AM 19.76 67.568 0.412 8.03 4.37 8.06
6/8/2022 9:15:00 AM 19.85 67.73 0.412 8.05 4.49 8.19
6/8/2022 9:30:00 AM 19.92 67.856 0.412 8.06 4.19 8.28
6/8/2022 9:45:00 AM 20.03 68.054 0.412 8.08 5.27 8.39
6/8/2022 10:00:00 AM 20.09 68.162 0.412 8.1 4.41 8.5
6/8/2022 10:15:00 AM 20.23 68.414 0.412 8.12 4.27 8.61
6/8/2022 10:30:00 AM 20.38 68.684 0.413 8.13 4.7 8.7
6/8/2022 10:45:00 AM 20.54 68.972 0.413 8.14 4.7 8.81
6/8/2022 11:00:00 AM 20.72 69.296 0.413 8.16 4.55 8.93
6/8/2022 11:15:00 AM 20.77 69.386 0.413 8.18 4.39 9
6/8/2022 11:30:00 AM 20.95 69.71 0.413 8.19 4.27 9.07
6/8/2022 11:45:00 AM 21.06 69.908 0.413 8.2 4.4 9.19
6/8/2022 12:00:00 PM 21.21 70.17799 0.413 8.22 4.53 9.3
6/8/2022 12:15:00 PM 21.33 70.394 0.413 8.24 4.07 9.37
6/8/2022 12:30:00 PM 21.48 70.664 0.414 8.25 4.12 9.46
6/8/2022 12:45:00 PM 21.53 70.754 0.414 8.27 4.13 9.53
6/8/2022 1:00:00 PM 21.57 70.826 0.414 8.28 3.93 9.57
6/8/2022 1:15:00 PM 21.69 71.042 0.414 8.29 4.15 9.64
6/8/2022 1:30:00 PM 21.83 71.294 0.414 8.31 4.06 9.75
6/8/2022 1:45:00 PM 21.84 71.312 0.414 8.31 4 9.77
6/8/2022 2:00:00 PM 21.86 71.348 0.414 8.32 3.94 9.81
6/8/2022 2:15:00 PM 21.91 71.438 0.414 8.33 3.96 9.83
6/8/2022 2:30:00 PM 22.01 71.618 0.415 8.34 3.74 9.91
6/8/2022 2:45:00 PM 22.15 71.87 0.415 8.35 3.81 9.97
6/8/2022 3:00:00 PM 22.33 72.194 0.415 8.36 3.79 10.02
6/8/2022 3:15:00 PM 22.44 72.392 0.415 8.36 4.5 10.04
6/8/2022 3:30:00 PM 22.56 72.608 0.416 8.37 4.38 10.05
6/8/2022 3:45:00 PM 22.63 72.734 0.416 8.38 3.93 10.1
6/8/2022 4:00:00 PM 22.71 72.878 0.416 8.38 4.33 10.11
6/8/2022 4:15:00 PM 22.81 73.058 0.416 8.39 3.71 10.12
6/8/2022 4:30:00 PM 22.87 73.166 0.416 8.39 4.01 10.14
6/8/2022 4:45:00 PM 22.93 73.274 0.417 8.4 4.16 10.16
6/8/2022 5:00:00 PM 22.96 73.328 0.417 8.4 4.76 10.15
6/8/2022 5:15:00 PM 22.98 73.364 0.417 8.41 4.01 10.19
6/8/2022 5:30:00 PM 23.01 73.418 0.417 8.41 3.96 10.18
6/8/2022 5:45:00 PM 23.03 73.454 0.417 8.41 4.01 10.17
6/8/2022 6:00:00 PM 23.01 73.418 0.417 8.41 4.15 10.17
6/8/2022 6:15:00 PM 22.98 73.364 0.418 8.42 3.98 10.16
6/8/2022 6:30:00 PM 22.92 73.256 0.418 8.42 3.98 10.14
6/8/2022 6:45:00 PM 22.87 73.166 0.418 8.42 3.98 10.11
6/8/2022 7:00:00 PM 22.81 73.058 0.418 8.41 4.13 10.05
6/8/2022 7:15:00 PM 22.75 72.95 0.418 8.41 3.85 10
6/8/2022 7:30:00 PM 22.7 72.86 0.419 8.41 4.25 9.93
6/8/2022 7:45:00 PM 22.66 72.788 0.419 8.41 4 9.88
6/8/2022 8:00:00 PM 22.62 72.716 0.419 8.4 3.82 9.82
6/8/2022 8:15:00 PM 22.58 72.644 0.419 8.39 3.95 9.77
6/8/2022 8:30:00 PM 22.52 72.536 0.419 8.38 4.09 9.67
6/8/2022 8:45:00 PM 22.46 72.42799 0.42 8.38 4.37 9.62
6/8/2022 9:00:00 PM 22.4 72.32 0.42 8.37 4.08 9.52
6/8/2022 9:15:00 PM 22.35 72.23 0.42 8.36 4.41 9.44
6/8/2022 9:30:00 PM 22.29 72.122 0.42 8.34 4.26 9.37
6/8/2022 9:45:00 PM 22.24 72.032 0.421 8.33 4.39 9.27
6/8/2022 10:00:00 PM 22.18 71.924 0.421 8.32 4.39 9.19
6/8/2022 10:15:00 PM 22.13 71.834 0.421 8.31 4.66 9.08
6/8/2022 10:30:00 PM 22.08 71.744 0.421 8.3 4.44 9.01
6/8/2022 10:45:00 PM 22.03 71.654 0.421 8.28 4.67 8.92
6/8/2022 11:00:00 PM 21.99 71.582 0.421 8.27 4.32 8.83
6/8/2022 11:15:00 PM 21.94 71.492 0.422 8.26 4.61 8.75
6/8/2022 11:30:00 PM 21.89 71.402 0.422 8.25 4.38 8.68
6/8/2022 11:45:00 PM 21.86 71.348 0.422 8.24 4.65 8.63
6/9/2022 12:00:00 AM 21.82 71.276 0.422 8.22 4.88 8.52
6/9/2022 12:15:00 AM 21.78 71.204 0.422 8.21 4.61 8.47
6/9/2022 12:30:00 AM 21.75 71.15 0.422 8.2 6.75 8.39
6/9/2022 12:45:00 AM 21.72 71.096 0.422 8.19 5.5 8.32
6/9/2022 1:00:00 AM 21.68 71.024 0.422 8.18 5.03 8.26
6/9/2022 1:15:00 AM 21.63 70.934 0.422 8.17 5 8.21
6/9/2022 1:30:00 AM 21.57 70.826 0.421 8.16 5.17 8.15
6/9/2022 1:45:00 AM 21.48 70.664 0.418 8.15 6.73 8.12
6/9/2022 2:00:00 AM 21.34 70.412 0.412 8.14 12.55 8.12
6/9/2022 2:15:00 AM 21.35 70.43 0.415 8.14 7.91 8.06
6/9/2022 2:30:00 AM 21.29 70.32201 0.414 8.13 11.33 8.03
6/9/2022 2:45:00 AM 21.17 70.106 0.409 8.11 16.44 8.01
6/9/2022 3:00:00 AM 21.06 69.908 0.409 8.11 14.05 7.99
6/9/2022 3:15:00 AM 20.96 69.728 0.408 8.1 15.13 8
6/9/2022 3:30:00 AM 20.84 69.512 0.406 8.09 18.58 7.98
6/9/2022 3:45:00 AM 20.61 69.098 0.397 8.09 28.73 8.03
6/9/2022 4:00:00 AM 20.6 69.08 0.401 8.08 22.47 7.98
6/9/2022 4:15:00 AM 20.46 68.828 0.398 8.06 32.96 7.97
6/9/2022 4:30:00 AM 20.17 68.306 0.391 8.04 44.62 8
6/9/2022 4:45:00 AM 20 68 0.386 8.02 47.35 8
6/9/2022 5:00:00 AM 19.93 67.874 0.384 8.01 42.32 7.99
6/9/2022 5:15:00 AM 19.91 67.838 0.384 8 38.82 7.94
6/9/2022 5:30:00 AM 19.91 67.838 0.385 7.99 32.1 7.9
6/9/2022 5:45:00 AM 19.91 67.838 0.386 7.98 25.85 7.86
6/9/2022 6:00:00 AM 19.93 67.874 0.388 7.98 21.7 7.8
6/9/2022 6:15:00 AM 19.97 67.946 0.39 7.98 18.59 7.77
6/9/2022 6:30:00 AM 19.99 67.982 0.392 7.98 16.12 7.72
6/9/2022 6:45:00 AM 20.01 68.018 0.393 7.97 15.1 7.64
6/9/2022 7:00:00 AM 20.02 68.036 0.395 7.97 12.37 7.63
6/9/2022 7:15:00 AM 20.04 68.07201 0.396 7.97 11.4 7.6
6/9/2022 7:30:00 AM 20.04 68.07201 0.397 7.97 10.83 7.59
6/9/2022 7:45:00 AM 20.06 68.108 0.397 7.97 9.05 7.59
6/9/2022 8:00:00 AM 20.06 68.108 0.397 7.97 8.13 7.59
6/9/2022 8:15:00 AM 20.07 68.126 0.398 7.96 8.35 7.57
6/9/2022 8:30:00 AM 20.13 68.234 0.398 7.98 8.73 7.65
6/9/2022 8:45:00 AM 20.23 68.414 0.399 8 7.57 7.75
6/9/2022 9:00:00 AM 20.26 68.468 0.4 8.01 7.21 7.81
6/9/2022 9:15:00 AM 20.29 68.522 0.401 8.03 6.52 7.89
6/9/2022 9:30:00 AM 20.35 68.63 0.402 8.05 7.32 8.01
6/9/2022 9:45:00 AM 20.37 68.666 0.402 8.06 6.58 8.05
6/9/2022 10:00:00 AM 20.33 68.594 0.4 8.06 6.73 8.07
6/9/2022 10:15:00 AM 20.29 68.522 0.398 8.05 6.61 8.07
6/9/2022 10:30:00 AM 20.2 68.36 0.395 8.05 7.93 8.07
6/9/2022 10:45:00 AM 20.11 68.198 0.393 8.04 7.93 8.12
6/9/2022 11:00:00 AM 20.07 68.126 0.392 8.04 8.28 8.18
6/9/2022 11:15:00 AM 20.1 68.18 0.393 8.05 7.68 8.28
6/9/2022 11:30:00 AM 20.14 68.252 0.394 8.06 7.58 8.37
6/9/2022 11:45:00 AM 20.18 68.324 0.395 8.08 6.47 8.44
6/9/2022 12:00:00 PM 20.24 68.432 0.396 8.09 10.02 8.49
6/9/2022 12:15:00 PM 20.25 68.45 0.397 8.1 7.4 8.52
6/9/2022 12:30:00 PM 20.25 68.45 0.399 8.11 6.81 8.55
6/9/2022 12:45:00 PM 20.25 68.45 0.399 8.11 7.09 8.59
6/9/2022 1:00:00 PM 20.23 68.414 0.4 8.11 6.91 8.61
6/9/2022 1:15:00 PM 20.31 68.558 0.401 8.11 6.97 8.62
6/9/2022 1:30:00 PM 20.35 68.63 0.401 8.12 6.69 8.66
6/9/2022 1:45:00 PM 20.44 68.792 0.401 8.12 7.63 8.7
6/9/2022 2:00:00 PM 20.48 68.864 0.401 8.12 8.02 8.75
6/9/2022 2:15:00 PM 20.46 68.828 0.4 8.13 9.14 8.77
6/9/2022 2:30:00 PM 20.49 68.882 0.398 8.13 9.26 8.78
6/9/2022 2:45:00 PM 20.54 68.972 0.395 8.13 10.04 8.81
6/9/2022 3:00:00 PM 20.54 68.972 0.393 8.13 10.31 8.82
6/9/2022 3:15:00 PM 20.48 68.864 0.391 8.12 10.6 8.8
6/9/2022 3:30:00 PM 20.45 68.81 0.388 8.12 10.82 8.8
6/9/2022 3:45:00 PM 20.44 68.792 0.386 8.12 10.85 8.83
6/9/2022 4:00:00 PM 20.43 68.774 0.384 8.12 12.64 8.82
6/9/2022 4:15:00 PM 20.39 68.702 0.382 8.12 11.94 8.84
6/9/2022 4:30:00 PM 20.38 68.684 0.38 8.13 12.13 8.87
6/9/2022 4:45:00 PM 20.35 68.63 0.379 8.12 13.33 8.84
6/9/2022 5:00:00 PM 20.31 68.558 0.378 8.12 13.47 8.8
6/9/2022 5:15:00 PM 20.28 68.504 0.377 8.12 13.5 8.81
6/9/2022 5:30:00 PM 20.25 68.45 0.376 8.12 13.86 8.82
6/9/2022 5:45:00 PM 20.23 68.414 0.376 8.12 13.86 8.78
6/9/2022 6:00:00 PM 20.22 68.396 0.375 8.12 17.41 8.77
6/9/2022 6:15:00 PM 20.18 68.324 0.375 8.12 14.08 8.76
6/9/2022 6:30:00 PM 20.18 68.324 0.375 8.12 14 8.76
6/9/2022 6:45:00 PM 20.17 68.306 0.374 8.11 14.37 8.74
6/9/2022 7:00:00 PM 20.15 68.27 0.374 8.11 13.09 8.74
6/9/2022 7:15:00 PM 20.12 68.216 0.374 8.11 12.61 8.71
6/9/2022 7:30:00 PM 20.11 68.198 0.373 8.1 13.5 8.7
6/9/2022 7:45:00 PM 20.08 68.144 0.372 8.09 13.15 8.66
6/9/2022 8:00:00 PM 20.03 68.054 0.372 8.08 12.4 8.62
6/9/2022 8:15:00 PM 20 68 0.371 8.07 13.34 8.56
6/9/2022 8:30:00 PM 19.95 67.91 0.37 8.07 14.25 8.56
6/9/2022 8:45:00 PM 19.91 67.838 0.37 8.06 12.46 8.54
6/9/2022 9:00:00 PM 19.87 67.766 0.369 8.04 13.64 8.49
6/9/2022 9:15:00 PM 19.83 67.694 0.369 8.03 13.68 8.45
6/9/2022 9:30:00 PM 19.79 67.622 0.369 8.03 13.52 8.43
6/9/2022 9:45:00 PM 19.75 67.55 0.368 8.02 12.33 8.39
6/9/2022 10:00:00 PM 19.7 67.46 0.368 8.01 12.81 8.37
6/9/2022 10:15:00 PM 19.66 67.388 0.368 8.01 13.52 8.34
6/9/2022 10:30:00 PM 19.61 67.298 0.368 8.01 12.8 8.33
6/9/2022 10:45:00 PM 19.56 67.208 0.368 8 12.53 8.33
6/9/2022 11:00:00 PM 19.52 67.136 0.369 8 12.47 8.32
6/9/2022 11:15:00 PM 19.46 67.028 0.369 8 12.63 8.31
6/9/2022 11:30:00 PM 19.42 66.956 0.369 8 11.56 8.3
6/9/2022 11:45:00 PM 19.37 66.866 0.37 8 12.12 8.3
6/10/2022 12:00:00 AM 19.31 66.758 0.37 8 12.49 8.3
6/10/2022 12:15:00 AM 19.26 66.668 0.37 8 12.7 8.29
6/10/2022 12:30:00 AM 19.21 66.578 0.37 8 11.2 8.3
6/10/2022 12:45:00 AM 19.15 66.47 0.37 8 11.35 8.29
6/10/2022 1:00:00 AM 19.11 66.398 0.37 8 11.1 8.28
6/10/2022 1:15:00 AM 19.07 66.326 0.369 7.99 11.14 8.28
6/10/2022 1:30:00 AM 19.04 66.272 0.368 7.99 10.8 8.28
6/10/2022 1:45:00 AM 19.01 66.218 0.367 7.99 10.57 8.28
6/10/2022 2:00:00 AM 18.98 66.164 0.367 7.99 10.38 8.27
6/10/2022 2:15:00 AM 18.95 66.11 0.365 7.98 10.37 8.25
6/10/2022 2:30:00 AM 18.92 66.056 0.364 7.98 10.52 8.24
6/10/2022 2:45:00 AM 18.89 66.002 0.363 7.98 11.19 8.23
6/10/2022 3:00:00 AM 18.87 65.966 0.361 7.97 10.75 8.2
6/10/2022 3:15:00 AM 18.83 65.894 0.36 7.96 11.23 8.19
6/10/2022 3:30:00 AM 18.8 65.84 0.358 7.95 10.54 8.18
6/10/2022 3:45:00 AM 18.77 65.786 0.357 7.95 11.37 8.16
6/10/2022 4:00:00 AM 18.73 65.714 0.356 7.94 11.2 8.15
6/10/2022 4:15:00 AM 18.7 65.66 0.354 7.94 11.02 8.12
6/10/2022 4:30:00 AM 18.66 65.588 0.353 7.93 12.1 8.11
6/10/2022 4:45:00 AM 18.63 65.534 0.35 7.92 11.79 8.11
6/10/2022 5:00:00 AM 18.58 65.444 0.349 7.92 13.28 8.09
6/10/2022 5:15:00 AM 18.54 65.372 0.348 7.91 12.62 8.07
6/10/2022 5:30:00 AM 18.51 65.318 0.347 7.91 12.78 8.05
6/10/2022 5:45:00 AM 18.48 65.264 0.346 7.91 13.04 8.06
6/10/2022 6:00:00 AM 18.45 65.21 0.344 7.9 14.19 8.04
6/10/2022 6:15:00 AM 18.42 65.156 0.343 7.9 12.77 8.03
6/10/2022 6:30:00 AM 18.4 65.12 0.342 7.89 12.58 8.04
6/10/2022 6:45:00 AM 18.39 65.102 0.341 7.89 13.01 8.04
6/10/2022 7:00:00 AM 18.38 65.084 0.339 7.89 13.02 8.06
6/10/2022 7:15:00 AM 18.39 65.102 0.338 7.89 13.12 8.07
6/10/2022 7:30:00 AM 18.4 65.12 0.336 7.89 13.52 8.08
6/10/2022 7:45:00 AM 18.43 65.174 0.335 7.89 12.91 8.11
6/10/2022 8:00:00 AM 18.48 65.264 0.334 7.9 12.85 8.15
6/10/2022 8:15:00 AM 18.54 65.372 0.332 7.9 12.23 8.19
6/10/2022 8:30:00 AM 18.61 65.498 0.33 7.91 13.1 8.23
6/10/2022 8:45:00 AM 18.69 65.642 0.329 7.91 12.19 8.29
6/10/2022 9:00:00 AM 18.76 65.768 0.328 7.92 13.24 8.35
6/10/2022 9:15:00 AM 18.85 65.93 0.326 7.93 11.85 8.41
6/10/2022 9:30:00 AM 18.94 66.092 0.325 7.94 14.63 8.48
6/10/2022 9:45:00 AM 19.05 66.29 0.324 7.95 12.45 8.55
6/10/2022 10:00:00 AM 19.19 66.542 0.322 7.97 12.49 8.63
6/10/2022 10:15:00 AM 19.34 66.812 0.321 7.99 12.51 8.71
6/10/2022 10:30:00 AM 19.49 67.082 0.32 8.01 10.49 8.79
6/10/2022 10:45:00 AM 19.61 67.298